Darstellungsparameter: Aktuell verwendete Einstellungen:
Skalierung der Graphiken ... ?
xyx+y,   Skalierungsfaktor:      Skalierung: Modus: x, Faktor: 1
Darstellungszeitraum ... ?
Vom - - bis: - -   Zeitraum: 03.04.2017 - 23.04.2017
Min/Max/Avg-Anzeige ... ?
Zeige MMA aktuell
Zeige MMA Monat
Zeige MMA alles
Zeige --A aktuell
Zeige --A Monat
Zeige --A alles
Keine MMA-Anzeige
MMA:
Average (ber die Originaldaten)
MMA-Basis: 03.04.2017 - 23.04.2017
Quicknavigation für Darstellung... ?
Tage:      1T, 2T, 3T, 5T -1T -2T -3T -5T +1T +2T +3T +5T
Wochen: 1W, 2W, 3W -1W -2W -3W +1W +2W +3W
Monate: 1M, 3M, 6M -1M -3M -6M +1M +3M +6M
Jahre:    1J, 3J, 5J, 10J -1J -3J -5J -10J +1J +3J +5J +10J
Nutze für die Darstellung ... ?
Originaldaten oder Mittelwerte auf ...
Stundenbasis Tagesbasis Wochenbasis
Monatsbasis Jahresbasis      Datenbasis: Original-Daten
Darstellen als:
Statistik (Auto) Statistik J:M      Darstellung:
Zur Graphik,    zurück zur Übersicht aller Sensoren.
 
Tabellarische Datenbersicht: ?
 
Sensor: Nr:Datum:Temp:Abs-Feuchte:Windchill:Wind:
Aussen-T/F 1 03-04-2017 00:00:00 8.5 C 7 g/m*3 8.5 C 0 km/h
2 03-04-2017 00:05:00 8.5 C 7 g/m*3 8.5 C 0 km/h
3 03-04-2017 00:10:00 8.4 C 6.96 g/m*3 8.4 C 0 km/h
4 03-04-2017 00:15:00 8.4 C 6.96 g/m*3 8.4 C 0 km/h
5 03-04-2017 00:20:00 8.3 C 6.91 g/m*3 8.3 C 0 km/h
6 03-04-2017 00:25:00 8.2 C 6.87 g/m*3 8.2 C 0 km/h
7 03-04-2017 00:30:00 8.1 C 6.82 g/m*3 8.1 C 0 km/h
8 03-04-2017 00:35:00 7.9 C 6.82 g/m*3 7.9 C 0 km/h
9 03-04-2017 00:40:00 7.8 C 6.86 g/m*3 7.8 C 0 km/h
10 03-04-2017 00:45:00 7.7 C 6.81 g/m*3 7.7 C 0 km/h
11 03-04-2017 00:50:00 7.7 C 6.81 g/m*3 7.7 C 0 km/h
12 03-04-2017 00:55:00 7.6 C 6.77 g/m*3 7.6 C 0 km/h
13 03-04-2017 01:00:00 7.5 C 6.72 g/m*3 7.5 C 0 km/h
14 03-04-2017 01:05:00 7.4 C 6.76 g/m*3 7.4 C 0 km/h
15 03-04-2017 01:10:00 7.4 C 6.76 g/m*3 7.4 C 0 km/h
16 03-04-2017 01:15:00 7.4 C 6.76 g/m*3 7.4 C 0 km/h
17 03-04-2017 01:20:00 7.3 C 6.72 g/m*3 7.3 C 0 km/h
18 03-04-2017 01:25:00 7.3 C 6.79 g/m*3 7.3 C 0 km/h
19 03-04-2017 01:30:00 7.3 C 6.79 g/m*3 7.3 C 0 km/h
20 03-04-2017 01:35:00 7.2 C 6.75 g/m*3 7.2 C 0 km/h
21 03-04-2017 01:40:00 7.2 C 6.75 g/m*3 7.2 C 0 km/h
22 03-04-2017 01:45:00 7.2 C 6.75 g/m*3 7.2 C 0 km/h
23 03-04-2017 01:50:00 7.1 C 6.71 g/m*3 7.1 C 0 km/h
24 03-04-2017 01:55:00 7 C 6.66 g/m*3 7 C 0 km/h
25 03-04-2017 02:00:00 6.9 C 6.7 g/m*3 6.9 C 0 km/h
Sensor: Nr:Datum:Temp:Abs-Feuchte:Windchill:Wind:
Aussen-T/F 26 03-04-2017 02:05:00 6.8 C 6.65 g/m*3 6.8 C 0 km/h
27 03-04-2017 02:10:00 6.8 C 6.65 g/m*3 6.8 C 0 km/h
28 03-04-2017 02:15:00 6.7 C 6.61 g/m*3 6.7 C 0 km/h
29 03-04-2017 02:20:00 6.6 C 6.57 g/m*3 6.6 C 0 km/h
30 03-04-2017 02:25:00 6.4 C 6.48 g/m*3 6.4 C 0 km/h
31 03-04-2017 02:30:00 6.3 C 6.51 g/m*3 6.3 C 0 km/h
32 03-04-2017 02:35:00 6.3 C 6.51 g/m*3 6.3 C 0 km/h
33 03-04-2017 02:40:00 6.3 C 6.51 g/m*3 6.3 C 0 km/h
34 03-04-2017 02:45:00 6.2 C 6.47 g/m*3 6.2 C 0 km/h
35 03-04-2017 02:50:00 6.2 C 6.55 g/m*3 6.2 C 0 km/h
36 03-04-2017 02:55:00 6.1 C 6.5 g/m*3 6.1 C 0 km/h
37 03-04-2017 03:00:00 6 C 6.46 g/m*3 6 C 0 km/h
38 03-04-2017 03:05:00 5.9 C 6.42 g/m*3 5.9 C 0 km/h
39 03-04-2017 03:10:00 5.9 C 6.49 g/m*3 5.9 C 0 km/h
40 03-04-2017 03:15:00 5.9 C 6.49 g/m*3 5.9 C 0 km/h
41 03-04-2017 03:20:00 5.9 C 6.49 g/m*3 5.9 C 0 km/h
42 03-04-2017 03:25:00 5.8 C 6.45 g/m*3 5.8 C 0 km/h
43 03-04-2017 03:30:00 5.7 C 6.4 g/m*3 5.7 C 0 km/h
44 03-04-2017 03:35:00 5.6 C 6.36 g/m*3 5.6 C 0 km/h
45 03-04-2017 03:40:00 5.7 C 6.48 g/m*3 5.7 C 0 km/h
46 03-04-2017 03:45:00 5.6 C 6.36 g/m*3 5.6 C 0 km/h
47 03-04-2017 03:50:00 5.6 C 6.43 g/m*3 5.6 C 0 km/h
48 03-04-2017 03:55:00 5.6 C 6.43 g/m*3 5.6 C 0 km/h
49 03-04-2017 04:00:00 5.5 C 6.39 g/m*3 5.5 C 0 km/h
50 03-04-2017 04:05:00 5.4 C 6.35 g/m*3 5.4 C 0 km/h
Sensor: Nr:Datum:Temp:Abs-Feuchte:Windchill:Wind:
Aussen-T/F 51 03-04-2017 04:10:00 5.3 C 6.31 g/m*3 5.3 C 0 km/h
52 03-04-2017 04:15:00 5.3 C 6.31 g/m*3 5.3 C 0 km/h
53 03-04-2017 04:20:00 5.3 C 6.31 g/m*3 5.3 C 0 km/h
54 03-04-2017 04:25:00 5.2 C 6.27 g/m*3 5.2 C 0 km/h
55 03-04-2017 04:30:00 5.2 C 6.27 g/m*3 5.2 C 0 km/h
56 03-04-2017 04:35:00 5.2 C 6.33 g/m*3 5.2 C 0 km/h
57 03-04-2017 04:40:00 5.1 C 6.29 g/m*3 5.1 C 0 km/h
58 03-04-2017 04:45:00 5.1 C 6.22 g/m*3 5.1 C 0 km/h
59 03-04-2017 04:50:00 5 C 6.25 g/m*3 5 C 0 km/h
60 03-04-2017 04:55:00 5 C 6.25 g/m*3 5 C 0 km/h
61 03-04-2017 05:00:00 5 C 6.25 g/m*3 5 C 0 km/h
62 03-04-2017 05:05:00 4.9 C 6.21 g/m*3 4.9 C 0 km/h
63 03-04-2017 05:10:00 4.9 C 6.21 g/m*3 4.9 C 0 km/h
64 03-04-2017 05:15:00 4.9 C 6.21 g/m*3 4.9 C 0 km/h
65 03-04-2017 05:20:00 4.8 C 6.17 g/m*3 4.8 C 0 km/h
66 03-04-2017 05:25:00 4.8 C 6.17 g/m*3 4.8 C 0 km/h
67 03-04-2017 05:30:00 4.7 C 6.13 g/m*3 4.7 C 0 km/h
68 03-04-2017 05:35:00 4.7 C 6.13 g/m*3 4.7 C 0 km/h
69 03-04-2017 05:40:00 4.6 C 6.09 g/m*3 4.6 C 0 km/h
70 03-04-2017 05:45:00 4.6 C 6.09 g/m*3 4.6 C 0 km/h
71 03-04-2017 05:50:00 4.6 C 6.15 g/m*3 4.6 C 0 km/h
72 03-04-2017 05:55:00 4.5 C 6.11 g/m*3 4.5 C 0 km/h
73 03-04-2017 06:00:00 4.6 C 6.15 g/m*3 4.6 C 0 km/h
74 03-04-2017 06:05:00 4.6 C 6.15 g/m*3 4.6 C 0 km/h
75 03-04-2017 06:10:00 4.5 C 6.11 g/m*3 4.5 C 0 km/h
Sensor: Nr:Datum:Temp:Abs-Feuchte:Windchill:Wind:
Aussen-T/F 76 03-04-2017 06:15:00 4.4 C 6.07 g/m*3 4.4 C 0 km/h
77 03-04-2017 06:20:00 4.4 C 6.07 g/m*3 4.4 C 0 km/h
78 03-04-2017 06:25:00 4.3 C 6.03 g/m*3 4.3 C 0 km/h
79 03-04-2017 06:30:00 4.3 C 6.03 g/m*3 4.3 C 0 km/h
80 03-04-2017 06:35:00 4.3 C 6.03 g/m*3 4.3 C 0 km/h
81 03-04-2017 06:40:00 4.3 C 6.1 g/m*3 4.3 C 0 km/h
82 03-04-2017 06:45:00 4.3 C 6.03 g/m*3 4.3 C 0 km/h
83 03-04-2017 06:50:00 4.2 C 6.06 g/m*3 4.2 C 0 km/h
84 03-04-2017 06:55:00 4.2 C 5.99 g/m*3 4.2 C 0 km/h
85 03-04-2017 07:00:00 4.1 C 5.95 g/m*3 4.1 C 0 km/h
86 03-04-2017 07:05:00 4.2 C 6.06 g/m*3 4.2 C 0 km/h
87 03-04-2017 07:10:00 4.1 C 6.02 g/m*3 4.1 C 0 km/h
88 03-04-2017 07:15:00 4.1 C 6.02 g/m*3 4.1 C 0 km/h
89 03-04-2017 07:20:00 4.1 C 6.02 g/m*3 4.1 C 0 km/h
90 03-04-2017 07:25:00 4.2 C 6.06 g/m*3 4.2 C 0 km/h
91 03-04-2017 07:30:00 4.2 C 6.06 g/m*3 4.2 C 0 km/h
92 03-04-2017 07:35:00 4.2 C 6.06 g/m*3 4.2 C 0 km/h
93 03-04-2017 07:40:00 4.3 C 6.1 g/m*3 4.3 C 0 km/h
94 03-04-2017 07:45:00 4.3 C 6.1 g/m*3 4.3 C 0 km/h
95 03-04-2017 07:50:00 4.3 C 6.1 g/m*3 4.3 C 0 km/h
96 03-04-2017 07:55:00 4.4 C 6.14 g/m*3 4.4 C 0 km/h
97 03-04-2017 08:00:00 4.5 C 6.24 g/m*3 4.5 C 0 km/h
98 03-04-2017 08:05:00 4.6 C 6.29 g/m*3 4.6 C 0 km/h
99 03-04-2017 08:10:00 4.7 C 6.33 g/m*3 4.7 C 0 km/h
100 03-04-2017 08:15:00 4.8 C 6.37 g/m*3 4.8 C 0 km/h
Sensor: Nr:Datum:Temp:Abs-Feuchte:Windchill:Wind:
Aussen-T/F 101 03-04-2017 08:20:00 4.8 C 6.37 g/m*3 4.8 C 0 km/h
102 03-04-2017 08:25:00 4.9 C 6.41 g/m*3 4.9 C 0 km/h
103 03-04-2017 08:30:00 5.1 C 6.5 g/m*3 5.1 C 0 km/h
104 03-04-2017 08:35:00 5.1 C 6.5 g/m*3 5.1 C 0 km/h
105 03-04-2017 08:40:00 5.2 C 6.54 g/m*3 5.2 C 0 km/h
106 03-04-2017 08:45:00 5.3 C 6.58 g/m*3 5.3 C 0 km/h
107 03-04-2017 08:50:00 5.3 C 6.58 g/m*3 5.3 C 0 km/h
108 03-04-2017 08:55:00 5.4 C 6.63 g/m*3 5.4 C 0 km/h
109 03-04-2017 09:00:00 5.4 C 6.56 g/m*3 5.4 C 0 km/h
110 03-04-2017 09:05:00 5.6 C 6.72 g/m*3 5.6 C 0 km/h
111 03-04-2017 09:10:00 5.7 C 6.76 g/m*3 5.7 C 0 km/h
112 03-04-2017 09:15:00 5.8 C 6.81 g/m*3 5.8 C 0 km/h
113 03-04-2017 09:20:00 5.9 C 6.85 g/m*3 5.9 C 0 km/h
114 03-04-2017 09:25:00 6 C 6.9 g/m*3 6 C 1.6 km/h
115 03-04-2017 09:30:00 6.2 C 6.99 g/m*3 6.2 C 0 km/h
116 03-04-2017 09:35:00 6.3 C 7.03 g/m*3 6.3 C 1.6 km/h
117 03-04-2017 09:40:00 6.4 C 7.08 g/m*3 6.4 C 0 km/h
118 03-04-2017 09:45:00 6.6 C 7.17 g/m*3 6.6 C 0 km/h
119 03-04-2017 09:50:00 6.7 C 7.22 g/m*3 6.7 C 0 km/h
120 03-04-2017 09:55:00 6.9 C 7.31 g/m*3 6.9 C 0 km/h
121 03-04-2017 10:00:00 7.3 C 7.51 g/m*3 7.3 C 0 km/h
122 03-04-2017 10:05:00 7.4 C 7.55 g/m*3 7.4 C 0 km/h
123 03-04-2017 10:10:00 7.6 C 7.65 g/m*3 7.6 C 0 km/h
124 03-04-2017 10:15:00 7.8 C 7.75 g/m*3 7.8 C 0 km/h
125 03-04-2017 10:20:00 8.1 C 7.9 g/m*3 8.1 C 0 km/h
Sensor: Nr:Datum:Temp:Abs-Feuchte:Windchill:Wind:
Aussen-T/F 126 03-04-2017 10:25:00 8.4 C 7.97 g/m*3 8.4 C 0 km/h
127 03-04-2017 10:30:00 8.7 C 8.13 g/m*3 8.7 C 0 km/h
128 03-04-2017 10:35:00 8.9 C 8.23 g/m*3 8.9 C 0 km/h
129 03-04-2017 10:40:00 9.1 C 8.25 g/m*3 9.1 C 1.6 km/h
130 03-04-2017 10:45:00 9.3 C 8.27 g/m*3 9.3 C 1.6 km/h
131 03-04-2017 10:50:00 9.6 C 8.34 g/m*3 9.6 C 0 km/h
132 03-04-2017 10:55:00 9.8 C 8.35 g/m*3 9.8 C 1.6 km/h
133 03-04-2017 11:00:00 10.1 C 8.51 g/m*3 10.1 C 1.6 km/h
134 03-04-2017 11:05:00 10.3 C 8.52 g/m*3 10.3 C 1.6 km/h
135 03-04-2017 11:10:00 10.6 C 8.59 g/m*3 10.6 C 0 km/h
136 03-04-2017 11:15:00 10.8 C 8.6 g/m*3 10.8 C 0 km/h
137 03-04-2017 11:20:00 11 C 8.71 g/m*3 11 C 1.6 km/h
138 03-04-2017 11:25:00 11.2 C 8.62 g/m*3 11.2 C 3.2 km/h
139 03-04-2017 11:30:00 11.4 C 8.72 g/m*3 11.4 C 1.6 km/h
140 03-04-2017 11:35:00 11.7 C 8.68 g/m*3 11.7 C 6.4 km/h
141 03-04-2017 11:40:00 12 C 8.74 g/m*3 12 C 6.4 km/h
142 03-04-2017 11:45:00 12.2 C 8.85 g/m*3 12.2 C 4.8 km/h
143 03-04-2017 11:50:00 12.5 C 8.8 g/m*3 12.5 C 8.1 km/h
144 03-04-2017 11:55:00 12.7 C 8.79 g/m*3 12.7 C 6.4 km/h
145 03-04-2017 12:00:00 12.9 C 8.79 g/m*3 12.9 C 4.8 km/h
146 03-04-2017 12:05:00 13.1 C 8.79 g/m*3 13.1 C 9.7 km/h
147 03-04-2017 12:10:00 13.2 C 8.84 g/m*3 13.2 C 4.8 km/h
148 03-04-2017 12:15:00 13.3 C 8.78 g/m*3 13.3 C 3.2 km/h
149 03-04-2017 12:20:00 13.5 C 8.89 g/m*3 13.5 C 8.1 km/h
150 03-04-2017 12:25:00 13.7 C 8.76 g/m*3 13.7 C 8.1 km/h
Sensor: Nr:Datum:Temp:Abs-Feuchte:Windchill:Wind:
Aussen-T/F 151 03-04-2017 12:30:00 13.8 C 8.82 g/m*3 13.8 C 4.8 km/h
152 03-04-2017 12:35:00 13.9 C 8.75 g/m*3 13.9 C 6.4 km/h
153 03-04-2017 12:40:00 14.2 C 8.79 g/m*3 14.2 C 8.1 km/h
154 03-04-2017 12:45:00 14.2 C 8.67 g/m*3 14.2 C 9.7 km/h
155 03-04-2017 12:50:00 14.2 C 8.67 g/m*3 14.2 C 8.1 km/h
156 03-04-2017 12:55:00 14.2 C 8.55 g/m*3 14.2 C 11.3 km/h
157 03-04-2017 13:00:00 14.3 C 8.48 g/m*3 14.3 C 6.4 km/h
158 03-04-2017 13:05:00 14.4 C 8.41 g/m*3 14.4 C 12.9 km/h
159 03-04-2017 13:10:00 14.6 C 8.51 g/m*3 14.6 C 4.8 km/h
160 03-04-2017 13:15:00 14.6 C 8.63 g/m*3 14.6 C 6.4 km/h
161 03-04-2017 13:20:00 14.7 C 8.56 g/m*3 14.7 C 11.3 km/h
162 03-04-2017 13:25:00 14.8 C 8.61 g/m*3 14.8 C 8.1 km/h
163 03-04-2017 13:30:00 14.9 C 8.67 g/m*3 14.9 C 11.3 km/h
164 03-04-2017 13:35:00 15.1 C 8.51 g/m*3 15.1 C 12.9 km/h
165 03-04-2017 13:40:00 15.1 C 8.39 g/m*3 15.1 C 8.1 km/h
166 03-04-2017 13:45:00 15.2 C 8.57 g/m*3 15.2 C 9.7 km/h
167 03-04-2017 13:50:00 15.3 C 8.36 g/m*3 15.3 C 16.1 km/h
168 03-04-2017 13:55:00 15.3 C 8.23 g/m*3 15.3 C 9.7 km/h
169 03-04-2017 14:00:00 15.4 C 8.28 g/m*3 15.4 C 12.9 km/h
170 03-04-2017 14:05:00 15.5 C 8.2 g/m*3 15.5 C 8.1 km/h
171 03-04-2017 14:10:00 15.6 C 8.11 g/m*3 15.6 C 14.5 km/h
172 03-04-2017 14:15:00 15.7 C 8.03 g/m*3 15.7 C 9.7 km/h
173 03-04-2017 14:20:00 15.8 C 7.94 g/m*3 15.8 C 19.3 km/h
174 03-04-2017 14:25:00 15.8 C 8.08 g/m*3 15.8 C 12.9 km/h
175 03-04-2017 14:30:00 15.8 C 8.08 g/m*3 15.8 C 8.1 km/h
Sensor: Nr:Datum:Temp:Abs-Feuchte:Windchill:Wind:
Aussen-T/F 176 03-04-2017 14:35:00 16 C 7.9 g/m*3 16 C 9.7 km/h
177 03-04-2017 14:40:00 16.2 C 7.86 g/m*3 16.2 C 8.1 km/h
178 03-04-2017 14:45:00 16.3 C 7.77 g/m*3 16.3 C 9.7 km/h
179 03-04-2017 14:50:00 16.3 C 7.77 g/m*3 16.3 C 9.7 km/h
180 03-04-2017 14:55:00 16.3 C 7.63 g/m*3 16.3 C 9.7 km/h
181 03-04-2017 15:00:00 16.4 C 7.54 g/m*3 16.4 C 12.9 km/h
182 03-04-2017 15:05:00 16.5 C 7.72 g/m*3 16.5 C 9.7 km/h
183 03-04-2017 15:10:00 16.6 C 7.63 g/m*3 16.6 C 6.4 km/h
184 03-04-2017 15:15:00 16.7 C 7.53 g/m*3 16.7 C 8.1 km/h
185 03-04-2017 15:20:00 16.7 C 7.25 g/m*3 16.7 C 12.9 km/h
186 03-04-2017 15:25:00 16.7 C 7.25 g/m*3 16.7 C 4.8 km/h
187 03-04-2017 15:30:00 16.7 C 7.11 g/m*3 16.7 C 9.7 km/h
188 03-04-2017 15:35:00 16.9 C 7.34 g/m*3 16.9 C 8.1 km/h
189 03-04-2017 15:40:00 16.9 C 7.34 g/m*3 16.9 C 9.7 km/h
190 03-04-2017 15:45:00 17 C 7.38 g/m*3 17 C 9.7 km/h
191 03-04-2017 15:50:00 17.1 C 7.13 g/m*3 17.1 C 8.1 km/h
192 03-04-2017 15:55:00 17.1 C 7.57 g/m*3 17.1 C 11.3 km/h
193 03-04-2017 16:00:00 17.2 C 7.32 g/m*3 17.2 C 8.1 km/h
194 03-04-2017 16:05:00 17.3 C 7.51 g/m*3 17.3 C 8.1 km/h
195 03-04-2017 16:10:00 17.4 C 7.41 g/m*3 17.4 C 8.1 km/h
196 03-04-2017 16:15:00 17.6 C 7.5 g/m*3 17.6 C 11.3 km/h
197 03-04-2017 16:20:00 17.6 C 7.65 g/m*3 17.6 C 8.1 km/h
198 03-04-2017 16:25:00 17.7 C 7.69 g/m*3 17.7 C 12.9 km/h
199 03-04-2017 16:30:00 17.8 C 7.44 g/m*3 17.8 C 12.9 km/h
200 03-04-2017 16:35:00 17.6 C 7.5 g/m*3 17.6 C 6.4 km/h
Sensor: Nr:Datum:Temp:Abs-Feuchte:Windchill:Wind:
Aussen-T/F 201 03-04-2017 16:40:00 17.6 C 7.5 g/m*3 17.6 C 11.3 km/h
202 03-04-2017 16:45:00 17.5 C 7.6 g/m*3 17.5 C 8.1 km/h
203 03-04-2017 16:50:00 17.7 C 7.39 g/m*3 17.7 C 9.7 km/h
204 03-04-2017 16:55:00 17.7 C 7.39 g/m*3 17.7 C 9.7 km/h
205 03-04-2017 17:00:00 17.8 C 7.29 g/m*3 17.8 C 12.9 km/h
206 03-04-2017 17:05:00 17.8 C 7.29 g/m*3 17.8 C 14.5 km/h
207 03-04-2017 17:10:00 17.8 C 7.13 g/m*3 17.8 C 11.3 km/h
208 03-04-2017 17:15:00 17.9 C 7.33 g/m*3 17.9 C 9.7 km/h
209 03-04-2017 17:20:00 18.2 C 7.15 g/m*3 18.2 C 9.7 km/h
210 03-04-2017 17:25:00 18.3 C 7.19 g/m*3 18.3 C 8.1 km/h
211 03-04-2017 17:30:00 18.4 C 7.08 g/m*3 18.4 C 11.3 km/h
212 03-04-2017 17:35:00 18.4 C 7.24 g/m*3 18.4 C 8.1 km/h
213 03-04-2017 17:40:00 18.5 C 6.96 g/m*3 18.5 C 9.7 km/h
214 03-04-2017 17:45:00 18.3 C 6.72 g/m*3 18.3 C 8.1 km/h
215 03-04-2017 17:50:00 18.3 C 7.04 g/m*3 18.3 C 8.1 km/h
216 03-04-2017 17:55:00 18.2 C 6.84 g/m*3 18.2 C 14.5 km/h
217 03-04-2017 18:00:00 18.2 C 6.84 g/m*3 18.2 C 8.1 km/h
218 03-04-2017 18:05:00 18.3 C 7.04 g/m*3 18.3 C 9.7 km/h
219 03-04-2017 18:10:00 18.2 C 6.99 g/m*3 18.2 C 11.3 km/h
220 03-04-2017 18:15:00 17.9 C 6.87 g/m*3 17.9 C 12.9 km/h
221 03-04-2017 18:20:00 17.7 C 6.94 g/m*3 17.7 C 12.9 km/h
222 03-04-2017 18:25:00 17.6 C 6.9 g/m*3 17.6 C 12.9 km/h
223 03-04-2017 18:30:00 17.6 C 6.9 g/m*3 17.6 C 9.7 km/h
224 03-04-2017 18:35:00 17.6 C 6.9 g/m*3 17.6 C 12.9 km/h
225 03-04-2017 18:40:00 17.6 C 6.9 g/m*3 17.6 C 9.7 km/h
Sensor: Nr:Datum:Temp:Abs-Feuchte:Windchill:Wind:
Aussen-T/F 226 03-04-2017 18:45:00 17.6 C 7.05 g/m*3 17.6 C 8.1 km/h
227 03-04-2017 18:50:00 17.6 C 7.05 g/m*3 17.6 C 12.9 km/h
228 03-04-2017 18:55:00 17.6 C 7.05 g/m*3 17.6 C 9.7 km/h
229 03-04-2017 19:00:00 17.6 C 7.05 g/m*3 17.6 C 4.8 km/h
230 03-04-2017 19:05:00 17.7 C 7.24 g/m*3 17.7 C 4.8 km/h
231 03-04-2017 19:10:00 17.7 C 7.24 g/m*3 17.7 C 8.1 km/h
232 03-04-2017 19:15:00 17.3 C 7.22 g/m*3 17.3 C 9.7 km/h
233 03-04-2017 19:20:00 17.1 C 7.28 g/m*3 17.1 C 8.1 km/h
234 03-04-2017 19:25:00 16.9 C 7.19 g/m*3 16.9 C 9.7 km/h
235 03-04-2017 19:30:00 16.6 C 7.2 g/m*3 16.6 C 11.3 km/h
236 03-04-2017 19:35:00 16.3 C 7.35 g/m*3 16.3 C 4.8 km/h
237 03-04-2017 19:40:00 15.9 C 7.18 g/m*3 15.9 C 6.4 km/h
238 03-04-2017 19:45:00 15.7 C 7.23 g/m*3 15.7 C 9.7 km/h
239 03-04-2017 19:50:00 15.4 C 7.23 g/m*3 15.4 C 3.2 km/h
240 03-04-2017 19:55:00 15.1 C 7.35 g/m*3 15.1 C 1.6 km/h
241 03-04-2017 20:00:00 14.7 C 7.43 g/m*3 14.7 C 3.2 km/h
242 03-04-2017 20:05:00 14.1 C 7.28 g/m*3 14.1 C 3.2 km/h
243 03-04-2017 20:10:00 13.6 C 7.41 g/m*3 13.6 C 3.2 km/h
244 03-04-2017 20:15:00 13.2 C 7.23 g/m*3 13.2 C 1.6 km/h
245 03-04-2017 20:20:00 12.8 C 7.39 g/m*3 12.8 C 3.2 km/h
246 03-04-2017 20:25:00 12.5 C 7.37 g/m*3 12.5 C 3.2 km/h
247 03-04-2017 20:30:00 12.2 C 7.34 g/m*3 12.2 C 1.6 km/h
248 03-04-2017 20:35:00 11.9 C 7.31 g/m*3 11.9 C 1.6 km/h
249 03-04-2017 20:40:00 11.7 C 7.43 g/m*3 11.7 C 4.8 km/h
250 03-04-2017 20:45:00 11.4 C 7.29 g/m*3 11.4 C 6.4 km/h
Sensor: Nr:Datum:Temp:Abs-Feuchte:Windchill:Wind:
Aussen-T/F 251 03-04-2017 20:50:00 11.2 C 7.3 g/m*3 11.2 C 6.4 km/h
252 03-04-2017 20:55:00 11.1 C 7.35 g/m*3 11.1 C 6.4 km/h
253 03-04-2017 21:00:00 10.9 C 7.36 g/m*3 10.9 C 4.8 km/h
254 03-04-2017 21:05:00 10.9 C 7.36 g/m*3 10.9 C 4.8 km/h
255 03-04-2017 21:10:00 10.8 C 7.31 g/m*3 10.8 C 4.8 km/h
256 03-04-2017 21:15:00 10.8 C 7.31 g/m*3 10.8 C 4.8 km/h
257 03-04-2017 21:20:00 10.8 C 7.41 g/m*3 10.8 C 4.8 km/h
258 03-04-2017 21:25:00 10.7 C 7.37 g/m*3 10.7 C 3.2 km/h
259 03-04-2017 21:30:00 10.7 C 7.37 g/m*3 10.7 C 3.2 km/h
260 03-04-2017 21:35:00 10.7 C 7.37 g/m*3 10.7 C 3.2 km/h
261 03-04-2017 21:40:00 10.8 C 7.41 g/m*3 10.8 C 3.2 km/h
262 03-04-2017 21:45:00 10.8 C 7.41 g/m*3 10.8 C 3.2 km/h
263 03-04-2017 21:50:00 10.8 C 7.41 g/m*3 10.8 C 4.8 km/h
264 03-04-2017 21:55:00 10.8 C 7.31 g/m*3 10.8 C 4.8 km/h
265 03-04-2017 22:00:00 10.8 C 7.41 g/m*3 10.8 C 3.2 km/h
266 03-04-2017 22:05:00 10.8 C 7.41 g/m*3 10.8 C 3.2 km/h
267 03-04-2017 22:10:00 10.7 C 7.37 g/m*3 10.7 C 3.2 km/h
268 03-04-2017 22:15:00 10.6 C 7.32 g/m*3 10.6 C 3.2 km/h
269 03-04-2017 22:20:00 10.5 C 7.27 g/m*3 10.5 C 3.2 km/h
270 03-04-2017 22:25:00 10.4 C 7.23 g/m*3 10.4 C 0 km/h
271 03-04-2017 22:30:00 10.3 C 7.28 g/m*3 10.3 C 3.2 km/h
272 03-04-2017 22:35:00 10.2 C 7.23 g/m*3 10.2 C 4.8 km/h
273 03-04-2017 22:40:00 10.2 C 7.33 g/m*3 10.2 C 4.8 km/h
274 03-04-2017 22:45:00 10.1 C 7.28 g/m*3 10.1 C 3.2 km/h
275 03-04-2017 22:50:00 9.9 C 7.28 g/m*3 9.9 C 3.2 km/h
Sensor: Nr:Datum:Temp:Abs-Feuchte:Windchill:Wind:
Aussen-T/F 276 03-04-2017 22:55:00 9.7 C 7.19 g/m*3 9.7 C 3.2 km/h
277 03-04-2017 23:00:00 9.7 C 7.19 g/m*3 9.7 C 4.8 km/h
278 03-04-2017 23:05:00 9.6 C 7.15 g/m*3 9.6 C 3.2 km/h
279 03-04-2017 23:10:00 9.5 C 7.19 g/m*3 9.5 C 3.2 km/h
280 03-04-2017 23:15:00 9.4 C 7.15 g/m*3 9.4 C 4.8 km/h
281 03-04-2017 23:20:00 9.3 C 7.1 g/m*3 9.3 C 4.8 km/h
282 03-04-2017 23:25:00 9.3 C 7.1 g/m*3 9.3 C 4.8 km/h
283 03-04-2017 23:30:00 9.2 C 7.14 g/m*3 9.2 C 4.8 km/h
284 03-04-2017 23:35:00 9.2 C 7.14 g/m*3 9.2 C 3.2 km/h
285 03-04-2017 23:40:00 9.1 C 7.1 g/m*3 9.1 C 3.2 km/h
286 03-04-2017 23:45:00 8.9 C 7.1 g/m*3 8.9 C 3.2 km/h
287 03-04-2017 23:50:00 8.8 C 7.05 g/m*3 8.8 C 3.2 km/h
288 03-04-2017 23:55:00 8.7 C 7.01 g/m*3 8.7 C 3.2 km/h
289 04-04-2017 00:00:00 8.6 C 6.96 g/m*3 8.6 C 0 km/h
290 04-04-2017 00:05:00 8.4 C 6.96 g/m*3 8.4 C 0 km/h
291 04-04-2017 00:10:00 8.1 C 6.82 g/m*3 8.1 C 0 km/h
292 04-04-2017 00:15:00 7.9 C 6.82 g/m*3 7.9 C 1.6 km/h
293 04-04-2017 00:20:00 7.8 C 6.86 g/m*3 7.8 C 1.6 km/h
294 04-04-2017 00:25:00 7.6 C 6.77 g/m*3 7.6 C 0 km/h
295 04-04-2017 00:30:00 7.4 C 6.68 g/m*3 7.4 C 0 km/h
296 04-04-2017 00:35:00 7.2 C 6.59 g/m*3 7.2 C 0 km/h
297 04-04-2017 00:40:00 6.9 C 6.54 g/m*3 6.9 C 0 km/h
298 04-04-2017 00:45:00 6.8 C 6.5 g/m*3 6.8 C 0 km/h
299 04-04-2017 00:50:00 6.7 C 6.53 g/m*3 6.7 C 0 km/h
300 04-04-2017 00:55:00 6.5 C 6.45 g/m*3 6.5 C 0 km/h
Sensor: Nr:Datum:Temp:Abs-Feuchte:Windchill:Wind:
Aussen-T/F 301 04-04-2017 01:00:00 6.4 C 6.48 g/m*3 6.4 C 0 km/h
302 04-04-2017 01:05:00 6.3 C 6.44 g/m*3 6.3 C 0 km/h
303 04-04-2017 01:10:00 6.2 C 6.4 g/m*3 6.2 C 0 km/h
304 04-04-2017 01:15:00 6.2 C 6.47 g/m*3 6.2 C 0 km/h
305 04-04-2017 01:20:00 6.1 C 6.43 g/m*3 6.1 C 0 km/h
306 04-04-2017 01:25:00 6.1 C 6.43 g/m*3 6.1 C 0 km/h
307 04-04-2017 01:30:00 6 C 6.39 g/m*3 6 C 0 km/h
308 04-04-2017 01:35:00 5.9 C 6.35 g/m*3 5.9 C 0 km/h
309 04-04-2017 01:40:00 5.8 C 6.38 g/m*3 5.8 C 0 km/h
310 04-04-2017 01:45:00 5.7 C 6.33 g/m*3 5.7 C 0 km/h
311 04-04-2017 01:50:00 5.7 C 6.4 g/m*3 5.7 C 1.6 km/h
312 04-04-2017 01:55:00 5.7 C 6.33 g/m*3 5.7 C 0 km/h
313 04-04-2017 02:00:00 5.6 C 6.29 g/m*3 5.6 C 0 km/h
314 04-04-2017 02:05:00 5.4 C 6.21 g/m*3 5.4 C 0 km/h
315 04-04-2017 02:10:00 5.4 C 6.21 g/m*3 5.4 C 0 km/h
316 04-04-2017 02:15:00 5.3 C 6.24 g/m*3 5.3 C 0 km/h
317 04-04-2017 02:20:00 5.2 C 6.13 g/m*3 5.2 C 0 km/h
318 04-04-2017 02:25:00 5 C 6.05 g/m*3 5 C 0 km/h
319 04-04-2017 02:30:00 4.9 C 6.08 g/m*3 4.9 C 0 km/h
320 04-04-2017 02:35:00 4.8 C 6.1 g/m*3 4.8 C 0 km/h
321 04-04-2017 02:40:00 4.8 C 6.1 g/m*3 4.8 C 0 km/h
322 04-04-2017 02:45:00 4.8 C 6.1 g/m*3 4.8 C 0 km/h
323 04-04-2017 02:50:00 4.8 C 6.1 g/m*3 4.8 C 0 km/h
324 04-04-2017 02:55:00 4.7 C 6.06 g/m*3 4.7 C 0 km/h
325 04-04-2017 03:00:00 4.6 C 6.02 g/m*3 4.6 C 0 km/h
Sensor: Nr:Datum:Temp:Abs-Feuchte:Windchill:Wind:
Aussen-T/F 326 04-04-2017 03:05:00 4.6 C 6.02 g/m*3 4.6 C 0 km/h
327 04-04-2017 03:10:00 4.6 C 6.09 g/m*3 4.6 C 0 km/h
328 04-04-2017 03:15:00 4.6 C 6.09 g/m*3 4.6 C 0 km/h
329 04-04-2017 03:20:00 4.5 C 6.05 g/m*3 4.5 C 0 km/h
330 04-04-2017 03:25:00 4.4 C 6.01 g/m*3 4.4 C 0 km/h
331 04-04-2017 03:30:00 4.5 C 6.05 g/m*3 4.5 C 0 km/h
332 04-04-2017 03:35:00 4.4 C 6.01 g/m*3 4.4 C 0 km/h
333 04-04-2017 03:40:00 4.4 C 6.01 g/m*3 4.4 C 0 km/h
334 04-04-2017 03:45:00 4.3 C 5.97 g/m*3 4.3 C 0 km/h
335 04-04-2017 03:50:00 4.1 C 5.89 g/m*3 4.1 C 0 km/h
336 04-04-2017 03:55:00 4.1 C 5.89 g/m*3 4.1 C 0 km/h
337 04-04-2017 04:00:00 4.1 C 5.89 g/m*3 4.1 C 0 km/h
338 04-04-2017 04:05:00 4.1 C 5.95 g/m*3 4.1 C 0 km/h
339 04-04-2017 04:10:00 3.9 C 5.81 g/m*3 3.9 C 0 km/h
340 04-04-2017 04:15:00 3.9 C 5.87 g/m*3 3.9 C 0 km/h
341 04-04-2017 04:20:00 3.9 C 5.87 g/m*3 3.9 C 0 km/h
342 04-04-2017 04:25:00 3.9 C 5.87 g/m*3 3.9 C 0 km/h
343 04-04-2017 04:30:00 3.9 C 5.87 g/m*3 3.9 C 0 km/h
344 04-04-2017 04:35:00 3.8 C 5.83 g/m*3 3.8 C 0 km/h
345 04-04-2017 04:40:00 3.7 C 5.8 g/m*3 3.7 C 0 km/h
346 04-04-2017 04:45:00 3.6 C 5.76 g/m*3 3.6 C 0 km/h
347 04-04-2017 04:50:00 3.6 C 5.76 g/m*3 3.6 C 0 km/h
348 04-04-2017 04:55:00 3.6 C 5.76 g/m*3 3.6 C 0 km/h
349 04-04-2017 05:00:00 3.5 C 5.72 g/m*3 3.5 C 0 km/h
350 04-04-2017 05:05:00 3.4 C 5.68 g/m*3 3.4 C 0 km/h
Sensor: Nr:Datum:Temp:Abs-Feuchte:Windchill:Wind:
Aussen-T/F 351 04-04-2017 05:10:00 3.4 C 5.68 g/m*3 3.4 C 0 km/h
352 04-04-2017 05:15:00 3.4 C 5.68 g/m*3 3.4 C 0 km/h
353 04-04-2017 05:20:00 3.4 C 5.74 g/m*3 3.4 C 0 km/h
354 04-04-2017 05:25:00 3.4 C 5.74 g/m*3 3.4 C 0 km/h
355 04-04-2017 05:30:00 3.4 C 5.74 g/m*3 3.4 C 0 km/h
356 04-04-2017 05:35:00 3.4 C 5.74 g/m*3 3.4 C 0 km/h
357 04-04-2017 05:40:00 3.3 C 5.7 g/m*3 3.3 C 0 km/h
358 04-04-2017 05:45:00 3.4 C 5.74 g/m*3 3.4 C 0 km/h
359 04-04-2017 05:50:00 3.3 C 5.7 g/m*3 3.3 C 0 km/h
360 04-04-2017 05:55:00 3.3 C 5.7 g/m*3 3.3 C 0 km/h
361 04-04-2017 06:00:00 3.2 C 5.66 g/m*3 3.2 C 0 km/h
362 04-04-2017 06:05:00 3.1 C 5.63 g/m*3 3.1 C 0 km/h
363 04-04-2017 06:10:00 3.1 C 5.63 g/m*3 3.1 C 0 km/h
364 04-04-2017 06:15:00 2.9 C 5.55 g/m*3 2.9 C 0 km/h
365 04-04-2017 06:20:00 2.9 C 5.55 g/m*3 2.9 C 0 km/h
366 04-04-2017 06:25:00 2.9 C 5.55 g/m*3 2.9 C 0 km/h
367 04-04-2017 06:30:00 2.9 C 5.55 g/m*3 2.9 C 0 km/h
368 04-04-2017 06:35:00 2.8 C 5.51 g/m*3 2.8 C 0 km/h
369 04-04-2017 06:40:00 2.7 C 5.48 g/m*3 2.7 C 0 km/h
370 04-04-2017 06:45:00 2.7 C 5.48 g/m*3 2.7 C 0 km/h
371 04-04-2017 06:50:00 2.7 C 5.48 g/m*3 2.7 C 0 km/h
372 04-04-2017 06:55:00 2.8 C 5.51 g/m*3 2.8 C 0 km/h
373 04-04-2017 07:00:00 2.8 C 5.57 g/m*3 2.8 C 0 km/h
374 04-04-2017 07:05:00 2.9 C 5.61 g/m*3 2.9 C 0 km/h
375 04-04-2017 07:10:00 3.1 C 5.69 g/m*3 3.1 C 0 km/h
Sensor: Nr:Datum:Temp:Abs-Feuchte:Windchill:Wind:
Aussen-T/F 376 04-04-2017 07:15:00 3.1 C 5.69 g/m*3 3.1 C 0 km/h
377 04-04-2017 07:20:00 3 C 5.59 g/m*3 3 C 0 km/h
378 04-04-2017 07:25:00 2.8 C 5.51 g/m*3 2.8 C 0 km/h
379 04-04-2017 07:30:00 2.8 C 5.51 g/m*3 2.8 C 0 km/h
380 04-04-2017 07:35:00 2.7 C 5.48 g/m*3 2.7 C 0 km/h
381 04-04-2017 07:40:00 2.7 C 5.48 g/m*3 2.7 C 0 km/h
382 04-04-2017 07:45:00 2.7 C 5.48 g/m*3 2.7 C 0 km/h
383 04-04-2017 07:50:00 2.7 C 5.54 g/m*3 2.7 C 3.2 km/h
384 04-04-2017 07:55:00 2.8 C 5.57 g/m*3 2.8 C 0 km/h
385 04-04-2017 08:00:00 2.9 C 5.61 g/m*3 2.9 C 0 km/h
386 04-04-2017 08:05:00 2.9 C 5.61 g/m*3 2.9 C 0 km/h
387 04-04-2017 08:10:00 3.1 C 5.69 g/m*3 3.1 C 0 km/h
388 04-04-2017 08:15:00 3.2 C 5.72 g/m*3 3.2 C 1.6 km/h
389 04-04-2017 08:20:00 3.2 C 5.72 g/m*3 3.2 C 0 km/h
390 04-04-2017 08:25:00 3.3 C 5.76 g/m*3 3.3 C 0 km/h
391 04-04-2017 08:30:00 3.3 C 5.76 g/m*3 3.3 C 0 km/h
392 04-04-2017 08:35:00 3.3 C 5.76 g/m*3 3.3 C 0 km/h
393 04-04-2017 08:40:00 3.4 C 5.8 g/m*3 3.4 C 0 km/h
394 04-04-2017 08:45:00 3.5 C 5.84 g/m*3 3.5 C 0 km/h
395 04-04-2017 08:50:00 3.6 C 5.88 g/m*3 3.6 C 0 km/h
396 04-04-2017 08:55:00 3.7 C 5.92 g/m*3 3.7 C 0 km/h
397 04-04-2017 09:00:00 3.8 C 5.96 g/m*3 3.8 C 0 km/h
398 04-04-2017 09:05:00 3.8 C 5.96 g/m*3 3.8 C 0 km/h
399 04-04-2017 09:10:00 3.9 C 6 g/m*3 3.9 C 0 km/h
400 04-04-2017 09:15:00 4.1 C 6.08 g/m*3 4.1 C 0 km/h
Sensor: Nr:Datum:Temp:Abs-Feuchte:Windchill:Wind:
Aussen-T/F 401 04-04-2017 09:20:00 4.1 C 6.14 g/m*3 4.1 C 0 km/h
402 04-04-2017 09:25:00 4.2 C 6.12 g/m*3 4.2 C 0 km/h
403 04-04-2017 09:30:00 4.3 C 6.16 g/m*3 4.3 C 0 km/h
404 04-04-2017 09:35:00 4.4 C 6.27 g/m*3 4.4 C 0 km/h
405 04-04-2017 09:40:00 4.6 C 6.35 g/m*3 4.6 C 0 km/h
406 04-04-2017 09:45:00 4.7 C 6.39 g/m*3 4.7 C 0 km/h
407 04-04-2017 09:50:00 4.8 C 6.44 g/m*3 4.8 C 0 km/h
408 04-04-2017 09:55:00 4.9 C 6.48 g/m*3 4.9 C 0 km/h
409 04-04-2017 10:00:00 5.1 C 6.57 g/m*3 5.1 C 0 km/h
410 04-04-2017 10:05:00 5.3 C 6.65 g/m*3 5.3 C 0 km/h
411 04-04-2017 10:10:00 5.5 C 6.74 g/m*3 5.5 C 0 km/h
412 04-04-2017 10:15:00 5.7 C 6.83 g/m*3 5.7 C 0 km/h
413 04-04-2017 10:20:00 5.8 C 6.88 g/m*3 5.8 C 0 km/h
414 04-04-2017 10:25:00 6.1 C 7.01 g/m*3 6.1 C 0 km/h
415 04-04-2017 10:30:00 6.2 C 7.06 g/m*3 6.2 C 0 km/h
416 04-04-2017 10:35:00 6.4 C 7.15 g/m*3 6.4 C 0 km/h
417 04-04-2017 10:40:00 6.7 C 7.22 g/m*3 6.7 C 0 km/h
418 04-04-2017 10:45:00 6.9 C 7.31 g/m*3 6.9 C 0 km/h
419 04-04-2017 10:50:00 7.2 C 7.38 g/m*3 7.2 C 0 km/h
420 04-04-2017 10:55:00 7.4 C 7.48 g/m*3 7.4 C 0 km/h
421 04-04-2017 11:00:00 7.8 C 7.59 g/m*3 7.8 C 0 km/h
422 04-04-2017 11:05:00 8 C 7.61 g/m*3 8 C 0 km/h
423 04-04-2017 11:10:00 8.3 C 7.67 g/m*3 8.3 C 0 km/h
424 04-04-2017 11:15:00 8.5 C 7.68 g/m*3 8.5 C 0 km/h
425 04-04-2017 11:20:00 8.8 C 7.66 g/m*3 8.8 C 1.6 km/h
Sensor: Nr:Datum:Temp:Abs-Feuchte:Windchill:Wind:
Aussen-T/F 426 04-04-2017 11:25:00 9.1 C 7.72 g/m*3 9.1 C 0 km/h
427 04-04-2017 11:30:00 9.3 C 7.64 g/m*3 9.3 C 0 km/h
428 04-04-2017 11:35:00 9.6 C 7.69 g/m*3 9.6 C 1.6 km/h
429 04-04-2017 11:40:00 9.9 C 7.66 g/m*3 9.9 C 1.6 km/h
430 04-04-2017 11:45:00 10.2 C 7.52 g/m*3 10.2 C 3.2 km/h
431 04-04-2017 11:50:00 10.5 C 7.66 g/m*3 10.5 C 1.6 km/h
432 04-04-2017 11:55:00 10.8 C 7.71 g/m*3 10.8 C 3.2 km/h
433 04-04-2017 12:00:00 11.1 C 7.76 g/m*3 11.1 C 1.6 km/h
434 04-04-2017 12:05:00 11.3 C 7.65 g/m*3 11.3 C 6.4 km/h
435 04-04-2017 12:10:00 11.7 C 7.84 g/m*3 11.7 C 4.8 km/h
436 04-04-2017 12:15:00 11.9 C 7.63 g/m*3 11.9 C 6.4 km/h
437 04-04-2017 12:20:00 12.1 C 7.51 g/m*3 12.1 C 6.4 km/h
438 04-04-2017 12:25:00 12.2 C 7.55 g/m*3 12.2 C 1.6 km/h
439 04-04-2017 12:30:00 12.4 C 7.43 g/m*3 12.4 C 6.4 km/h
440 04-04-2017 12:35:00 12.6 C 7.41 g/m*3 12.6 C 6.4 km/h
441 04-04-2017 12:40:00 12.7 C 7.46 g/m*3 12.7 C 4.8 km/h
442 04-04-2017 12:45:00 12.8 C 7.17 g/m*3 12.8 C 4.8 km/h
443 04-04-2017 12:50:00 12.9 C 7.33 g/m*3 12.9 C 9.7 km/h
444 04-04-2017 12:55:00 13 C 7.37 g/m*3 13 C 9.7 km/h
445 04-04-2017 13:00:00 13.2 C 7.23 g/m*3 13.2 C 4.8 km/h
446 04-04-2017 13:05:00 13.4 C 7.44 g/m*3 13.4 C 4.8 km/h
447 04-04-2017 13:10:00 13.6 C 7.3 g/m*3 13.6 C 8.1 km/h
448 04-04-2017 13:15:00 13.7 C 7.1 g/m*3 13.7 C 3.2 km/h
449 04-04-2017 13:20:00 13.8 C 7.15 g/m*3 13.8 C 8.1 km/h
450 04-04-2017 13:25:00 13.9 C 7.31 g/m*3 13.9 C 6.4 km/h
Sensor: Nr:Datum:Temp:Abs-Feuchte:Windchill:Wind:
Aussen-T/F 451 04-04-2017 13:30:00 14.1 C 6.92 g/m*3 14.1 C 9.7 km/h
452 04-04-2017 13:35:00 14.1 C 7.04 g/m*3 14.1 C 8.1 km/h
453 04-04-2017 13:40:00 14.1 C 7.04 g/m*3 14.1 C 6.4 km/h
454 04-04-2017 13:45:00 14.1 C 7.04 g/m*3 14.1 C 6.4 km/h
455 04-04-2017 13:50:00 14.2 C 7.2 g/m*3 14.2 C 6.4 km/h
456 04-04-2017 13:55:00 14.4 C 6.8 g/m*3 14.4 C 9.7 km/h
457 04-04-2017 14:00:00 14.6 C 6.76 g/m*3 14.6 C 6.4 km/h
458 04-04-2017 14:05:00 14.7 C 6.8 g/m*3 14.7 C 3.2 km/h
459 04-04-2017 14:10:00 14.7 C 6.8 g/m*3 14.7 C 9.7 km/h
460 04-04-2017 14:15:00 14.9 C 6.75 g/m*3 14.9 C 11.3 km/h
461 04-04-2017 14:20:00 14.9 C 7.01 g/m*3 14.9 C 4.8 km/h
462 04-04-2017 14:25:00 15.1 C 6.58 g/m*3 15.1 C 9.7 km/h
463 04-04-2017 14:30:00 15.2 C 6.75 g/m*3 15.2 C 8.1 km/h
464 04-04-2017 14:35:00 15.4 C 6.44 g/m*3 15.4 C 9.7 km/h
465 04-04-2017 14:40:00 15.4 C 6.7 g/m*3 15.4 C 4.8 km/h
466 04-04-2017 14:45:00 15.7 C 6.96 g/m*3 15.7 C 6.4 km/h
467 04-04-2017 14:50:00 15.9 C 6.77 g/m*3 15.9 C 8.1 km/h
468 04-04-2017 14:55:00 15.9 C 6.5 g/m*3 15.9 C 11.3 km/h
469 04-04-2017 15:00:00 15.8 C 6.46 g/m*3 15.8 C 4.8 km/h
470 04-04-2017 15:05:00 15.8 C 6.6 g/m*3 15.8 C 9.7 km/h
471 04-04-2017 15:10:00 15.8 C 6.6 g/m*3 15.8 C 12.9 km/h
472 04-04-2017 15:15:00 15.8 C 6.46 g/m*3 15.8 C 6.4 km/h
473 04-04-2017 15:20:00 15.8 C 6.46 g/m*3 15.8 C 4.8 km/h
474 04-04-2017 15:25:00 15.9 C 6.64 g/m*3 15.9 C 11.3 km/h
475 04-04-2017 15:30:00 16.3 C 6.38 g/m*3 16.3 C 11.3 km/h
Sensor: Nr:Datum:Temp:Abs-Feuchte:Windchill:Wind:
Aussen-T/F 476 04-04-2017 15:35:00 16.4 C 6 g/m*3 16.4 C 9.7 km/h
477 04-04-2017 15:40:00 16.3 C 6.1 g/m*3 16.3 C 3.2 km/h
478 04-04-2017 15:45:00 16.2 C 6.34 g/m*3 16.2 C 6.4 km/h
479 04-04-2017 15:50:00 16.1 C 6.44 g/m*3 16.1 C 11.3 km/h
480 04-04-2017 15:55:00 16.3 C 6.38 g/m*3 16.3 C 11.3 km/h
481 04-04-2017 16:00:00 16.6 C 6.36 g/m*3 16.6 C 12.9 km/h
482 04-04-2017 16:05:00 16.9 C 6.33 g/m*3 16.9 C 11.3 km/h
483 04-04-2017 16:10:00 16.9 C 6.33 g/m*3 16.9 C 8.1 km/h
484 04-04-2017 16:15:00 16.6 C 6.36 g/m*3 16.6 C 12.9 km/h
485 04-04-2017 16:20:00 16.4 C 6.28 g/m*3 16.4 C 6.4 km/h
486 04-04-2017 16:25:00 16.4 C 6.28 g/m*3 16.4 C 6.4 km/h
487 04-04-2017 16:30:00 16.3 C 6.24 g/m*3 16.3 C 3.2 km/h
488 04-04-2017 16:35:00 16.2 C 6.07 g/m*3 16.2 C 3.2 km/h
489 04-04-2017 16:40:00 16.2 C 6.07 g/m*3 16.2 C 8.1 km/h
490 04-04-2017 16:45:00 16.2 C 6.07 g/m*3 16.2 C 11.3 km/h
491 04-04-2017 16:50:00 16.1 C 6.44 g/m*3 16.1 C 3.2 km/h
492 04-04-2017 16:55:00 16.3 C 5.97 g/m*3 16.3 C 3.2 km/h
493 04-04-2017 17:00:00 17 C 5.93 g/m*3 17 C 14.5 km/h
494 04-04-2017 17:05:00 17.6 C 6.15 g/m*3 17.6 C 11.3 km/h
495 04-04-2017 17:10:00 17.4 C 5.78 g/m*3 17.4 C 12.9 km/h
496 04-04-2017 17:15:00 17.3 C 5.75 g/m*3 17.3 C 6.4 km/h
497 04-04-2017 17:20:00 17.2 C 5.71 g/m*3 17.2 C 11.3 km/h
498 04-04-2017 17:25:00 17.3 C 5.89 g/m*3 17.3 C 11.3 km/h
499 04-04-2017 17:30:00 17.2 C 5.71 g/m*3 17.2 C 16.1 km/h
500 04-04-2017 17:35:00 17 C 6.08 g/m*3 17 C 6.4 km/h
Sensor: Nr:Datum:Temp:Abs-Feuchte:Windchill:Wind:
Aussen-T/F 501 04-04-2017 17:40:00 17.1 C 5.82 g/m*3 17.1 C 11.3 km/h
502 04-04-2017 17:45:00 17.3 C 5.89 g/m*3 17.3 C 9.7 km/h
503 04-04-2017 17:50:00 17.3 C 6.04 g/m*3 17.3 C 16.1 km/h
504 04-04-2017 17:55:00 17.2 C 6 g/m*3 17.2 C 9.7 km/h
505 04-04-2017 18:00:00 17.2 C 6.3 g/m*3 17.2 C 8.1 km/h
506 04-04-2017 18:05:00 17.5 C 6.11 g/m*3 17.5 C 8.1 km/h
507 04-04-2017 18:10:00 17.4 C 5.93 g/m*3 17.4 C 11.3 km/h
508 04-04-2017 18:15:00 17.4 C 6.08 g/m*3 17.4 C 9.7 km/h
509 04-04-2017 18:20:00 17.6 C 6.3 g/m*3 17.6 C 9.7 km/h
510 04-04-2017 18:25:00 17.7 C 6.19 g/m*3 17.7 C 11.3 km/h
511 04-04-2017 18:30:00 17.6 C 6.3 g/m*3 17.6 C 9.7 km/h
512 04-04-2017 18:35:00 17.2 C 6.3 g/m*3 17.2 C 9.7 km/h
513 04-04-2017 18:40:00 16.8 C 6.29 g/m*3 16.8 C 6.4 km/h
514 04-04-2017 18:45:00 16.5 C 6.32 g/m*3 16.5 C 6.4 km/h
515 04-04-2017 18:50:00 16.2 C 6.34 g/m*3 16.2 C 12.9 km/h
516 04-04-2017 18:55:00 15.9 C 6.23 g/m*3 15.9 C 8.1 km/h
517 04-04-2017 19:00:00 15.7 C 6.15 g/m*3 15.7 C 8.1 km/h
518 04-04-2017 19:05:00 15.6 C 6.25 g/m*3 15.6 C 4.8 km/h
519 04-04-2017 19:10:00 15.4 C 6.31 g/m*3 15.4 C 3.2 km/h
520 04-04-2017 19:15:00 15.2 C 6.36 g/m*3 15.2 C 8.1 km/h
521 04-04-2017 19:20:00 15.2 C 6.36 g/m*3 15.2 C 4.8 km/h
522 04-04-2017 19:25:00 15.2 C 6.36 g/m*3 15.2 C 4.8 km/h
523 04-04-2017 19:30:00 15.2 C 6.36 g/m*3 15.2 C 3.2 km/h
524 04-04-2017 19:35:00 15.1 C 6.58 g/m*3 15.1 C 0 km/h
525 04-04-2017 19:40:00 14.9 C 6.37 g/m*3 14.9 C 6.4 km/h
Sensor: Nr:Datum:Temp:Abs-Feuchte:Windchill:Wind:
Aussen-T/F 526 04-04-2017 19:45:00 14.7 C 6.17 g/m*3 14.7 C 4.8 km/h
527 04-04-2017 19:50:00 14.6 C 6.26 g/m*3 14.6 C 6.4 km/h
528 04-04-2017 19:55:00 14.4 C 6.3 g/m*3 14.4 C 6.4 km/h
529 04-04-2017 20:00:00 14.2 C 6.11 g/m*3 14.2 C 11.3 km/h
530 04-04-2017 20:05:00 14.1 C 6.19 g/m*3 14.1 C 8.1 km/h
531 04-04-2017 20:10:00 13.9 C 6.47 g/m*3 13.9 C 3.2 km/h
532 04-04-2017 20:15:00 13.4 C 6.39 g/m*3 13.4 C 0 km/h
533 04-04-2017 20:20:00 13 C 6.35 g/m*3 13 C 4.8 km/h
534 04-04-2017 20:25:00 12.7 C 6.46 g/m*3 12.7 C 4.8 km/h
535 04-04-2017 20:30:00 12.3 C 6.41 g/m*3 12.3 C 0 km/h
536 04-04-2017 20:35:00 11.9 C 6.46 g/m*3 11.9 C 3.2 km/h
537 04-04-2017 20:40:00 11.7 C 6.28 g/m*3 11.7 C 1.6 km/h
538 04-04-2017 20:45:00 11.6 C 6.24 g/m*3 11.6 C 4.8 km/h
539 04-04-2017 20:50:00 11.8 C 6.21 g/m*3 11.8 C 3.2 km/h
540 04-04-2017 20:55:00 12 C 6.29 g/m*3 12 C 4.8 km/h
541 04-04-2017 21:00:00 11.9 C 6.25 g/m*3 11.9 C 0 km/h
542 04-04-2017 21:05:00 11.8 C 6.21 g/m*3 11.8 C 3.2 km/h
543 04-04-2017 21:10:00 11.7 C 6.28 g/m*3 11.7 C 3.2 km/h
544 04-04-2017 21:15:00 11.5 C 6.4 g/m*3 11.5 C 3.2 km/h
545 04-04-2017 21:20:00 11.3 C 6.53 g/m*3 11.3 C 3.2 km/h
546 04-04-2017 21:25:00 10.9 C 6.37 g/m*3 10.9 C 3.2 km/h
547 04-04-2017 21:30:00 10.6 C 6.54 g/m*3 10.6 C 4.8 km/h
548 04-04-2017 21:35:00 10.4 C 6.36 g/m*3 10.4 C 4.8 km/h
549 04-04-2017 21:40:00 10.2 C 6.38 g/m*3 10.2 C 4.8 km/h
550 04-04-2017 21:45:00 10.1 C 6.43 g/m*3 10.1 C 4.8 km/h
Sensor: Nr:Datum:Temp:Abs-Feuchte:Windchill:Wind:
Aussen-T/F 551 04-04-2017 21:50:00 9.8 C 6.4 g/m*3 9.8 C 4.8 km/h
552 04-04-2017 21:55:00 9.7 C 6.45 g/m*3 9.7 C 3.2 km/h
553 04-04-2017 22:00:00 9.6 C 6.32 g/m*3 8.91 C 6.4 km/h
554 04-04-2017 22:05:00 9.5 C 6.28 g/m*3 9.5 C 4.8 km/h
555 04-04-2017 22:10:00 9.5 C 6.28 g/m*3 8.79 C 6.4 km/h
556 04-04-2017 22:15:00 9.4 C 6.24 g/m*3 9.4 C 3.2 km/h
557 04-04-2017 22:20:00 9.3 C 6.11 g/m*3 9.3 C 4.8 km/h
558 04-04-2017 22:25:00 9.3 C 6.29 g/m*3 9.3 C 3.2 km/h
559 04-04-2017 22:30:00 9.2 C 6.25 g/m*3 9.2 C 4.8 km/h
560 04-04-2017 22:35:00 9.1 C 6.21 g/m*3 9.1 C 4.8 km/h
561 04-04-2017 22:40:00 9 C 6.17 g/m*3 9 C 3.2 km/h
562 04-04-2017 22:45:00 8.9 C 6.22 g/m*3 8.1 C 6.4 km/h
563 04-04-2017 22:50:00 8.8 C 6.18 g/m*3 7.98 C 6.4 km/h
564 04-04-2017 22:55:00 8.7 C 6.14 g/m*3 8.7 C 3.2 km/h
565 04-04-2017 23:00:00 8.7 C 6.14 g/m*3 8.7 C 4.8 km/h
566 04-04-2017 23:05:00 8.6 C 6.1 g/m*3 8.6 C 4.8 km/h
567 04-04-2017 23:10:00 8.6 C 6.19 g/m*3 8.6 C 4.8 km/h
568 04-04-2017 23:15:00 8.5 C 5.98 g/m*3 8.5 C 4.8 km/h
569 04-04-2017 23:20:00 8.5 C 6.06 g/m*3 8.5 C 4.8 km/h
570 04-04-2017 23:25:00 8.6 C 6.1 g/m*3 8.6 C 3.2 km/h
571 04-04-2017 23:30:00 8.4 C 6.02 g/m*3 8.4 C 4.8 km/h
572 04-04-2017 23:35:00 8.4 C 5.94 g/m*3 8.4 C 3.2 km/h
573 04-04-2017 23:40:00 8.4 C 6.02 g/m*3 8.4 C 3.2 km/h
574 04-04-2017 23:45:00 8.4 C 6.02 g/m*3 8.4 C 0 km/h
575 04-04-2017 23:50:00 8.3 C 5.9 g/m*3 8.3 C 0 km/h
Sensor: Nr:Datum:Temp:Abs-Feuchte:Windchill:Wind:
Aussen-T/F 576 04-04-2017 23:55:00 8.2 C 5.95 g/m*3 8.2 C 0 km/h
577 05-04-2017 00:00:00 8.2 C 6.03 g/m*3 8.2 C 0 km/h
578 05-04-2017 00:05:00 8.1 C 5.99 g/m*3 8.1 C 3.2 km/h
579 05-04-2017 00:10:00 7.9 C 6 g/m*3 7.9 C 1.6 km/h
580 05-04-2017 00:15:00 7.9 C 6 g/m*3 7.9 C 4.8 km/h
581 05-04-2017 00:20:00 8 C 6.04 g/m*3 8 C 4.8 km/h
582 05-04-2017 00:25:00 8.1 C 5.91 g/m*3 8.1 C 0 km/h
583 05-04-2017 00:30:00 8.1 C 5.91 g/m*3 8.1 C 0 km/h
584 05-04-2017 00:35:00 8 C 6.04 g/m*3 8 C 0 km/h
585 05-04-2017 00:40:00 7.8 C 6.04 g/m*3 7.8 C 0 km/h
586 05-04-2017 00:45:00 7.6 C 5.88 g/m*3 7.6 C 1.6 km/h
587 05-04-2017 00:50:00 7.4 C 5.81 g/m*3 7.4 C 0 km/h
588 05-04-2017 00:55:00 7.3 C 5.85 g/m*3 7.3 C 0 km/h
589 05-04-2017 01:00:00 7.1 C 5.77 g/m*3 7.1 C 0 km/h
590 05-04-2017 01:05:00 6.9 C 5.7 g/m*3 6.9 C 0 km/h
591 05-04-2017 01:10:00 6.8 C 5.74 g/m*3 6.8 C 0 km/h
592 05-04-2017 01:15:00 6.8 C 5.89 g/m*3 6.8 C 0 km/h
593 05-04-2017 01:20:00 6.6 C 5.89 g/m*3 6.6 C 0 km/h
594 05-04-2017 01:25:00 6.5 C 5.77 g/m*3 6.5 C 0 km/h
595 05-04-2017 01:30:00 6.4 C 5.74 g/m*3 6.4 C 0 km/h
596 05-04-2017 01:35:00 6.3 C 5.77 g/m*3 6.3 C 0 km/h
597 05-04-2017 01:40:00 6.1 C 5.77 g/m*3 6.1 C 0 km/h
598 05-04-2017 01:45:00 5.9 C 5.7 g/m*3 5.9 C 0 km/h
599 05-04-2017 01:50:00 5.8 C 5.73 g/m*3 5.8 C 0 km/h
600 05-04-2017 01:55:00 5.7 C 5.69 g/m*3 5.7 C 0 km/h
Sensor: Nr:Datum:Temp:Abs-Feuchte:Windchill:Wind:
Aussen-T/F 601 05-04-2017 02:00:00 5.6 C 5.59 g/m*3 5.6 C 0 km/h
602 05-04-2017 02:05:00 5.6 C 5.59 g/m*3 5.6 C 0 km/h
603 05-04-2017 02:10:00 5.6 C 5.66 g/m*3 5.6 C 0 km/h
604 05-04-2017 02:15:00 5.5 C 5.69 g/m*3 5.5 C 0 km/h
605 05-04-2017 02:20:00 5.3 C 5.61 g/m*3 5.3 C 0 km/h
606 05-04-2017 02:25:00 5.2 C 5.58 g/m*3 5.2 C 0 km/h
607 05-04-2017 02:30:00 5.1 C 5.61 g/m*3 5.1 C 0 km/h
608 05-04-2017 02:35:00 5.1 C 5.61 g/m*3 5.1 C 0 km/h
609 05-04-2017 02:40:00 5.1 C 5.68 g/m*3 5.1 C 0 km/h
610 05-04-2017 02:45:00 4.9 C 5.54 g/m*3 4.9 C 0 km/h
611 05-04-2017 02:50:00 4.9 C 5.6 g/m*3 4.9 C 0 km/h
612 05-04-2017 02:55:00 4.8 C 5.57 g/m*3 4.8 C 0 km/h
613 05-04-2017 03:00:00 4.7 C 5.53 g/m*3 4.7 C 0 km/h
614 05-04-2017 03:05:00 4.7 C 5.53 g/m*3 4.7 C 0 km/h
615 05-04-2017 03:10:00 4.6 C 5.56 g/m*3 4.6 C 0 km/h
616 05-04-2017 03:15:00 4.6 C 5.56 g/m*3 4.6 C 0 km/h
617 05-04-2017 03:20:00 4.5 C 5.52 g/m*3 4.5 C 3.2 km/h
618 05-04-2017 03:25:00 4.4 C 5.55 g/m*3 4.4 C 1.6 km/h
619 05-04-2017 03:30:00 4.4 C 5.55 g/m*3 4.4 C 0 km/h
620 05-04-2017 03:35:00 4.4 C 5.55 g/m*3 4.4 C 0 km/h
621 05-04-2017 03:40:00 4.4 C 5.55 g/m*3 4.4 C 0 km/h
622 05-04-2017 03:45:00 4.4 C 5.55 g/m*3 4.4 C 0 km/h
623 05-04-2017 03:50:00 4.3 C 5.51 g/m*3 4.3 C 0 km/h
624 05-04-2017 03:55:00 4.3 C 5.58 g/m*3 4.3 C 0 km/h
625 05-04-2017 04:00:00 4.3 C 5.58 g/m*3 4.3 C 0 km/h
Sensor: Nr:Datum:Temp:Abs-Feuchte:Windchill:Wind:
Aussen-T/F 626 05-04-2017 04:05:00 4.3 C 5.58 g/m*3 4.3 C 0 km/h
627 05-04-2017 04:10:00 4.3 C 5.58 g/m*3 4.3 C 0 km/h
628 05-04-2017 04:15:00 4.3 C 5.58 g/m*3 4.3 C 0 km/h
629 05-04-2017 04:20:00 4.2 C 5.61 g/m*3 4.2 C 3.2 km/h
630 05-04-2017 04:25:00 4.2 C 5.54 g/m*3 4.2 C 1.6 km/h
631 05-04-2017 04:30:00 4.2 C 5.54 g/m*3 4.2 C 0 km/h
632 05-04-2017 04:35:00 4.1 C 5.57 g/m*3 4.1 C 0 km/h
633 05-04-2017 04:40:00 4 C 5.47 g/m*3 4 C 0 km/h
634 05-04-2017 04:45:00 3.9 C 5.43 g/m*3 3.9 C 0 km/h
635 05-04-2017 04:50:00 3.7 C 5.42 g/m*3 3.7 C 0 km/h
636 05-04-2017 04:55:00 3.7 C 5.48 g/m*3 3.7 C 1.6 km/h
637 05-04-2017 05:00:00 3.7 C 5.48 g/m*3 3.7 C 0 km/h
638 05-04-2017 05:05:00 3.7 C 5.48 g/m*3 3.7 C 0 km/h
639 05-04-2017 05:10:00 3.7 C 5.48 g/m*3 3.7 C 0 km/h
640 05-04-2017 05:15:00 3.8 C 5.52 g/m*3 3.8 C 0 km/h
641 05-04-2017 05:20:00 3.8 C 5.52 g/m*3 3.8 C 0 km/h
642 05-04-2017 05:25:00 3.7 C 5.42 g/m*3 3.7 C 0 km/h
643 05-04-2017 05:30:00 3.6 C 5.45 g/m*3 3.6 C 0 km/h
644 05-04-2017 05:35:00 3.6 C 5.45 g/m*3 3.6 C 0 km/h
645 05-04-2017 05:40:00 3.5 C 5.41 g/m*3 3.5 C 0 km/h
646 05-04-2017 05:45:00 3.4 C 5.37 g/m*3 3.4 C 0 km/h
647 05-04-2017 05:50:00 3.4 C 5.44 g/m*3 3.4 C 0 km/h
648 05-04-2017 05:55:00 3.4 C 5.44 g/m*3 3.4 C 0 km/h
649 05-04-2017 06:00:00 3.4 C 5.44 g/m*3 3.4 C 0 km/h
650 05-04-2017 06:05:00 3.3 C 5.4 g/m*3 3.3 C 0 km/h
Sensor: Nr:Datum:Temp:Abs-Feuchte:Windchill:Wind:
Aussen-T/F 651 05-04-2017 06:10:00 3.2 C 5.36 g/m*3 3.2 C 0 km/h
652 05-04-2017 06:15:00 3.1 C 5.33 g/m*3 3.1 C 0 km/h
653 05-04-2017 06:20:00 3.1 C 5.33 g/m*3 3.1 C 0 km/h
654 05-04-2017 06:25:00 3 C 5.29 g/m*3 3 C 0 km/h
655 05-04-2017 06:30:00 3 C 5.35 g/m*3 3 C 0 km/h
656 05-04-2017 06:35:00 3 C 5.35 g/m*3 3 C 0 km/h
657 05-04-2017 06:40:00 3 C 5.35 g/m*3 3 C 0 km/h
658 05-04-2017 06:45:00 2.9 C 5.32 g/m*3 2.9 C 0 km/h
659 05-04-2017 06:50:00 2.9 C 5.32 g/m*3 2.9 C 0 km/h
660 05-04-2017 06:55:00 2.8 C 5.28 g/m*3 2.8 C 0 km/h
661 05-04-2017 07:00:00 2.8 C 5.28 g/m*3 2.8 C 0 km/h
662 05-04-2017 07:05:00 2.8 C 5.34 g/m*3 2.8 C 0 km/h
663 05-04-2017 07:10:00 2.9 C 5.37 g/m*3 2.9 C 1.6 km/h
664 05-04-2017 07:15:00 2.9 C 5.37 g/m*3 2.9 C 0 km/h
665 05-04-2017 07:20:00 2.9 C 5.37 g/m*3 2.9 C 1.6 km/h
666 05-04-2017 07:25:00 3.1 C 5.51 g/m*3 3.1 C 0 km/h
667 05-04-2017 07:30:00 3.2 C 5.54 g/m*3 3.2 C 0 km/h
668 05-04-2017 07:35:00 3.3 C 5.52 g/m*3 3.3 C 0 km/h
669 05-04-2017 07:40:00 3.3 C 5.52 g/m*3 3.3 C 0 km/h
670 05-04-2017 07:45:00 3.3 C 5.52 g/m*3 3.3 C 0 km/h
671 05-04-2017 07:50:00 3.3 C 5.52 g/m*3 3.3 C 0 km/h
672 05-04-2017 07:55:00 3.3 C 5.52 g/m*3 3.3 C 0 km/h
673 05-04-2017 08:00:00 3.3 C 5.52 g/m*3 3.3 C 0 km/h
674 05-04-2017 08:05:00 3.4 C 5.56 g/m*3 3.4 C 1.6 km/h
675 05-04-2017 08:10:00 3.5 C 5.6 g/m*3 3.5 C 0 km/h
Sensor: Nr:Datum:Temp:Abs-Feuchte:Windchill:Wind:
Aussen-T/F 676 05-04-2017 08:15:00 3.6 C 5.63 g/m*3 3.6 C 0 km/h
677 05-04-2017 08:20:00 3.6 C 5.63 g/m*3 3.6 C 3.2 km/h
678 05-04-2017 08:25:00 3.7 C 5.67 g/m*3 3.7 C 0 km/h
679 05-04-2017 08:30:00 3.8 C 5.71 g/m*3 3.8 C 1.6 km/h
680 05-04-2017 08:35:00 3.9 C 5.75 g/m*3 3.9 C 0 km/h
681 05-04-2017 08:40:00 4 C 5.79 g/m*3 4 C 1.6 km/h
682 05-04-2017 08:45:00 4.1 C 5.82 g/m*3 4.1 C 1.6 km/h
683 05-04-2017 08:50:00 4.2 C 5.86 g/m*3 4.2 C 1.6 km/h
684 05-04-2017 08:55:00 4.3 C 5.9 g/m*3 4.3 C 0 km/h
685 05-04-2017 09:00:00 4.4 C 5.94 g/m*3 4.4 C 0 km/h
686 05-04-2017 09:05:00 4.5 C 5.98 g/m*3 4.5 C 0 km/h
687 05-04-2017 09:10:00 4.6 C 6.02 g/m*3 4.6 C 0 km/h
688 05-04-2017 09:15:00 4.7 C 6 g/m*3 4.7 C 1.6 km/h
689 05-04-2017 09:20:00 4.8 C 6.1 g/m*3 4.8 C 0 km/h
690 05-04-2017 09:25:00 5 C 6.18 g/m*3 5 C 0 km/h
691 05-04-2017 09:30:00 5.2 C 6.27 g/m*3 5.2 C 0 km/h
692 05-04-2017 09:35:00 5.3 C 6.24 g/m*3 5.3 C 0 km/h
693 05-04-2017 09:40:00 5.6 C 6.29 g/m*3 5.6 C 1.6 km/h
694 05-04-2017 09:45:00 5.7 C 6.33 g/m*3 5.7 C 0 km/h
695 05-04-2017 09:50:00 5.9 C 6.42 g/m*3 5.9 C 0 km/h
696 05-04-2017 09:55:00 6.1 C 6.43 g/m*3 6.1 C 0 km/h
697 05-04-2017 10:00:00 6.2 C 6.47 g/m*3 6.2 C 0 km/h
698 05-04-2017 10:05:00 6.3 C 6.44 g/m*3 6.3 C 0 km/h
699 05-04-2017 10:10:00 6.6 C 6.57 g/m*3 6.6 C 0 km/h
700 05-04-2017 10:15:00 6.7 C 6.61 g/m*3 6.7 C 0 km/h
Sensor: Nr:Datum:Temp:Abs-Feuchte:Windchill:Wind:
Aussen-T/F 701 05-04-2017 10:20:00 7 C 6.59 g/m*3 7 C 1.6 km/h
702 05-04-2017 10:25:00 7.4 C 6.68 g/m*3 5.28 C 11.3 km/h
703 05-04-2017 10:30:00 8 C 6.78 g/m*3 7.06 C 6.4 km/h
704 05-04-2017 10:35:00 8.5 C 6.83 g/m*3 8.5 C 3.2 km/h
705 05-04-2017 10:40:00 8.8 C 6.96 g/m*3 8.8 C 1.6 km/h
706 05-04-2017 10:45:00 9.1 C 6.92 g/m*3 9.1 C 1.6 km/h
707 05-04-2017 10:50:00 9.3 C 7.1 g/m*3 9.3 C 0 km/h
708 05-04-2017 10:55:00 9.5 C 7.1 g/m*3 8.79 C 6.4 km/h
709 05-04-2017 11:00:00 9.9 C 7.19 g/m*3 9.25 C 6.4 km/h
710 05-04-2017 11:05:00 10.2 C 7.23 g/m*3 10.2 C 1.6 km/h
711 05-04-2017 11:10:00 10.3 C 7.18 g/m*3 10.3 C 4.8 km/h
712 05-04-2017 11:15:00 10.6 C 7.22 g/m*3 10.6 C 4.8 km/h
713 05-04-2017 11:20:00 10.9 C 7.26 g/m*3 10.04 C 8.1 km/h
714 05-04-2017 11:25:00 11.3 C 7.24 g/m*3 11.3 C 6.4 km/h
715 05-04-2017 11:30:00 11.7 C 7.22 g/m*3 11.7 C 11.3 km/h
716 05-04-2017 11:35:00 11.9 C 7.2 g/m*3 11.9 C 4.8 km/h
717 05-04-2017 11:40:00 12.2 C 7.23 g/m*3 12.2 C 8.1 km/h
718 05-04-2017 11:45:00 12.3 C 7.28 g/m*3 12.3 C 9.7 km/h
719 05-04-2017 11:50:00 12.5 C 7.26 g/m*3 12.5 C 9.7 km/h
720 05-04-2017 11:55:00 12.7 C 7.46 g/m*3 12.7 C 4.8 km/h
721 05-04-2017 12:00:00 12.9 C 7.33 g/m*3 12.9 C 6.4 km/h
722 05-04-2017 12:05:00 13.2 C 7.35 g/m*3 13.2 C 11.3 km/h
723 05-04-2017 12:10:00 13.4 C 7.09 g/m*3 13.4 C 11.3 km/h
724 05-04-2017 12:15:00 13.6 C 7.3 g/m*3 13.6 C 8.1 km/h
725 05-04-2017 12:20:00 13.7 C 7.46 g/m*3 13.7 C 9.7 km/h
Sensor: Nr:Datum:Temp:Abs-Feuchte:Windchill:Wind:
Aussen-T/F 726 05-04-2017 12:25:00 13.9 C 7.43 g/m*3 13.9 C 8.1 km/h
727 05-04-2017 12:30:00 13.9 C 7.31 g/m*3 13.9 C 6.4 km/h
728 05-04-2017 12:35:00 13.9 C 7.43 g/m*3 13.9 C 9.7 km/h
729 05-04-2017 12:40:00 13.9 C 7.31 g/m*3 13.9 C 11.3 km/h
730 05-04-2017 12:45:00 13.8 C 7.39 g/m*3 13.8 C 9.7 km/h
731 05-04-2017 12:50:00 13.8 C 7.27 g/m*3 13.8 C 14.5 km/h
732 05-04-2017 12:55:00 13.7 C 7.46 g/m*3 13.7 C 12.9 km/h
733 05-04-2017 13:00:00 13.7 C 7.46 g/m*3 13.7 C 12.9 km/h
734 05-04-2017 13:05:00 13.8 C 7.63 g/m*3 13.8 C 11.3 km/h
735 05-04-2017 13:10:00 13.8 C 7.51 g/m*3 13.8 C 12.9 km/h
736 05-04-2017 13:15:00 13.8 C 7.51 g/m*3 13.8 C 9.7 km/h
737 05-04-2017 13:20:00 13.9 C 7.55 g/m*3 13.9 C 20.9 km/h
738 05-04-2017 13:25:00 13.8 C 7.51 g/m*3 13.8 C 20.9 km/h
739 05-04-2017 13:30:00 13.8 C 7.74 g/m*3 13.8 C 12.9 km/h
740 05-04-2017 13:35:00 13.7 C 7.82 g/m*3 13.7 C 14.5 km/h
741 05-04-2017 13:40:00 13.7 C 7.82 g/m*3 13.7 C 16.1 km/h
742 05-04-2017 13:45:00 13.6 C 8 g/m*3 13.6 C 14.5 km/h
743 05-04-2017 13:50:00 13.5 C 7.95 g/m*3 13.5 C 16.1 km/h
744 05-04-2017 13:55:00 13.4 C 8.14 g/m*3 13.4 C 14.5 km/h
745 05-04-2017 14:00:00 13.4 C 8.14 g/m*3 13.4 C 14.5 km/h
746 05-04-2017 14:05:00 13.3 C 8.09 g/m*3 13.3 C 16.1 km/h
747 05-04-2017 14:10:00 13.1 C 8.1 g/m*3 13.1 C 19.3 km/h
748 05-04-2017 14:15:00 12.8 C 7.95 g/m*3 12.8 C 16.1 km/h
749 05-04-2017 14:20:00 12.7 C 7.9 g/m*3 12.7 C 22.5 km/h
750 05-04-2017 14:25:00 12.5 C 7.92 g/m*3 12.5 C 22.5 km/h
Sensor: Nr:Datum:Temp:Abs-Feuchte:Windchill:Wind:
Aussen-T/F 751 05-04-2017 14:30:00 12.4 C 7.87 g/m*3 12.4 C 17.7 km/h
752 05-04-2017 14:35:00 12.2 C 7.99 g/m*3 12.2 C 11.3 km/h
753 05-04-2017 14:40:00 12.1 C 7.94 g/m*3 12.1 C 16.1 km/h
754 05-04-2017 14:45:00 12.1 C 8.04 g/m*3 12.1 C 19.3 km/h
755 05-04-2017 14:50:00 12.3 C 8.04 g/m*3 12.3 C 16.1 km/h
756 05-04-2017 14:55:00 12.4 C 7.98 g/m*3 12.4 C 17.7 km/h
757 05-04-2017 15:00:00 12.2 C 7.88 g/m*3 12.2 C 14.5 km/h
758 05-04-2017 15:05:00 12.2 C 7.77 g/m*3 12.2 C 20.9 km/h
759 05-04-2017 15:10:00 12.1 C 7.83 g/m*3 12.1 C 17.7 km/h
760 05-04-2017 15:15:00 12.2 C 7.88 g/m*3 12.2 C 17.7 km/h
761 05-04-2017 15:20:00 12.3 C 7.82 g/m*3 12.3 C 19.3 km/h
762 05-04-2017 15:25:00 12.5 C 8.03 g/m*3 12.5 C 19.3 km/h
763 05-04-2017 15:30:00 12.7 C 8.01 g/m*3 12.7 C 17.7 km/h
764 05-04-2017 15:35:00 12.8 C 7.84 g/m*3 12.8 C 19.3 km/h
765 05-04-2017 15:40:00 12.7 C 7.9 g/m*3 12.7 C 12.9 km/h
766 05-04-2017 15:45:00 12.8 C 7.95 g/m*3 12.8 C 12.9 km/h
767 05-04-2017 15:50:00 12.8 C 7.73 g/m*3 12.8 C 12.9 km/h
768 05-04-2017 15:55:00 12.8 C 7.84 g/m*3 12.8 C 12.9 km/h
769 05-04-2017 16:00:00 12.7 C 7.79 g/m*3 12.7 C 16.1 km/h
770 05-04-2017 16:05:00 12.4 C 7.76 g/m*3 12.4 C 14.5 km/h
771 05-04-2017 16:10:00 12.4 C 7.87 g/m*3 12.4 C 6.4 km/h
772 05-04-2017 16:15:00 12.4 C 7.87 g/m*3 12.4 C 9.7 km/h
773 05-04-2017 16:20:00 12.4 C 7.87 g/m*3 12.4 C 6.4 km/h
774 05-04-2017 16:25:00 12.5 C 8.03 g/m*3 12.5 C 8.1 km/h
775 05-04-2017 16:30:00 12.6 C 7.74 g/m*3 12.6 C 11.3 km/h
Sensor: Nr:Datum:Temp:Abs-Feuchte:Windchill:Wind:
Aussen-T/F 776 05-04-2017 16:35:00 12.6 C 7.63 g/m*3 12.6 C 12.9 km/h
777 05-04-2017 16:40:00 12.6 C 7.63 g/m*3 12.6 C 12.9 km/h
778 05-04-2017 16:45:00 12.7 C 7.79 g/m*3 12.7 C 8.1 km/h
779 05-04-2017 16:50:00 12.7 C 7.68 g/m*3 12.7 C 12.9 km/h
780 05-04-2017 16:55:00 12.6 C 7.74 g/m*3 12.6 C 11.3 km/h
781 05-04-2017 17:00:00 12.6 C 7.74 g/m*3 12.6 C 12.9 km/h
782 05-04-2017 17:05:00 12.6 C 7.85 g/m*3 12.6 C 9.7 km/h
783 05-04-2017 17:10:00 12.7 C 7.9 g/m*3 12.7 C 6.4 km/h
784 05-04-2017 17:15:00 12.9 C 7.89 g/m*3 12.9 C 11.3 km/h
785 05-04-2017 17:20:00 13 C 7.71 g/m*3 13 C 11.3 km/h
786 05-04-2017 17:25:00 13 C 7.71 g/m*3 13 C 16.1 km/h
787 05-04-2017 17:30:00 13 C 7.71 g/m*3 13 C 14.5 km/h
788 05-04-2017 17:35:00 13 C 7.6 g/m*3 13 C 16.1 km/h
789 05-04-2017 17:40:00 12.9 C 7.66 g/m*3 12.9 C 11.3 km/h
790 05-04-2017 17:45:00 12.8 C 7.62 g/m*3 12.8 C 11.3 km/h
791 05-04-2017 17:50:00 12.8 C 7.73 g/m*3 12.8 C 6.4 km/h
792 05-04-2017 17:55:00 12.8 C 7.62 g/m*3 12.8 C 9.7 km/h
793 05-04-2017 18:00:00 12.8 C 7.62 g/m*3 12.8 C 8.1 km/h
794 05-04-2017 18:05:00 12.8 C 7.5 g/m*3 12.8 C 12.9 km/h
795 05-04-2017 18:10:00 12.7 C 7.46 g/m*3 12.7 C 14.5 km/h
796 05-04-2017 18:15:00 12.7 C 7.46 g/m*3 12.7 C 16.1 km/h
797 05-04-2017 18:20:00 12.7 C 7.57 g/m*3 12.7 C 12.9 km/h
798 05-04-2017 18:25:00 12.6 C 7.52 g/m*3 12.6 C 12.9 km/h
799 05-04-2017 18:30:00 12.6 C 7.52 g/m*3 12.6 C 11.3 km/h
800 05-04-2017 18:35:00 12.5 C 7.59 g/m*3 12.5 C 9.7 km/h
Sensor: Nr:Datum:Temp:Abs-Feuchte:Windchill:Wind:
Aussen-T/F 801 05-04-2017 18:40:00 12.4 C 7.54 g/m*3 12.4 C 14.5 km/h
802 05-04-2017 18:45:00 12.4 C 7.65 g/m*3 12.4 C 12.9 km/h
803 05-04-2017 18:50:00 12.4 C 7.76 g/m*3 12.4 C 14.5 km/h
804 05-04-2017 18:55:00 12.3 C 7.6 g/m*3 12.3 C 11.3 km/h
805 05-04-2017 19:00:00 12.3 C 7.71 g/m*3 12.3 C 14.5 km/h
806 05-04-2017 19:05:00 12.3 C 7.6 g/m*3 12.3 C 12.9 km/h
807 05-04-2017 19:10:00 12.2 C 7.55 g/m*3 12.2 C 11.3 km/h
808 05-04-2017 19:15:00 12.2 C 7.55 g/m*3 12.2 C 8.1 km/h
809 05-04-2017 19:20:00 12.2 C 7.55 g/m*3 12.2 C 11.3 km/h
810 05-04-2017 19:25:00 12.2 C 7.55 g/m*3 12.2 C 11.3 km/h
811 05-04-2017 19:30:00 12.2 C 7.45 g/m*3 12.2 C 8.1 km/h
812 05-04-2017 19:35:00 12.2 C 7.34 g/m*3 12.2 C 8.1 km/h
813 05-04-2017 19:40:00 12.2 C 7.23 g/m*3 12.2 C 9.7 km/h
814 05-04-2017 19:45:00 12.2 C 7.23 g/m*3 12.2 C 6.4 km/h
815 05-04-2017 19:50:00 12.1 C 7.08 g/m*3 12.1 C 4.8 km/h
816 05-04-2017 19:55:00 12.1 C 6.86 g/m*3 12.1 C 11.3 km/h
817 05-04-2017 20:00:00 12 C 6.93 g/m*3 12 C 6.4 km/h
818 05-04-2017 20:05:00 11.9 C 6.99 g/m*3 11.9 C 6.4 km/h
819 05-04-2017 20:10:00 11.7 C 6.9 g/m*3 11.7 C 3.2 km/h
820 05-04-2017 20:15:00 11.6 C 6.86 g/m*3 11.6 C 6.4 km/h
821 05-04-2017 20:20:00 11.4 C 6.88 g/m*3 11.4 C 1.6 km/h
822 05-04-2017 20:25:00 11.2 C 6.89 g/m*3 11.2 C 4.8 km/h
823 05-04-2017 20:30:00 10.9 C 6.76 g/m*3 10.04 C 8.1 km/h
824 05-04-2017 20:35:00 10.9 C 6.76 g/m*3 10.41 C 6.4 km/h
825 05-04-2017 20:40:00 10.8 C 6.72 g/m*3 10.8 C 3.2 km/h
Sensor: Nr:Datum:Temp:Abs-Feuchte:Windchill:Wind:
Aussen-T/F 826 05-04-2017 20:45:00 10.7 C 6.78 g/m*3 10.7 C 4.8 km/h
827 05-04-2017 20:50:00 10.7 C 6.68 g/m*3 9.52 C 9.7 km/h
828 05-04-2017 20:55:00 10.8 C 6.72 g/m*3 10.29 C 6.4 km/h
829 05-04-2017 21:00:00 10.9 C 6.66 g/m*3 10.04 C 8.1 km/h
830 05-04-2017 21:05:00 11.1 C 6.75 g/m*3 11.1 C 11.3 km/h
831 05-04-2017 21:10:00 11.2 C 6.69 g/m*3 11.2 C 11.3 km/h
832 05-04-2017 21:15:00 11.3 C 6.63 g/m*3 11.3 C 12.9 km/h
833 05-04-2017 21:20:00 11.3 C 6.73 g/m*3 11.3 C 11.3 km/h
834 05-04-2017 21:25:00 11.3 C 6.73 g/m*3 11.3 C 14.5 km/h
835 05-04-2017 21:30:00 11.3 C 6.73 g/m*3 11.3 C 11.3 km/h
836 05-04-2017 21:35:00 11.2 C 6.69 g/m*3 11.2 C 14.5 km/h
837 05-04-2017 21:40:00 11.2 C 6.69 g/m*3 11.2 C 17.7 km/h
838 05-04-2017 21:45:00 11.1 C 6.65 g/m*3 11.1 C 16.1 km/h
839 05-04-2017 21:50:00 11 C 6.61 g/m*3 9.4 C 12.9 km/h
840 05-04-2017 21:55:00 10.9 C 6.56 g/m*3 9.51 C 11.3 km/h
841 05-04-2017 22:00:00 10.8 C 6.52 g/m*3 9.64 C 9.7 km/h
842 05-04-2017 22:05:00 10.8 C 6.52 g/m*3 9.16 C 12.9 km/h
843 05-04-2017 22:10:00 10.7 C 6.48 g/m*3 9.26 C 11.3 km/h
844 05-04-2017 22:15:00 10.6 C 6.44 g/m*3 10.06 C 6.4 km/h
845 05-04-2017 22:20:00 10.6 C 6.54 g/m*3 9.4 C 9.7 km/h
846 05-04-2017 22:25:00 10.4 C 6.46 g/m*3 9.83 C 6.4 km/h
847 05-04-2017 22:30:00 10.4 C 6.46 g/m*3 9.16 C 9.7 km/h
848 05-04-2017 22:35:00 10.3 C 6.51 g/m*3 9.34 C 8.1 km/h
849 05-04-2017 22:40:00 10.3 C 6.51 g/m*3 9.72 C 6.4 km/h
850 05-04-2017 22:45:00 10.1 C 6.34 g/m*3 7.73 C 17.7 km/h
Sensor: Nr:Datum:Temp:Abs-Feuchte:Windchill:Wind:
Aussen-T/F 851 05-04-2017 22:50:00 10.1 C 6.34 g/m*3 7.91 C 16.1 km/h
852 05-04-2017 22:55:00 10 C 6.3 g/m*3 7.78 C 16.1 km/h
853 05-04-2017 23:00:00 9.9 C 6.26 g/m*3 9.9 C 4.8 km/h
854 05-04-2017 23:05:00 9.8 C 6.22 g/m*3 9.14 C 6.4 km/h
855 05-04-2017 23:10:00 9.7 C 6.27 g/m*3 8.33 C 9.7 km/h
856 05-04-2017 23:15:00 9.6 C 6.23 g/m*3 7.48 C 14.5 km/h
857 05-04-2017 23:20:00 9.6 C 6.32 g/m*3 8.52 C 8.1 km/h
858 05-04-2017 23:25:00 9.6 C 6.32 g/m*3 7.94 C 11.3 km/h
859 05-04-2017 23:30:00 9.6 C 6.32 g/m*3 7.7 C 12.9 km/h
860 05-04-2017 23:35:00 9.6 C 6.41 g/m*3 7.94 C 11.3 km/h
861 05-04-2017 23:40:00 9.5 C 6.37 g/m*3 8.4 C 8.1 km/h
862 05-04-2017 23:45:00 9.4 C 6.33 g/m*3 9.4 C 3.2 km/h
863 05-04-2017 23:50:00 9.4 C 6.42 g/m*3 7.46 C 12.9 km/h
864 05-04-2017 23:55:00 9.3 C 6.38 g/m*3 8.56 C 6.4 km/h
865 06-04-2017 00:00:00 9.3 C 6.38 g/m*3 7.58 C 11.3 km/h
866 06-04-2017 00:05:00 9.3 C 6.29 g/m*3 6.56 C 19.3 km/h
867 06-04-2017 00:10:00 9.3 C 6.29 g/m*3 7.12 C 14.5 km/h
868 06-04-2017 00:15:00 9.2 C 6.25 g/m*3 7.21 C 12.9 km/h
869 06-04-2017 00:20:00 9.3 C 6.29 g/m*3 7.33 C 12.9 km/h
870 06-04-2017 00:25:00 9.2 C 6.34 g/m*3 7.73 C 9.7 km/h
871 06-04-2017 00:30:00 9.2 C 6.34 g/m*3 7.46 C 11.3 km/h
872 06-04-2017 00:35:00 9.2 C 6.34 g/m*3 8.45 C 6.4 km/h
873 06-04-2017 00:40:00 9.1 C 6.39 g/m*3 7.93 C 8.1 km/h
874 06-04-2017 00:45:00 9 C 6.26 g/m*3 6.75 C 14.5 km/h
875 06-04-2017 00:50:00 9 C 6.26 g/m*3 7.21 C 11.3 km/h
Sensor: Nr:Datum:Temp:Abs-Feuchte:Windchill:Wind:
Aussen-T/F 876 06-04-2017 00:55:00 9 C 6.26 g/m*3 7.49 C 9.7 km/h
877 06-04-2017 01:00:00 8.9 C 6.22 g/m*3 7.37 C 9.7 km/h
878 06-04-2017 01:05:00 8.9 C 6.22 g/m*3 7.69 C 8.1 km/h
879 06-04-2017 01:10:00 8.8 C 6.18 g/m*3 7.25 C 9.7 km/h
880 06-04-2017 01:15:00 8.8 C 6.18 g/m*3 7.25 C 9.7 km/h
881 06-04-2017 01:20:00 8.8 C 6.18 g/m*3 8.8 C 3.2 km/h
882 06-04-2017 01:25:00 8.7 C 6.14 g/m*3 7.46 C 8.1 km/h
883 06-04-2017 01:30:00 8.7 C 6.14 g/m*3 7.13 C 9.7 km/h
884 06-04-2017 01:35:00 8.6 C 6.1 g/m*3 7.01 C 9.7 km/h
885 06-04-2017 01:40:00 8.5 C 6.15 g/m*3 7.64 C 6.4 km/h
886 06-04-2017 01:45:00 8.3 C 6.15 g/m*3 8.3 C 3.2 km/h
887 06-04-2017 01:50:00 8.2 C 6.03 g/m*3 6.54 C 9.7 km/h
888 06-04-2017 01:55:00 8.2 C 6.11 g/m*3 7.29 C 6.4 km/h
889 06-04-2017 02:00:00 8 C 6.04 g/m*3 6.3 C 9.7 km/h
890 06-04-2017 02:05:00 7.9 C 6 g/m*3 5.63 C 12.9 km/h
891 06-04-2017 02:10:00 7.9 C 6 g/m*3 6.52 C 8.1 km/h
892 06-04-2017 02:15:00 7.8 C 6.04 g/m*3 7.8 C 4.8 km/h
893 06-04-2017 02:20:00 7.8 C 6.04 g/m*3 7.8 C 4.8 km/h
894 06-04-2017 02:25:00 7.7 C 6 g/m*3 7.7 C 3.2 km/h
895 06-04-2017 02:30:00 7.4 C 5.88 g/m*3 7.4 C 3.2 km/h
896 06-04-2017 02:35:00 7.2 C 6.04 g/m*3 7.2 C 4.8 km/h
897 06-04-2017 02:40:00 7 C 5.97 g/m*3 7 C 1.6 km/h
898 06-04-2017 02:45:00 6.8 C 6.04 g/m*3 6.8 C 4.8 km/h
899 06-04-2017 02:50:00 6.6 C 6.04 g/m*3 6.6 C 3.2 km/h
900 06-04-2017 02:55:00 6.5 C 6.07 g/m*3 5.33 C 6.4 km/h
Sensor: Nr:Datum:Temp:Abs-Feuchte:Windchill:Wind:
Aussen-T/F 901 06-04-2017 03:00:00 6.5 C 6.07 g/m*3 5.33 C 6.4 km/h
902 06-04-2017 03:05:00 6.4 C 6.11 g/m*3 6.4 C 3.2 km/h
903 06-04-2017 03:10:00 6.5 C 6.15 g/m*3 6.5 C 4.8 km/h
904 06-04-2017 03:15:00 6.5 C 6.15 g/m*3 6.5 C 4.8 km/h
905 06-04-2017 03:20:00 6.4 C 6.11 g/m*3 6.4 C 0 km/h
906 06-04-2017 03:25:00 6.4 C 6.11 g/m*3 6.4 C 3.2 km/h
907 06-04-2017 03:30:00 6.3 C 6.14 g/m*3 6.3 C 4.8 km/h
908 06-04-2017 03:35:00 6.3 C 6.14 g/m*3 6.3 C 0 km/h
909 06-04-2017 03:40:00 6.3 C 6.14 g/m*3 6.3 C 4.8 km/h
910 06-04-2017 03:45:00 6.3 C 6.14 g/m*3 6.3 C 4.8 km/h
911 06-04-2017 03:50:00 6.2 C 6.03 g/m*3 6.2 C 3.2 km/h
912 06-04-2017 03:55:00 6 C 6.02 g/m*3 6 C 3.2 km/h
913 06-04-2017 04:00:00 5.9 C 5.98 g/m*3 4.17 C 8.1 km/h
914 06-04-2017 04:05:00 5.7 C 5.91 g/m*3 5.7 C 0 km/h
915 06-04-2017 04:10:00 5.6 C 5.94 g/m*3 5.6 C 1.6 km/h
916 06-04-2017 04:15:00 5.5 C 5.97 g/m*3 5.5 C 1.6 km/h
917 06-04-2017 04:20:00 5.6 C 6.08 g/m*3 5.6 C 0 km/h
918 06-04-2017 04:25:00 5.7 C 6.19 g/m*3 5.7 C 0 km/h
919 06-04-2017 04:30:00 5.7 C 6.19 g/m*3 5.7 C 0 km/h
920 06-04-2017 04:35:00 5.8 C 6.23 g/m*3 5.8 C 1.6 km/h
921 06-04-2017 04:40:00 5.9 C 6.2 g/m*3 5.9 C 3.2 km/h
922 06-04-2017 04:45:00 6 C 6.24 g/m*3 6 C 3.2 km/h
923 06-04-2017 04:50:00 6.1 C 6.28 g/m*3 6.1 C 1.6 km/h
924 06-04-2017 04:55:00 6.2 C 6.32 g/m*3 6.2 C 1.6 km/h
925 06-04-2017 05:00:00 6.2 C 6.4 g/m*3 6.2 C 1.6 km/h
Sensor: Nr:Datum:Temp:Abs-Feuchte:Windchill:Wind:
Aussen-T/F 926 06-04-2017 05:05:00 6.3 C 6.44 g/m*3 6.3 C 0 km/h
927 06-04-2017 05:10:00 6.3 C 6.51 g/m*3 6.3 C 3.2 km/h
928 06-04-2017 05:15:00 6.2 C 6.47 g/m*3 6.2 C 0 km/h
929 06-04-2017 05:20:00 6.2 C 6.47 g/m*3 6.2 C 0 km/h
930 06-04-2017 05:25:00 6.2 C 6.47 g/m*3 6.2 C 0 km/h
931 06-04-2017 05:30:00 6.2 C 6.47 g/m*3 6.2 C 1.6 km/h
932 06-04-2017 05:35:00 6.2 C 6.47 g/m*3 6.2 C 1.6 km/h
933 06-04-2017 05:40:00 6.2 C 6.55 g/m*3 6.2 C 1.6 km/h
934 06-04-2017 05:45:00 6.2 C 6.55 g/m*3 4.52 C 8.1 km/h
935 06-04-2017 05:50:00 6.3 C 6.59 g/m*3 6.3 C 3.2 km/h
936 06-04-2017 05:55:00 6.3 C 6.51 g/m*3 4.27 C 9.7 km/h
937 06-04-2017 06:00:00 6.3 C 6.51 g/m*3 6.3 C 4.8 km/h
938 06-04-2017 06:05:00 6.3 C 6.51 g/m*3 4.64 C 8.1 km/h
939 06-04-2017 06:10:00 6.3 C 6.51 g/m*3 6.3 C 3.2 km/h
940 06-04-2017 06:15:00 6.3 C 6.51 g/m*3 6.3 C 4.8 km/h
941 06-04-2017 06:20:00 6.3 C 6.51 g/m*3 5.1 C 6.4 km/h
942 06-04-2017 06:25:00 6.4 C 6.48 g/m*3 5.21 C 6.4 km/h
943 06-04-2017 06:30:00 6.4 C 6.48 g/m*3 6.4 C 4.8 km/h
944 06-04-2017 06:35:00 6.4 C 6.48 g/m*3 5.21 C 6.4 km/h
945 06-04-2017 06:40:00 6.4 C 6.48 g/m*3 6.4 C 4.8 km/h
946 06-04-2017 06:45:00 6.4 C 6.41 g/m*3 5.21 C 6.4 km/h
947 06-04-2017 06:50:00 6.5 C 6.45 g/m*3 5.33 C 6.4 km/h
948 06-04-2017 06:55:00 6.5 C 6.45 g/m*3 6.5 C 3.2 km/h
949 06-04-2017 07:00:00 6.5 C 6.45 g/m*3 6.5 C 4.8 km/h
950 06-04-2017 07:05:00 6.5 C 6.45 g/m*3 6.5 C 3.2 km/h
Sensor: Nr:Datum:Temp:Abs-Feuchte:Windchill:Wind:
Aussen-T/F 951 06-04-2017 07:10:00 6.4 C 6.41 g/m*3 6.4 C 3.2 km/h
952 06-04-2017 07:15:00 6.4 C 6.41 g/m*3 6.4 C 4.8 km/h
953 06-04-2017 07:20:00 6.4 C 6.41 g/m*3 6.4 C 1.6 km/h
954 06-04-2017 07:25:00 6.4 C 6.41 g/m*3 6.4 C 1.6 km/h
955 06-04-2017 07:30:00 6.4 C 6.41 g/m*3 6.4 C 3.2 km/h
956 06-04-2017 07:35:00 6.4 C 6.41 g/m*3 6.4 C 3.2 km/h
957 06-04-2017 07:40:00 6.5 C 6.45 g/m*3 5.33 C 6.4 km/h
958 06-04-2017 07:45:00 6.5 C 6.45 g/m*3 6.5 C 3.2 km/h
959 06-04-2017 07:50:00 6.5 C 6.45 g/m*3 6.5 C 3.2 km/h
960 06-04-2017 07:55:00 6.5 C 6.45 g/m*3 6.5 C 4.8 km/h
961 06-04-2017 08:00:00 6.5 C 6.45 g/m*3 5.33 C 6.4 km/h
962 06-04-2017 08:05:00 6.5 C 6.37 g/m*3 6.5 C 4.8 km/h
963 06-04-2017 08:10:00 6.6 C 6.42 g/m*3 6.6 C 1.6 km/h
964 06-04-2017 08:15:00 6.6 C 6.42 g/m*3 5.44 C 6.4 km/h
965 06-04-2017 08:20:00 6.6 C 6.42 g/m*3 6.6 C 4.8 km/h
966 06-04-2017 08:25:00 6.6 C 6.42 g/m*3 5.44 C 6.4 km/h
967 06-04-2017 08:30:00 6.6 C 6.42 g/m*3 6.6 C 4.8 km/h
968 06-04-2017 08:35:00 6.6 C 6.42 g/m*3 6.6 C 4.8 km/h
969 06-04-2017 08:40:00 6.7 C 6.46 g/m*3 6.7 C 3.2 km/h
970 06-04-2017 08:45:00 6.7 C 6.46 g/m*3 6.7 C 4.8 km/h
971 06-04-2017 08:50:00 6.7 C 6.46 g/m*3 6.7 C 3.2 km/h
972 06-04-2017 08:55:00 6.7 C 6.46 g/m*3 5.11 C 8.1 km/h
973 06-04-2017 09:00:00 6.8 C 6.5 g/m*3 5.22 C 8.1 km/h
974 06-04-2017 09:05:00 6.8 C 6.5 g/m*3 5.22 C 8.1 km/h
975 06-04-2017 09:10:00 6.8 C 6.5 g/m*3 5.22 C 8.1 km/h
Sensor: Nr:Datum:Temp:Abs-Feuchte:Windchill:Wind:
Aussen-T/F 976 06-04-2017 09:15:00 6.9 C 6.47 g/m*3 6.9 C 4.8 km/h
977 06-04-2017 09:20:00 6.9 C 6.47 g/m*3 5.79 C 6.4 km/h
978 06-04-2017 09:25:00 7.1 C 6.55 g/m*3 5.23 C 9.7 km/h
979 06-04-2017 09:30:00 7.2 C 6.59 g/m*3 6.13 C 6.4 km/h
980 06-04-2017 09:35:00 7.3 C 6.64 g/m*3 7.3 C 4.8 km/h
981 06-04-2017 09:40:00 7.5 C 6.56 g/m*3 5.14 C 12.9 km/h
982 06-04-2017 09:45:00 7.6 C 6.44 g/m*3 5.02 C 14.5 km/h
983 06-04-2017 09:50:00 7.7 C 6.41 g/m*3 5.15 C 14.5 km/h
984 06-04-2017 09:55:00 7.7 C 6.41 g/m*3 5.65 C 11.3 km/h
985 06-04-2017 10:00:00 7.8 C 6.45 g/m*3 6.4 C 8.1 km/h
986 06-04-2017 10:05:00 7.8 C 6.37 g/m*3 6.4 C 8.1 km/h
987 06-04-2017 10:10:00 7.7 C 6.16 g/m*3 5.65 C 11.3 km/h
988 06-04-2017 10:15:00 7.7 C 6.16 g/m*3 5.94 C 9.7 km/h
989 06-04-2017 10:20:00 7.7 C 6.24 g/m*3 5.94 C 9.7 km/h
990 06-04-2017 10:25:00 7.8 C 6.37 g/m*3 6.83 C 6.4 km/h
991 06-04-2017 10:30:00 7.9 C 6.41 g/m*3 6.94 C 6.4 km/h
992 06-04-2017 10:35:00 8 C 6.28 g/m*3 6.01 C 11.3 km/h
993 06-04-2017 10:40:00 8.2 C 6.36 g/m*3 5.99 C 12.9 km/h
994 06-04-2017 10:45:00 8.3 C 6.32 g/m*3 5.89 C 14.5 km/h
995 06-04-2017 10:50:00 8.4 C 6.36 g/m*3 6.78 C 9.7 km/h
996 06-04-2017 10:55:00 8.4 C 6.36 g/m*3 7.11 C 8.1 km/h
997 06-04-2017 11:00:00 8.6 C 6.36 g/m*3 7.01 C 9.7 km/h
998 06-04-2017 11:05:00 8.7 C 6.4 g/m*3 7.87 C 6.4 km/h
999 06-04-2017 11:10:00 8.8 C 6.44 g/m*3 7.25 C 9.7 km/h
1000 06-04-2017 11:15:00 8.8 C 6.44 g/m*3 6.97 C 11.3 km/h
Sensor: Nr:Datum:Temp:Abs-Feuchte:Windchill:Wind:
Aussen-T/F 1001 06-04-2017 11:20:00 8.9 C 6.39 g/m*3 8.1 C 6.4 km/h
1002 06-04-2017 11:25:00 9.1 C 6.48 g/m*3 7.61 C 9.7 km/h
1003 06-04-2017 11:30:00 9.2 C 6.52 g/m*3 8.05 C 8.1 km/h
1004 06-04-2017 11:35:00 9.1 C 6.39 g/m*3 7.33 C 11.3 km/h
1005 06-04-2017 11:40:00 9.1 C 6.39 g/m*3 7.33 C 11.3 km/h
1006 06-04-2017 11:45:00 9 C 6.35 g/m*3 8.21 C 6.4 km/h
1007 06-04-2017 11:50:00 9.1 C 6.21 g/m*3 7.61 C 9.7 km/h
1008 06-04-2017 11:55:00 9.1 C 6.12 g/m*3 7.61 C 9.7 km/h
1009 06-04-2017 12:00:00 9.1 C 6.12 g/m*3 7.33 C 11.3 km/h
1010 06-04-2017 12:05:00 9.2 C 6.16 g/m*3 8.05 C 8.1 km/h
1011 06-04-2017 12:10:00 9.3 C 6.29 g/m*3 7.33 C 12.9 km/h
1012 06-04-2017 12:15:00 9.3 C 6.2 g/m*3 7.85 C 9.7 km/h
1013 06-04-2017 12:20:00 9.4 C 6.42 g/m*3 7.97 C 9.7 km/h
1014 06-04-2017 12:25:00 9.5 C 6.37 g/m*3 7.82 C 11.3 km/h
1015 06-04-2017 12:30:00 9.6 C 6.41 g/m*3 7.48 C 14.5 km/h
1016 06-04-2017 12:35:00 9.5 C 6.28 g/m*3 7.58 C 12.9 km/h
1017 06-04-2017 12:40:00 9.5 C 6.19 g/m*3 7.58 C 12.9 km/h
1018 06-04-2017 12:45:00 9.5 C 6.28 g/m*3 7.58 C 12.9 km/h
1019 06-04-2017 12:50:00 9.7 C 6.27 g/m*3 7.82 C 12.9 km/h
1020 06-04-2017 12:55:00 9.7 C 6.08 g/m*3 7.82 C 12.9 km/h
1021 06-04-2017 13:00:00 9.7 C 6.18 g/m*3 8.33 C 9.7 km/h
1022 06-04-2017 13:05:00 9.9 C 6.26 g/m*3 8.3 C 11.3 km/h
1023 06-04-2017 13:10:00 9.9 C 6.16 g/m*3 7.85 C 14.5 km/h
1024 06-04-2017 13:15:00 9.9 C 6.16 g/m*3 7.85 C 14.5 km/h
1025 06-04-2017 13:20:00 10 C 6.2 g/m*3 8.68 C 9.7 km/h
Sensor: Nr:Datum:Temp:Abs-Feuchte:Windchill:Wind:
Aussen-T/F 1026 06-04-2017 13:25:00 10.1 C 6.24 g/m*3 8.8 C 9.7 km/h
1027 06-04-2017 13:30:00 10.2 C 6.28 g/m*3 8.03 C 16.1 km/h
1028 06-04-2017 13:35:00 10 C 6.2 g/m*3 8.19 C 12.9 km/h
1029 06-04-2017 13:40:00 10.1 C 6.34 g/m*3 8.54 C 11.3 km/h
1030 06-04-2017 13:45:00 10.2 C 6.38 g/m*3 8.43 C 12.9 km/h
1031 06-04-2017 13:50:00 10.3 C 6.32 g/m*3 9.04 C 9.7 km/h
1032 06-04-2017 13:55:00 10.6 C 6.34 g/m*3 8.05 C 20.9 km/h
1033 06-04-2017 14:00:00 10.5 C 6.11 g/m*3 8.23 C 17.7 km/h
1034 06-04-2017 14:05:00 10.6 C 6.34 g/m*3 8.92 C 12.9 km/h
1035 06-04-2017 14:10:00 10.6 C 6.15 g/m*3 8.92 C 12.9 km/h
1036 06-04-2017 14:15:00 10.7 C 6.19 g/m*3 9.52 C 9.7 km/h
1037 06-04-2017 14:20:00 10.9 C 6.37 g/m*3 9.51 C 11.3 km/h
1038 06-04-2017 14:25:00 10.9 C 6.17 g/m*3 8.9 C 16.1 km/h
1039 06-04-2017 14:30:00 10.8 C 6.23 g/m*3 9.38 C 11.3 km/h
1040 06-04-2017 14:35:00 10.9 C 6.27 g/m*3 9.51 C 11.3 km/h
1041 06-04-2017 14:40:00 11.2 C 6.39 g/m*3 11.2 C 11.3 km/h
1042 06-04-2017 14:45:00 11.4 C 6.26 g/m*3 11.4 C 12.9 km/h
1043 06-04-2017 14:50:00 11.3 C 5.81 g/m*3 11.3 C 17.7 km/h
1044 06-04-2017 14:55:00 11.2 C 5.98 g/m*3 11.2 C 11.3 km/h
1045 06-04-2017 15:00:00 11.2 C 6.08 g/m*3 11.2 C 19.3 km/h
1046 06-04-2017 15:05:00 11.3 C 6.12 g/m*3 11.3 C 12.9 km/h
1047 06-04-2017 15:10:00 11.3 C 6.12 g/m*3 11.3 C 9.7 km/h
1048 06-04-2017 15:15:00 11.4 C 6.26 g/m*3 11.4 C 11.3 km/h
1049 06-04-2017 15:20:00 11.3 C 6.12 g/m*3 11.3 C 11.3 km/h
1050 06-04-2017 15:25:00 11.3 C 5.92 g/m*3 11.3 C 11.3 km/h
Sensor: Nr:Datum:Temp:Abs-Feuchte:Windchill:Wind:
Aussen-T/F 1051 06-04-2017 15:30:00 11.3 C 6.02 g/m*3 11.3 C 12.9 km/h
1052 06-04-2017 15:35:00 11.3 C 6.12 g/m*3 11.3 C 11.3 km/h
1053 06-04-2017 15:40:00 11.4 C 6.06 g/m*3 11.4 C 14.5 km/h
1054 06-04-2017 15:45:00 11.4 C 6.06 g/m*3 11.4 C 9.7 km/h
1055 06-04-2017 15:50:00 11.5 C 5.99 g/m*3 11.5 C 14.5 km/h
1056 06-04-2017 15:55:00 11.7 C 5.86 g/m*3 11.7 C 14.5 km/h
1057 06-04-2017 16:00:00 11.6 C 5.82 g/m*3 11.6 C 12.9 km/h
1058 06-04-2017 16:05:00 11.7 C 5.96 g/m*3 11.7 C 9.7 km/h
1059 06-04-2017 16:10:00 11.8 C 5.89 g/m*3 11.8 C 16.1 km/h
1060 06-04-2017 16:15:00 11.7 C 5.96 g/m*3 11.7 C 14.5 km/h
1061 06-04-2017 16:20:00 11.7 C 5.96 g/m*3 11.7 C 11.3 km/h
1062 06-04-2017 16:25:00 11.6 C 5.92 g/m*3 11.6 C 16.1 km/h
1063 06-04-2017 16:30:00 11.6 C 6.03 g/m*3 11.6 C 8.1 km/h
1064 06-04-2017 16:35:00 11.7 C 5.96 g/m*3 11.7 C 11.3 km/h
1065 06-04-2017 16:40:00 11.8 C 5.89 g/m*3 11.8 C 9.7 km/h
1066 06-04-2017 16:45:00 12.3 C 5.97 g/m*3 12.3 C 12.9 km/h
1067 06-04-2017 16:50:00 12.2 C 5.83 g/m*3 12.2 C 12.9 km/h
1068 06-04-2017 16:55:00 12 C 5.75 g/m*3 12 C 12.9 km/h
1069 06-04-2017 17:00:00 12 C 5.86 g/m*3 12 C 8.1 km/h
1070 06-04-2017 17:05:00 12.1 C 6.01 g/m*3 12.1 C 3.2 km/h
1071 06-04-2017 17:10:00 12.2 C 6.04 g/m*3 12.2 C 6.4 km/h
1072 06-04-2017 17:15:00 12.5 C 6.16 g/m*3 12.5 C 11.3 km/h
1073 06-04-2017 17:20:00 12.7 C 6.12 g/m*3 12.7 C 12.9 km/h
1074 06-04-2017 17:25:00 12.8 C 6.27 g/m*3 12.8 C 12.9 km/h
1075 06-04-2017 17:30:00 12.8 C 6.05 g/m*3 12.8 C 12.9 km/h
Sensor: Nr:Datum:Temp:Abs-Feuchte:Windchill:Wind:
Aussen-T/F 1076 06-04-2017 17:35:00 12.3 C 5.86 g/m*3 12.3 C 12.9 km/h
1077 06-04-2017 17:40:00 11.8 C 5.89 g/m*3 11.8 C 11.3 km/h
1078 06-04-2017 17:45:00 11.8 C 6 g/m*3 11.8 C 16.1 km/h
1079 06-04-2017 17:50:00 12.1 C 6.11 g/m*3 12.1 C 9.7 km/h
1080 06-04-2017 17:55:00 12.2 C 6.04 g/m*3 12.2 C 12.9 km/h
1081 06-04-2017 18:00:00 12.1 C 6.01 g/m*3 12.1 C 8.1 km/h
1082 06-04-2017 18:05:00 11.9 C 5.93 g/m*3 11.9 C 11.3 km/h
1083 06-04-2017 18:10:00 11.7 C 5.86 g/m*3 11.7 C 9.7 km/h
1084 06-04-2017 18:15:00 11.6 C 5.82 g/m*3 11.6 C 9.7 km/h
1085 06-04-2017 18:20:00 11.5 C 5.78 g/m*3 11.5 C 8.1 km/h
1086 06-04-2017 18:25:00 11.3 C 5.92 g/m*3 11.3 C 14.5 km/h
1087 06-04-2017 18:30:00 11.3 C 6.12 g/m*3 11.3 C 11.3 km/h
1088 06-04-2017 18:35:00 11.7 C 6.28 g/m*3 11.7 C 11.3 km/h
1089 06-04-2017 18:40:00 12.2 C 6.37 g/m*3 12.2 C 16.1 km/h
1090 06-04-2017 18:45:00 12.3 C 6.19 g/m*3 12.3 C 12.9 km/h
1091 06-04-2017 18:50:00 12.2 C 6.37 g/m*3 12.2 C 12.9 km/h
1092 06-04-2017 18:55:00 11.9 C 6.35 g/m*3 11.9 C 17.7 km/h
1093 06-04-2017 19:00:00 11.8 C 6.42 g/m*3 11.8 C 11.3 km/h
1094 06-04-2017 19:05:00 11.7 C 6.48 g/m*3 11.7 C 14.5 km/h
1095 06-04-2017 19:10:00 11.7 C 6.48 g/m*3 11.7 C 9.7 km/h
1096 06-04-2017 19:15:00 11.6 C 6.44 g/m*3 11.6 C 12.9 km/h
1097 06-04-2017 19:20:00 11.4 C 6.47 g/m*3 11.4 C 14.5 km/h
1098 06-04-2017 19:25:00 11.2 C 6.49 g/m*3 11.2 C 8.1 km/h
1099 06-04-2017 19:30:00 11 C 6.41 g/m*3 9.02 C 16.1 km/h
1100 06-04-2017 19:35:00 10.8 C 6.42 g/m*3 9.38 C 11.3 km/h
Sensor: Nr:Datum:Temp:Abs-Feuchte:Windchill:Wind:
Aussen-T/F 1101 06-04-2017 19:40:00 10.6 C 6.44 g/m*3 9.14 C 11.3 km/h
1102 06-04-2017 19:45:00 10.4 C 6.36 g/m*3 9.16 C 9.7 km/h
1103 06-04-2017 19:50:00 10.3 C 6.42 g/m*3 9.72 C 6.4 km/h
1104 06-04-2017 19:55:00 10.1 C 6.43 g/m*3 10.1 C 4.8 km/h
1105 06-04-2017 20:00:00 9.9 C 6.44 g/m*3 8.87 C 8.1 km/h
1106 06-04-2017 20:05:00 9.7 C 6.45 g/m*3 7.82 C 12.9 km/h
1107 06-04-2017 20:10:00 9.6 C 6.5 g/m*3 8.52 C 8.1 km/h
1108 06-04-2017 20:15:00 9.3 C 6.38 g/m*3 9.3 C 3.2 km/h
1109 06-04-2017 20:20:00 9.1 C 6.39 g/m*3 9.1 C 1.6 km/h
1110 06-04-2017 20:25:00 8.9 C 6.39 g/m*3 8.9 C 1.6 km/h
1111 06-04-2017 20:30:00 8.7 C 6.4 g/m*3 8.7 C 1.6 km/h
1112 06-04-2017 20:35:00 8.6 C 6.44 g/m*3 8.6 C 3.2 km/h
1113 06-04-2017 20:40:00 8.5 C 6.4 g/m*3 8.5 C 3.2 km/h
1114 06-04-2017 20:45:00 8.5 C 6.4 g/m*3 8.5 C 0 km/h
1115 06-04-2017 20:50:00 8.3 C 6.41 g/m*3 8.3 C 3.2 km/h
1116 06-04-2017 20:55:00 8.2 C 6.45 g/m*3 8.2 C 3.2 km/h
1117 06-04-2017 21:00:00 8.2 C 6.45 g/m*3 7.29 C 6.4 km/h
1118 06-04-2017 21:05:00 8.2 C 6.53 g/m*3 8.2 C 1.6 km/h
1119 06-04-2017 21:10:00 8.1 C 6.49 g/m*3 8.1 C 1.6 km/h
1120 06-04-2017 21:15:00 7.9 C 6.41 g/m*3 7.9 C 1.6 km/h
1121 06-04-2017 21:20:00 7.8 C 6.37 g/m*3 7.8 C 3.2 km/h
1122 06-04-2017 21:25:00 7.7 C 6.41 g/m*3 7.7 C 1.6 km/h
1123 06-04-2017 21:30:00 7.6 C 6.44 g/m*3 7.6 C 0 km/h
1124 06-04-2017 21:35:00 7.5 C 6.4 g/m*3 7.5 C 3.2 km/h
1125 06-04-2017 21:40:00 7.4 C 6.44 g/m*3 7.4 C 3.2 km/h
Sensor: Nr:Datum:Temp:Abs-Feuchte:Windchill:Wind:
Aussen-T/F 1126 06-04-2017 21:45:00 7.4 C 6.44 g/m*3 7.4 C 0 km/h
1127 06-04-2017 21:50:00 7.4 C 6.44 g/m*3 7.4 C 1.6 km/h
1128 06-04-2017 21:55:00 7.3 C 6.48 g/m*3 7.3 C 3.2 km/h
1129 06-04-2017 22:00:00 7.3 C 6.48 g/m*3 7.3 C 1.6 km/h
1130 06-04-2017 22:05:00 7.3 C 6.48 g/m*3 7.3 C 3.2 km/h
1131 06-04-2017 22:10:00 7.2 C 6.44 g/m*3 7.2 C 1.6 km/h
1132 06-04-2017 22:15:00 7.2 C 6.52 g/m*3 7.2 C 1.6 km/h
1133 06-04-2017 22:20:00 7.2 C 6.52 g/m*3 7.2 C 0 km/h
1134 06-04-2017 22:25:00 7.2 C 6.52 g/m*3 7.2 C 3.2 km/h
1135 06-04-2017 22:30:00 7.2 C 6.52 g/m*3 7.2 C 3.2 km/h
1136 06-04-2017 22:35:00 7.1 C 6.47 g/m*3 7.1 C 3.2 km/h
1137 06-04-2017 22:40:00 7.1 C 6.47 g/m*3 7.1 C 4.8 km/h
1138 06-04-2017 22:45:00 7.2 C 6.52 g/m*3 7.2 C 4.8 km/h
1139 06-04-2017 22:50:00 7.3 C 6.48 g/m*3 7.3 C 3.2 km/h
1140 06-04-2017 22:55:00 7.3 C 6.48 g/m*3 7.3 C 3.2 km/h
1141 06-04-2017 23:00:00 7.6 C 6.53 g/m*3 7.6 C 4.8 km/h
1142 06-04-2017 23:05:00 7.6 C 6.53 g/m*3 7.6 C 4.8 km/h
1143 06-04-2017 23:10:00 7.7 C 6.57 g/m*3 6.28 C 8.1 km/h
1144 06-04-2017 23:15:00 7.9 C 6.57 g/m*3 7.9 C 3.2 km/h
1145 06-04-2017 23:20:00 7.9 C 6.57 g/m*3 7.9 C 3.2 km/h
1146 06-04-2017 23:25:00 8 C 6.61 g/m*3 7.06 C 6.4 km/h
1147 06-04-2017 23:30:00 8.1 C 6.57 g/m*3 8.1 C 1.6 km/h
1148 06-04-2017 23:35:00 8.1 C 6.57 g/m*3 8.1 C 1.6 km/h
1149 06-04-2017 23:40:00 8.1 C 6.57 g/m*3 8.1 C 4.8 km/h
1150 06-04-2017 23:45:00 8.1 C 6.57 g/m*3 8.1 C 1.6 km/h
Sensor: Nr:Datum:Temp:Abs-Feuchte:Windchill:Wind:
Aussen-T/F 1151 06-04-2017 23:50:00 8.1 C 6.57 g/m*3 8.1 C 1.6 km/h
1152 06-04-2017 23:55:00 8 C 6.61 g/m*3 8 C 1.6 km/h
1153 07-04-2017 00:00:00 7.9 C 6.57 g/m*3 7.9 C 3.2 km/h
1154 07-04-2017 00:05:00 7.9 C 6.65 g/m*3 7.9 C 1.6 km/h
1155 07-04-2017 00:10:00 7.9 C 6.65 g/m*3 7.9 C 0 km/h
1156 07-04-2017 00:15:00 7.8 C 6.61 g/m*3 7.8 C 1.6 km/h
1157 07-04-2017 00:20:00 7.8 C 6.61 g/m*3 7.8 C 0 km/h
1158 07-04-2017 00:25:00 7.8 C 6.61 g/m*3 7.8 C 0 km/h
1159 07-04-2017 00:30:00 7.8 C 6.61 g/m*3 7.8 C 1.6 km/h
1160 07-04-2017 00:35:00 7.6 C 6.53 g/m*3 7.6 C 0 km/h
1161 07-04-2017 00:40:00 7.5 C 6.56 g/m*3 7.5 C 0 km/h
1162 07-04-2017 00:45:00 7.4 C 6.6 g/m*3 7.4 C 0 km/h
1163 07-04-2017 00:50:00 7.3 C 6.56 g/m*3 7.3 C 0 km/h
1164 07-04-2017 00:55:00 7.4 C 6.6 g/m*3 7.4 C 0 km/h
1165 07-04-2017 01:00:00 7.4 C 6.6 g/m*3 7.4 C 0 km/h
1166 07-04-2017 01:05:00 7.4 C 6.68 g/m*3 7.4 C 0 km/h
1167 07-04-2017 01:10:00 7.4 C 6.6 g/m*3 7.4 C 0 km/h
1168 07-04-2017 01:15:00 7.5 C 6.72 g/m*3 7.5 C 0 km/h
1169 07-04-2017 01:20:00 7.5 C 6.72 g/m*3 7.5 C 0 km/h
1170 07-04-2017 01:25:00 7.6 C 6.69 g/m*3 7.6 C 0 km/h
1171 07-04-2017 01:30:00 7.6 C 6.69 g/m*3 7.6 C 1.6 km/h
1172 07-04-2017 01:35:00 7.6 C 6.69 g/m*3 7.6 C 1.6 km/h
1173 07-04-2017 06:10:00 3.6 C 5.63 g/m*3 3.6 C 3.2 km/h
1174 07-04-2017 06:15:00 3.6 C 5.63 g/m*3 3.6 C 0 km/h
1175 07-04-2017 06:20:00 3.6 C 5.63 g/m*3 3.6 C 1.6 km/h
Sensor: Nr:Datum:Temp:Abs-Feuchte:Windchill:Wind:
Aussen-T/F 1176 07-04-2017 06:25:00 3.5 C 5.66 g/m*3 3.5 C 1.6 km/h
1177 07-04-2017 06:30:00 3.5 C 5.66 g/m*3 3.5 C 1.6 km/h
1178 07-04-2017 06:35:00 3.5 C 5.66 g/m*3 3.5 C 3.2 km/h
1179 07-04-2017 06:40:00 3.5 C 5.66 g/m*3 3.5 C 0 km/h
1180 07-04-2017 06:45:00 3.4 C 5.62 g/m*3 3.4 C 1.6 km/h
1181 07-04-2017 06:50:00 3.4 C 5.62 g/m*3 3.4 C 1.6 km/h
1182 07-04-2017 06:55:00 3.4 C 5.62 g/m*3 3.4 C 0 km/h
1183 07-04-2017 07:00:00 3.4 C 5.62 g/m*3 3.4 C 0 km/h
1184 07-04-2017 07:05:00 3.4 C 5.62 g/m*3 1.23 C 8.1 km/h
1185 07-04-2017 07:10:00 3.4 C 5.62 g/m*3 3.4 C 1.6 km/h
1186 07-04-2017 07:15:00 3.4 C 5.62 g/m*3 3.4 C 1.6 km/h
1187 07-04-2017 07:20:00 3.4 C 5.62 g/m*3 3.4 C 0 km/h
1188 07-04-2017 07:25:00 3.4 C 5.68 g/m*3 3.4 C 1.6 km/h
1189 07-04-2017 07:30:00 3.4 C 5.68 g/m*3 3.4 C 3.2 km/h
1190 07-04-2017 07:35:00 3.5 C 5.72 g/m*3 3.5 C 1.6 km/h
1191 07-04-2017 07:40:00 3.5 C 5.72 g/m*3 3.5 C 3.2 km/h
1192 07-04-2017 07:45:00 3.5 C 5.72 g/m*3 3.5 C 3.2 km/h
1193 07-04-2017 07:50:00 3.5 C 5.72 g/m*3 3.5 C 3.2 km/h
1194 07-04-2017 11:40:00 10.6 C 7.22 g/m*3 10.6 C 3.2 km/h
1195 07-04-2017 11:45:00 10.6 C 7.12 g/m*3 10.06 C 6.4 km/h
1196 07-04-2017 11:50:00 10.7 C 7.17 g/m*3 9.81 C 8.1 km/h
1197 07-04-2017 11:55:00 10.7 C 7.17 g/m*3 10.7 C 4.8 km/h
1198 07-04-2017 12:00:00 10.7 C 7.17 g/m*3 10.7 C 4.8 km/h
1199 07-04-2017 12:05:00 10.8 C 7.12 g/m*3 10.8 C 4.8 km/h
1200 07-04-2017 12:10:00 11 C 7.11 g/m*3 10.16 C 8.1 km/h
Sensor: Nr:Datum:Temp:Abs-Feuchte:Windchill:Wind:
Aussen-T/F 1201 07-04-2017 12:15:00 11.1 C 7.05 g/m*3 11.1 C 8.1 km/h
1202 07-04-2017 12:20:00 11.3 C 7.14 g/m*3 11.3 C 3.2 km/h
1203 07-04-2017 12:25:00 11.4 C 7.08 g/m*3 11.4 C 9.7 km/h
1204 07-04-2017 12:30:00 11.5 C 7.13 g/m*3 11.5 C 9.7 km/h
1205 07-04-2017 12:35:00 11.6 C 7.28 g/m*3 11.6 C 11.3 km/h
1206 07-04-2017 12:40:00 11.7 C 7.11 g/m*3 11.7 C 11.3 km/h
1207 07-04-2017 12:45:00 11.8 C 7.16 g/m*3 11.8 C 8.1 km/h
1208 07-04-2017 12:50:00 11.9 C 7.2 g/m*3 11.9 C 4.8 km/h
1209 07-04-2017 12:55:00 12.1 C 7.29 g/m*3 12.1 C 8.1 km/h
1210 07-04-2017 13:00:00 12.1 C 7.18 g/m*3 12.1 C 14.5 km/h
1211 07-04-2017 13:05:00 12.2 C 7.23 g/m*3 12.2 C 14.5 km/h
1212 07-04-2017 13:10:00 12.3 C 7.28 g/m*3 12.3 C 9.7 km/h
1213 07-04-2017 13:15:00 12.4 C 7.32 g/m*3 12.4 C 11.3 km/h
1214 07-04-2017 13:20:00 12.6 C 7.3 g/m*3 12.6 C 17.7 km/h
1215 07-04-2017 13:25:00 12.6 C 7.3 g/m*3 12.6 C 12.9 km/h
1216 07-04-2017 13:30:00 12.6 C 7.3 g/m*3 12.6 C 14.5 km/h
1217 07-04-2017 13:35:00 12.6 C 7.3 g/m*3 12.6 C 8.1 km/h
1218 07-04-2017 13:40:00 12.5 C 7.26 g/m*3 12.5 C 11.3 km/h
1219 07-04-2017 13:45:00 12.6 C 7.41 g/m*3 12.6 C 9.7 km/h
1220 07-04-2017 13:50:00 12.7 C 7.46 g/m*3 12.7 C 17.7 km/h
1221 07-04-2017 13:55:00 12.9 C 7.55 g/m*3 12.9 C 4.8 km/h
1222 07-04-2017 14:00:00 13.3 C 7.63 g/m*3 13.3 C 11.3 km/h
1223 07-04-2017 14:05:00 13.4 C 7.56 g/m*3 13.4 C 11.3 km/h
1224 07-04-2017 14:10:00 13.5 C 7.49 g/m*3 13.5 C 12.9 km/h
1225 07-04-2017 14:15:00 13.5 C 7.49 g/m*3 13.5 C 11.3 km/h
Sensor: Nr:Datum:Temp:Abs-Feuchte:Windchill:Wind:
Aussen-T/F 1226 07-04-2017 14:20:00 13.6 C 7.65 g/m*3 13.6 C 11.3 km/h
1227 07-04-2017 14:25:00 13.6 C 7.65 g/m*3 13.6 C 9.7 km/h
1228 07-04-2017 14:30:00 13.6 C 7.41 g/m*3 13.6 C 17.7 km/h
1229 07-04-2017 14:35:00 13.4 C 7.32 g/m*3 13.4 C 14.5 km/h
1230 07-04-2017 14:40:00 13.4 C 7.44 g/m*3 13.4 C 12.9 km/h
1231 07-04-2017 14:45:00 13.6 C 7.53 g/m*3 13.6 C 14.5 km/h
1232 07-04-2017 14:50:00 13.6 C 7.53 g/m*3 13.6 C 11.3 km/h
1233 07-04-2017 14:55:00 13.6 C 7.3 g/m*3 13.6 C 12.9 km/h
1234 07-04-2017 15:00:00 13.6 C 7.41 g/m*3 13.6 C 12.9 km/h
1235 07-04-2017 15:05:00 13.6 C 7.41 g/m*3 13.6 C 17.7 km/h
1236 07-04-2017 15:10:00 13.8 C 7.39 g/m*3 13.8 C 17.7 km/h
1237 07-04-2017 15:15:00 13.8 C 7.27 g/m*3 13.8 C 14.5 km/h
1238 07-04-2017 15:20:00 13.7 C 7.34 g/m*3 13.7 C 14.5 km/h
1239 07-04-2017 15:25:00 13.7 C 7.34 g/m*3 13.7 C 9.7 km/h
1240 07-04-2017 15:30:00 13.8 C 7.51 g/m*3 13.8 C 11.3 km/h
1241 07-04-2017 15:35:00 14.2 C 7.57 g/m*3 14.2 C 16.1 km/h
1242 07-04-2017 15:40:00 14.2 C 7.57 g/m*3 14.2 C 16.1 km/h
1243 07-04-2017 15:45:00 14.3 C 7.74 g/m*3 14.3 C 12.9 km/h
1244 07-04-2017 15:50:00 14.5 C 7.59 g/m*3 14.5 C 8.1 km/h
1245 07-04-2017 15:55:00 14.4 C 7.42 g/m*3 14.4 C 16.1 km/h
1246 07-04-2017 16:00:00 14.5 C 7.71 g/m*3 14.5 C 14.5 km/h
1247 07-04-2017 16:05:00 14.6 C 7.51 g/m*3 14.6 C 16.1 km/h
1248 07-04-2017 16:10:00 14.3 C 7.49 g/m*3 14.3 C 17.7 km/h
1249 07-04-2017 16:15:00 14.2 C 7.57 g/m*3 14.2 C 11.3 km/h
1250 07-04-2017 16:20:00 14.1 C 7.28 g/m*3 14.1 C 12.9 km/h
Sensor: Nr:Datum:Temp:Abs-Feuchte:Windchill:Wind:
Aussen-T/F 1251 07-04-2017 16:25:00 14.2 C 7.45 g/m*3 14.2 C 14.5 km/h
1252 07-04-2017 16:30:00 14.6 C 7.63 g/m*3 14.6 C 11.3 km/h
1253 07-04-2017 16:35:00 15.1 C 7.87 g/m*3 15.1 C 14.5 km/h
1254 07-04-2017 16:40:00 15.4 C 7.49 g/m*3 15.4 C 14.5 km/h
1255 07-04-2017 16:45:00 15 C 7.44 g/m*3 15 C 17.7 km/h
1256 07-04-2017 16:50:00 14.7 C 7.43 g/m*3 14.7 C 11.3 km/h
1257 07-04-2017 16:55:00 14.5 C 7.46 g/m*3 14.5 C 12.9 km/h
1258 07-04-2017 17:00:00 14.4 C 7.54 g/m*3 14.4 C 11.3 km/h
1259 07-04-2017 17:05:00 14.7 C 7.55 g/m*3 14.7 C 8.1 km/h
1260 07-04-2017 17:10:00 14.9 C 7.52 g/m*3 14.9 C 12.9 km/h
1261 07-04-2017 17:15:00 15.2 C 7.66 g/m*3 15.2 C 8.1 km/h
1262 07-04-2017 17:20:00 15.5 C 7.67 g/m*3 15.5 C 14.5 km/h
1263 07-04-2017 17:25:00 15.4 C 7.62 g/m*3 15.4 C 12.9 km/h
1264 07-04-2017 17:30:00 15.2 C 7.4 g/m*3 15.2 C 11.3 km/h
1265 07-04-2017 17:35:00 15.1 C 7.48 g/m*3 15.1 C 11.3 km/h
1266 07-04-2017 17:40:00 15.1 C 7.35 g/m*3 15.1 C 17.7 km/h
1267 07-04-2017 17:45:00 15.2 C 7.53 g/m*3 15.2 C 9.7 km/h
1268 07-04-2017 17:50:00 15.3 C 7.57 g/m*3 15.3 C 9.7 km/h
1269 07-04-2017 17:55:00 15.2 C 7.4 g/m*3 15.2 C 14.5 km/h
1270 07-04-2017 18:00:00 15.1 C 7.48 g/m*3 15.1 C 14.5 km/h
1271 07-04-2017 18:05:00 15.2 C 7.66 g/m*3 15.2 C 9.7 km/h
1272 07-04-2017 18:10:00 15.3 C 7.44 g/m*3 15.3 C 19.3 km/h
1273 07-04-2017 18:15:00 15.1 C 7.61 g/m*3 15.1 C 19.3 km/h
1274 07-04-2017 18:20:00 15.1 C 7.61 g/m*3 15.1 C 11.3 km/h
1275 07-04-2017 18:25:00 15.3 C 7.7 g/m*3 15.3 C 6.4 km/h
Sensor: Nr:Datum:Temp:Abs-Feuchte:Windchill:Wind:
Aussen-T/F 1276 07-04-2017 18:30:00 15.4 C 7.62 g/m*3 15.4 C 11.3 km/h
1277 07-04-2017 18:35:00 15.3 C 7.44 g/m*3 15.3 C 9.7 km/h
1278 07-04-2017 18:40:00 15.2 C 7.53 g/m*3 15.2 C 16.1 km/h
1279 07-04-2017 18:45:00 14.8 C 7.47 g/m*3 14.8 C 14.5 km/h
1280 07-04-2017 18:50:00 14.4 C 7.42 g/m*3 14.4 C 12.9 km/h
1281 07-04-2017 18:55:00 14.3 C 7.49 g/m*3 14.3 C 9.7 km/h
1282 07-04-2017 19:00:00 14.2 C 7.45 g/m*3 14.2 C 8.1 km/h
1283 07-04-2017 19:05:00 14.3 C 7.62 g/m*3 14.3 C 11.3 km/h
1284 07-04-2017 19:10:00 14.1 C 7.4 g/m*3 14.1 C 12.9 km/h
1285 07-04-2017 19:15:00 13.7 C 7.34 g/m*3 13.7 C 11.3 km/h
1286 07-04-2017 19:20:00 13.5 C 7.37 g/m*3 13.5 C 8.1 km/h
1287 07-04-2017 19:25:00 13.4 C 7.44 g/m*3 13.4 C 6.4 km/h
1288 07-04-2017 19:30:00 13.3 C 7.39 g/m*3 13.3 C 6.4 km/h
1289 07-04-2017 19:35:00 13.2 C 7.46 g/m*3 13.2 C 4.8 km/h
1290 07-04-2017 19:40:00 13.2 C 7.46 g/m*3 13.2 C 8.1 km/h
1291 07-04-2017 19:45:00 13.1 C 7.42 g/m*3 13.1 C 4.8 km/h
1292 07-04-2017 19:50:00 13 C 7.48 g/m*3 13 C 8.1 km/h
1293 07-04-2017 19:55:00 12.9 C 7.33 g/m*3 12.9 C 6.4 km/h
1294 07-04-2017 20:00:00 12.9 C 7.44 g/m*3 12.9 C 3.2 km/h
1295 07-04-2017 20:05:00 12.8 C 7.62 g/m*3 12.8 C 0 km/h
1296 07-04-2017 20:10:00 12.7 C 7.46 g/m*3 12.7 C 0 km/h
1297 07-04-2017 20:15:00 12.6 C 7.41 g/m*3 12.6 C 3.2 km/h
1298 07-04-2017 20:20:00 12.4 C 7.43 g/m*3 12.4 C 0 km/h
1299 07-04-2017 20:25:00 12.4 C 7.54 g/m*3 12.4 C 0 km/h
1300 07-04-2017 20:30:00 12.2 C 7.45 g/m*3 12.2 C 0 km/h
Sensor: Nr:Datum:Temp:Abs-Feuchte:Windchill:Wind:
Aussen-T/F 1301 07-04-2017 20:35:00 12.1 C 7.51 g/m*3 12.1 C 0 km/h
1302 07-04-2017 20:40:00 12 C 7.57 g/m*3 12 C 0 km/h
1303 07-04-2017 20:45:00 11.8 C 7.47 g/m*3 11.8 C 0 km/h
1304 07-04-2017 20:50:00 11.7 C 7.53 g/m*3 11.7 C 0 km/h
1305 07-04-2017 20:55:00 11.7 C 7.53 g/m*3 11.7 C 1.6 km/h
1306 07-04-2017 21:00:00 11.6 C 7.48 g/m*3 11.6 C 0 km/h
1307 07-04-2017 21:05:00 11.6 C 7.48 g/m*3 11.6 C 0 km/h
1308 07-04-2017 21:10:00 11.6 C 7.59 g/m*3 11.6 C 0 km/h
1309 07-04-2017 21:15:00 11.6 C 7.59 g/m*3 11.6 C 0 km/h
1310 07-04-2017 21:20:00 11.5 C 7.64 g/m*3 11.5 C 0 km/h
1311 07-04-2017 21:25:00 11.4 C 7.49 g/m*3 11.4 C 0 km/h
1312 07-04-2017 21:30:00 11.4 C 7.49 g/m*3 11.4 C 0 km/h
1313 07-04-2017 21:35:00 11.4 C 7.49 g/m*3 11.4 C 0 km/h
1314 07-04-2017 21:40:00 11.3 C 7.55 g/m*3 11.3 C 0 km/h
1315 07-04-2017 21:45:00 11.3 C 7.55 g/m*3 11.3 C 0 km/h
1316 07-04-2017 21:50:00 11.2 C 7.6 g/m*3 11.2 C 0 km/h
1317 07-04-2017 21:55:00 11.1 C 7.55 g/m*3 11.1 C 0 km/h
1318 07-04-2017 22:00:00 11.1 C 7.55 g/m*3 11.1 C 0 km/h
1319 08-04-2017 09:15:00 8.9 C 7.45 g/m*3 8.1 C 6.4 km/h
1320 08-04-2017 09:20:00 9.1 C 7.54 g/m*3 9.1 C 4.8 km/h
1321 08-04-2017 09:25:00 9.2 C 7.59 g/m*3 8.45 C 6.4 km/h
1322 08-04-2017 09:30:00 9.4 C 7.6 g/m*3 8.68 C 6.4 km/h
1323 08-04-2017 09:35:00 9.5 C 7.65 g/m*3 8.4 C 8.1 km/h
1324 08-04-2017 09:40:00 9.6 C 7.69 g/m*3 8.91 C 6.4 km/h
1325 08-04-2017 09:45:00 9.8 C 7.7 g/m*3 9.8 C 3.2 km/h
Sensor: Nr:Datum:Temp:Abs-Feuchte:Windchill:Wind:
Aussen-T/F 1326 08-04-2017 09:50:00 9.9 C 7.75 g/m*3 9.9 C 3.2 km/h
1327 08-04-2017 09:55:00 10.1 C 7.75 g/m*3 10.1 C 3.2 km/h
1328 08-04-2017 10:00:00 10.3 C 7.76 g/m*3 10.3 C 4.8 km/h
1329 08-04-2017 10:05:00 10.5 C 7.95 g/m*3 10.5 C 3.2 km/h
1330 08-04-2017 10:10:00 10.7 C 7.96 g/m*3 10.7 C 1.6 km/h
1331 08-04-2017 10:15:00 10.9 C 7.86 g/m*3 10.9 C 4.8 km/h
1332 08-04-2017 10:20:00 11.2 C 8.01 g/m*3 11.2 C 4.8 km/h
1333 08-04-2017 10:25:00 11.3 C 7.96 g/m*3 11.3 C 6.4 km/h
1334 08-04-2017 10:30:00 11.4 C 7.8 g/m*3 11.4 C 3.2 km/h
1335 08-04-2017 10:35:00 11.6 C 7.9 g/m*3 11.6 C 3.2 km/h
1336 08-04-2017 10:40:00 11.8 C 7.89 g/m*3 11.8 C 3.2 km/h
1337 08-04-2017 10:45:00 11.9 C 7.94 g/m*3 11.9 C 1.6 km/h
1338 08-04-2017 10:50:00 12.2 C 8.09 g/m*3 12.2 C 1.6 km/h
1339 08-04-2017 10:55:00 12.3 C 7.93 g/m*3 12.3 C 1.6 km/h
1340 08-04-2017 11:00:00 12.5 C 7.92 g/m*3 12.5 C 0 km/h
1341 08-04-2017 11:05:00 12.7 C 8.13 g/m*3 12.7 C 4.8 km/h
1342 08-04-2017 11:10:00 12.8 C 7.95 g/m*3 12.8 C 3.2 km/h
1343 08-04-2017 11:15:00 12.9 C 8 g/m*3 12.9 C 3.2 km/h
1344 08-04-2017 11:20:00 13 C 8.05 g/m*3 13 C 4.8 km/h
1345 08-04-2017 11:25:00 13.1 C 7.99 g/m*3 13.1 C 3.2 km/h
1346 08-04-2017 11:30:00 13.1 C 7.87 g/m*3 13.1 C 6.4 km/h
1347 08-04-2017 11:35:00 13.1 C 7.87 g/m*3 13.1 C 0 km/h
1348 08-04-2017 11:40:00 13.1 C 7.99 g/m*3 13.1 C 0 km/h
1349 08-04-2017 11:45:00 13.2 C 8.04 g/m*3 13.2 C 1.6 km/h
1350 08-04-2017 11:50:00 13.2 C 7.92 g/m*3 13.2 C 4.8 km/h
Sensor: Nr:Datum:Temp:Abs-Feuchte:Windchill:Wind:
Aussen-T/F 1351 08-04-2017 11:55:00 13.4 C 8.02 g/m*3 13.4 C 6.4 km/h
1352 08-04-2017 12:00:00 13.5 C 7.95 g/m*3 13.5 C 3.2 km/h
1353 08-04-2017 12:05:00 13.7 C 8.29 g/m*3 13.7 C 0 km/h
1354 08-04-2017 12:10:00 13.8 C 7.98 g/m*3 13.8 C 4.8 km/h
1355 08-04-2017 12:15:00 14.1 C 8.25 g/m*3 14.1 C 4.8 km/h
1356 08-04-2017 12:20:00 14.2 C 8.06 g/m*3 14.2 C 3.2 km/h
1357 08-04-2017 12:25:00 14.3 C 7.99 g/m*3 14.3 C 3.2 km/h
1358 08-04-2017 12:30:00 14.4 C 8.03 g/m*3 14.4 C 4.8 km/h
1359 08-04-2017 12:35:00 14.5 C 8.08 g/m*3 14.5 C 4.8 km/h
1360 08-04-2017 12:40:00 14.6 C 8.13 g/m*3 14.6 C 4.8 km/h
1361 08-04-2017 12:45:00 14.6 C 8.13 g/m*3 14.6 C 4.8 km/h
1362 08-04-2017 12:50:00 14.7 C 7.81 g/m*3 14.7 C 8.1 km/h
1363 08-04-2017 12:55:00 14.7 C 8.06 g/m*3 14.7 C 8.1 km/h
1364 08-04-2017 13:00:00 14.7 C 7.81 g/m*3 14.7 C 6.4 km/h
1365 08-04-2017 13:05:00 14.7 C 7.93 g/m*3 14.7 C 4.8 km/h
1366 08-04-2017 13:10:00 14.8 C 8.11 g/m*3 14.8 C 3.2 km/h
1367 08-04-2017 13:15:00 14.9 C 7.9 g/m*3 14.9 C 8.1 km/h
1368 08-04-2017 13:20:00 14.9 C 7.77 g/m*3 14.9 C 3.2 km/h
1369 08-04-2017 13:25:00 14.9 C 7.9 g/m*3 14.9 C 3.2 km/h
1370 08-04-2017 13:30:00 14.9 C 7.77 g/m*3 14.9 C 3.2 km/h
1371 08-04-2017 13:35:00 15 C 7.69 g/m*3 15 C 4.8 km/h
1372 08-04-2017 13:40:00 15.1 C 7.87 g/m*3 15.1 C 1.6 km/h
1373 08-04-2017 13:45:00 15.1 C 7.61 g/m*3 15.1 C 4.8 km/h
1374 08-04-2017 13:50:00 15.3 C 7.84 g/m*3 15.3 C 4.8 km/h
1375 08-04-2017 13:55:00 15.4 C 7.88 g/m*3 15.4 C 8.1 km/h
Sensor: Nr:Datum:Temp:Abs-Feuchte:Windchill:Wind:
Aussen-T/F 1376 08-04-2017 14:00:00 15.6 C 7.98 g/m*3 15.6 C 8.1 km/h
1377 08-04-2017 14:05:00 15.7 C 8.03 g/m*3 15.7 C 8.1 km/h
1378 08-04-2017 14:10:00 15.8 C 7.81 g/m*3 15.8 C 6.4 km/h
1379 08-04-2017 14:15:00 16.1 C 7.95 g/m*3 16.1 C 8.1 km/h
1380 08-04-2017 14:20:00 16.1 C 7.68 g/m*3 16.1 C 3.2 km/h
1381 08-04-2017 14:25:00 16.3 C 8.05 g/m*3 16.3 C 6.4 km/h
1382 08-04-2017 14:30:00 16.4 C 7.96 g/m*3 16.4 C 6.4 km/h
1383 08-04-2017 14:35:00 16.6 C 8.05 g/m*3 16.6 C 11.3 km/h
1384 08-04-2017 14:40:00 16.6 C 8.05 g/m*3 16.6 C 3.2 km/h
1385 08-04-2017 14:45:00 16.7 C 8.1 g/m*3 16.7 C 8.1 km/h
1386 08-04-2017 14:50:00 16.7 C 7.96 g/m*3 16.7 C 4.8 km/h
1387 08-04-2017 14:55:00 16.7 C 7.96 g/m*3 16.7 C 9.7 km/h
1388 08-04-2017 15:00:00 16.6 C 7.91 g/m*3 16.6 C 9.7 km/h
1389 08-04-2017 15:05:00 16.6 C 8.05 g/m*3 16.6 C 8.1 km/h
1390 08-04-2017 15:10:00 16.7 C 7.96 g/m*3 16.7 C 6.4 km/h
1391 08-04-2017 15:15:00 16.8 C 7.86 g/m*3 16.8 C 8.1 km/h
1392 08-04-2017 15:20:00 16.9 C 8.05 g/m*3 16.9 C 8.1 km/h
1393 08-04-2017 15:25:00 17 C 7.96 g/m*3 17 C 6.4 km/h
1394 08-04-2017 15:30:00 17.1 C 8.15 g/m*3 17.1 C 6.4 km/h
1395 08-04-2017 15:35:00 17.2 C 8.05 g/m*3 17.2 C 9.7 km/h
1396 08-04-2017 15:40:00 17.3 C 7.96 g/m*3 17.3 C 9.7 km/h
1397 08-04-2017 15:45:00 17.4 C 8.15 g/m*3 17.4 C 6.4 km/h
1398 08-04-2017 15:50:00 17.6 C 8.25 g/m*3 17.6 C 9.7 km/h
1399 08-04-2017 15:55:00 17.7 C 8.15 g/m*3 17.7 C 9.7 km/h
1400 08-04-2017 16:00:00 17.8 C 8.04 g/m*3 17.8 C 8.1 km/h
Sensor: Nr:Datum:Temp:Abs-Feuchte:Windchill:Wind:
Aussen-T/F 1401 08-04-2017 16:05:00 17.9 C 8.24 g/m*3 17.9 C 4.8 km/h
1402 08-04-2017 16:10:00 17.9 C 8.09 g/m*3 17.9 C 3.2 km/h
1403 08-04-2017 16:15:00 18 C 7.99 g/m*3 18 C 3.2 km/h
1404 08-04-2017 16:20:00 18.1 C 8.03 g/m*3 18.1 C 8.1 km/h
1405 08-04-2017 16:25:00 18.2 C 8.08 g/m*3 18.2 C 4.8 km/h
1406 08-04-2017 16:30:00 18.6 C 8.28 g/m*3 18.6 C 4.8 km/h
1407 08-04-2017 16:35:00 18.7 C 8.01 g/m*3 18.7 C 8.1 km/h
1408 08-04-2017 16:40:00 18.8 C 8.05 g/m*3 18.8 C 6.4 km/h
1409 08-04-2017 16:45:00 19.1 C 7.87 g/m*3 19.1 C 9.7 km/h
1410 08-04-2017 16:50:00 19.2 C 7.75 g/m*3 19.2 C 4.8 km/h
1411 08-04-2017 16:55:00 19.2 C 8.08 g/m*3 19.2 C 6.4 km/h
1412 08-04-2017 17:00:00 19.4 C 7.67 g/m*3 19.4 C 8.1 km/h
1413 08-04-2017 17:05:00 19.2 C 7.75 g/m*3 19.2 C 8.1 km/h
1414 08-04-2017 17:10:00 19.3 C 7.8 g/m*3 19.3 C 3.2 km/h
1415 08-04-2017 17:15:00 19.5 C 7.89 g/m*3 19.5 C 4.8 km/h
1416 08-04-2017 17:20:00 19.4 C 7.67 g/m*3 19.4 C 8.1 km/h
1417 08-04-2017 17:25:00 19.4 C 7.51 g/m*3 19.4 C 8.1 km/h
1418 08-04-2017 17:30:00 19.3 C 7.63 g/m*3 19.3 C 11.3 km/h
1419 08-04-2017 17:35:00 19.1 C 7.7 g/m*3 19.1 C 9.7 km/h
1420 08-04-2017 17:40:00 19 C 7.66 g/m*3 19 C 8.1 km/h
1421 08-04-2017 17:45:00 19.1 C 7.87 g/m*3 19.1 C 6.4 km/h
1422 08-04-2017 17:50:00 19.3 C 7.96 g/m*3 19.3 C 8.1 km/h
1423 08-04-2017 17:55:00 19.4 C 7.67 g/m*3 19.4 C 6.4 km/h
1424 08-04-2017 18:00:00 19.6 C 7.77 g/m*3 19.6 C 8.1 km/h
1425 08-04-2017 18:05:00 19.5 C 7.72 g/m*3 19.5 C 8.1 km/h
Sensor: Nr:Datum:Temp:Abs-Feuchte:Windchill:Wind:
Aussen-T/F 1426 08-04-2017 18:10:00 19.4 C 7.67 g/m*3 19.4 C 8.1 km/h
1427 08-04-2017 18:15:00 19.3 C 7.8 g/m*3 19.3 C 9.7 km/h
1428 08-04-2017 18:20:00 19.3 C 7.8 g/m*3 19.3 C 9.7 km/h
1429 08-04-2017 18:25:00 19.2 C 7.59 g/m*3 19.2 C 8.1 km/h
1430 08-04-2017 18:30:00 19.1 C 7.87 g/m*3 19.1 C 6.4 km/h
1431 08-04-2017 18:35:00 19.2 C 7.91 g/m*3 19.2 C 6.4 km/h
1432 08-04-2017 18:40:00 19.3 C 7.96 g/m*3 19.3 C 4.8 km/h
1433 08-04-2017 18:45:00 19.3 C 7.8 g/m*3 19.3 C 6.4 km/h
1434 08-04-2017 18:50:00 19.3 C 7.8 g/m*3 19.3 C 3.2 km/h
1435 08-04-2017 18:55:00 19.3 C 7.8 g/m*3 19.3 C 4.8 km/h
1436 08-04-2017 19:00:00 19.2 C 7.59 g/m*3 19.2 C 4.8 km/h
1437 08-04-2017 19:05:00 19.1 C 7.54 g/m*3 19.1 C 4.8 km/h
1438 08-04-2017 19:10:00 19 C 7.5 g/m*3 19 C 4.8 km/h
1439 08-04-2017 19:15:00 18.9 C 7.45 g/m*3 18.9 C 1.6 km/h
1440 08-04-2017 19:20:00 18.8 C 7.41 g/m*3 18.8 C 6.4 km/h
1441 08-04-2017 19:25:00 18.6 C 7.48 g/m*3 18.6 C 4.8 km/h
1442 08-04-2017 19:30:00 18.4 C 8.18 g/m*3 18.4 C 4.8 km/h
1443 08-04-2017 19:35:00 18.1 C 8.03 g/m*3 18.1 C 1.6 km/h
1444 08-04-2017 19:40:00 17.6 C 8.25 g/m*3 17.6 C 3.2 km/h
1445 08-04-2017 19:45:00 17 C 8.25 g/m*3 17 C 3.2 km/h
1446 08-04-2017 19:50:00 16.4 C 8.1 g/m*3 16.4 C 3.2 km/h
1447 08-04-2017 19:55:00 15.9 C 7.99 g/m*3 15.9 C 4.8 km/h
1448 08-04-2017 20:00:00 15.4 C 8.01 g/m*3 15.4 C 4.8 km/h
1449 08-04-2017 20:05:00 14.9 C 7.9 g/m*3 14.9 C 4.8 km/h
1450 08-04-2017 20:10:00 14.6 C 7.88 g/m*3 14.6 C 4.8 km/h
Sensor: Nr:Datum:Temp:Abs-Feuchte:Windchill:Wind:
Aussen-T/F 1451 08-04-2017 20:15:00 14.2 C 7.82 g/m*3 14.2 C 4.8 km/h
1452 08-04-2017 20:20:00 13.9 C 7.79 g/m*3 13.9 C 4.8 km/h
1453 08-04-2017 20:25:00 13.7 C 7.7 g/m*3 13.7 C 4.8 km/h
1454 08-04-2017 20:30:00 13.6 C 7.77 g/m*3 13.6 C 4.8 km/h
1455 08-04-2017 20:35:00 13.3 C 7.74 g/m*3 13.3 C 4.8 km/h
1456 08-04-2017 20:40:00 13.1 C 7.65 g/m*3 13.1 C 4.8 km/h
1457 08-04-2017 20:45:00 12.9 C 7.66 g/m*3 12.9 C 4.8 km/h
1458 08-04-2017 20:50:00 12.8 C 7.62 g/m*3 12.8 C 4.8 km/h
1459 08-04-2017 20:55:00 12.7 C 7.68 g/m*3 12.7 C 3.2 km/h
1460 08-04-2017 21:00:00 12.6 C 7.63 g/m*3 12.6 C 3.2 km/h
1461 08-04-2017 21:05:00 12.6 C 7.63 g/m*3 12.6 C 4.8 km/h
1462 08-04-2017 21:10:00 12.5 C 7.7 g/m*3 12.5 C 1.6 km/h
1463 08-04-2017 21:15:00 12.5 C 7.7 g/m*3 12.5 C 3.2 km/h
1464 08-04-2017 21:20:00 12.5 C 7.7 g/m*3 12.5 C 3.2 km/h
1465 08-04-2017 21:25:00 12.4 C 7.76 g/m*3 12.4 C 4.8 km/h
1466 08-04-2017 21:30:00 12.3 C 7.71 g/m*3 12.3 C 3.2 km/h
1467 08-04-2017 21:35:00 12.3 C 7.71 g/m*3 12.3 C 3.2 km/h
1468 08-04-2017 21:40:00 12.2 C 7.77 g/m*3 12.2 C 4.8 km/h
1469 08-04-2017 21:45:00 12.1 C 7.61 g/m*3 12.1 C 4.8 km/h
1470 08-04-2017 21:50:00 11.9 C 7.63 g/m*3 11.9 C 1.6 km/h
1471 08-04-2017 21:55:00 11.8 C 7.58 g/m*3 11.8 C 4.8 km/h
1472 08-04-2017 22:00:00 11.8 C 7.58 g/m*3 11.8 C 4.8 km/h
1473 08-04-2017 22:05:00 11.7 C 7.64 g/m*3 11.7 C 4.8 km/h
1474 08-04-2017 22:10:00 11.7 C 7.64 g/m*3 11.7 C 4.8 km/h
1475 08-04-2017 22:15:00 11.6 C 7.59 g/m*3 11.6 C 3.2 km/h
Sensor: Nr:Datum:Temp:Abs-Feuchte:Windchill:Wind:
Aussen-T/F 1476 08-04-2017 22:20:00 11.4 C 7.49 g/m*3 11.4 C 4.8 km/h
1477 08-04-2017 22:25:00 11.3 C 7.55 g/m*3 11.3 C 3.2 km/h
1478 08-04-2017 22:30:00 11.2 C 7.6 g/m*3 11.2 C 0 km/h
1479 08-04-2017 22:35:00 10.9 C 7.56 g/m*3 10.9 C 0 km/h
1480 08-04-2017 22:40:00 10.7 C 7.56 g/m*3 10.7 C 0 km/h
1481 08-04-2017 22:45:00 10.5 C 7.47 g/m*3 10.5 C 0 km/h
1482 08-04-2017 22:50:00 10.2 C 7.42 g/m*3 10.2 C 0 km/h
1483 08-04-2017 22:55:00 10 C 7.33 g/m*3 10 C 0 km/h
1484 08-04-2017 23:00:00 9.8 C 7.33 g/m*3 9.8 C 1.6 km/h
1485 08-04-2017 23:05:00 9.6 C 7.33 g/m*3 9.6 C 1.6 km/h
1486 08-04-2017 23:10:00 9.5 C 7.37 g/m*3 9.5 C 0 km/h
1487 08-04-2017 23:15:00 9.4 C 7.33 g/m*3 9.4 C 0 km/h
1488 08-04-2017 23:20:00 9.2 C 7.23 g/m*3 9.2 C 0 km/h
1489 08-04-2017 23:25:00 9.1 C 7.28 g/m*3 9.1 C 0 km/h
1490 08-04-2017 23:30:00 8.9 C 7.27 g/m*3 8.9 C 0 km/h
1491 08-04-2017 23:35:00 8.8 C 7.22 g/m*3 8.8 C 0 km/h
1492 08-04-2017 23:40:00 8.6 C 7.13 g/m*3 8.6 C 0 km/h
1493 08-04-2017 23:45:00 8.4 C 7.13 g/m*3 8.4 C 0 km/h
1494 08-04-2017 23:50:00 8.3 C 7.08 g/m*3 8.3 C 0 km/h
1495 08-04-2017 23:55:00 8.2 C 7.12 g/m*3 8.2 C 0 km/h
1496 09-04-2017 00:00:00 8.2 C 7.12 g/m*3 8.2 C 0 km/h
1497 09-04-2017 00:05:00 8.1 C 7.07 g/m*3 8.1 C 0 km/h
1498 09-04-2017 00:10:00 8 C 7.03 g/m*3 8 C 0 km/h
1499 09-04-2017 00:15:00 7.9 C 6.98 g/m*3 7.9 C 0 km/h
1500 09-04-2017 00:20:00 7.8 C 7.02 g/m*3 7.8 C 0 km/h
Sensor: Nr:Datum:Temp:Abs-Feuchte:Windchill:Wind:
Aussen-T/F 1501 09-04-2017 00:25:00 7.8 C 7.1 g/m*3 7.8 C 0 km/h
1502 09-04-2017 00:30:00 7.8 C 7.1 g/m*3 7.8 C 0 km/h
1503 09-04-2017 00:35:00 7.7 C 7.05 g/m*3 7.7 C 0 km/h
1504 09-04-2017 00:40:00 7.6 C 7.01 g/m*3 7.6 C 0 km/h
1505 09-04-2017 00:45:00 7.5 C 6.96 g/m*3 7.5 C 0 km/h
1506 09-04-2017 00:50:00 7.5 C 6.96 g/m*3 7.5 C 0 km/h
1507 09-04-2017 00:55:00 7.4 C 6.92 g/m*3 7.4 C 0 km/h
1508 09-04-2017 01:00:00 7.3 C 6.87 g/m*3 7.3 C 0 km/h
1509 09-04-2017 01:05:00 7.2 C 6.91 g/m*3 7.2 C 0 km/h
1510 09-04-2017 01:10:00 7.1 C 6.86 g/m*3 7.1 C 0 km/h
1511 09-04-2017 01:15:00 7.1 C 6.86 g/m*3 7.1 C 0 km/h
1512 09-04-2017 01:20:00 6.9 C 6.77 g/m*3 6.9 C 0 km/h
1513 09-04-2017 01:25:00 6.8 C 6.73 g/m*3 6.8 C 0 km/h
1514 09-04-2017 01:30:00 6.7 C 6.76 g/m*3 6.7 C 0 km/h
1515 09-04-2017 01:35:00 6.7 C 6.76 g/m*3 6.7 C 0 km/h
1516 09-04-2017 01:40:00 6.6 C 6.72 g/m*3 6.6 C 0 km/h
1517 09-04-2017 01:45:00 6.6 C 6.79 g/m*3 6.6 C 0 km/h
1518 09-04-2017 01:50:00 6.5 C 6.75 g/m*3 6.5 C 0 km/h
1519 09-04-2017 01:55:00 6.5 C 6.75 g/m*3 6.5 C 0 km/h
1520 09-04-2017 02:00:00 6.5 C 6.75 g/m*3 6.5 C 0 km/h
1521 09-04-2017 02:05:00 6.4 C 6.71 g/m*3 6.4 C 0 km/h
1522 09-04-2017 02:10:00 6.3 C 6.66 g/m*3 6.3 C 0 km/h
1523 09-04-2017 02:15:00 6.3 C 6.66 g/m*3 6.3 C 0 km/h
1524 09-04-2017 02:20:00 6.2 C 6.69 g/m*3 6.2 C 0 km/h
1525 09-04-2017 02:25:00 6.2 C 6.69 g/m*3 6.2 C 0 km/h
Sensor: Nr:Datum:Temp:Abs-Feuchte:Windchill:Wind:
Aussen-T/F 1526 09-04-2017 02:30:00 6.1 C 6.65 g/m*3 6.1 C 0 km/h
1527 09-04-2017 02:35:00 6.1 C 6.65 g/m*3 6.1 C 0 km/h
1528 09-04-2017 02:40:00 6 C 6.6 g/m*3 6 C 0 km/h
1529 09-04-2017 02:45:00 5.9 C 6.56 g/m*3 5.9 C 0 km/h
1530 09-04-2017 02:50:00 5.8 C 6.52 g/m*3 5.8 C 0 km/h
1531 09-04-2017 02:55:00 5.8 C 6.52 g/m*3 5.8 C 0 km/h
1532 09-04-2017 03:00:00 5.7 C 6.48 g/m*3 5.7 C 0 km/h
1533 09-04-2017 03:05:00 5.6 C 6.43 g/m*3 5.6 C 0 km/h
1534 09-04-2017 03:10:00 5.5 C 6.39 g/m*3 5.5 C 0 km/h
1535 09-04-2017 03:15:00 5.4 C 6.42 g/m*3 5.4 C 0 km/h
1536 09-04-2017 03:20:00 5.3 C 6.31 g/m*3 5.3 C 0 km/h
1537 09-04-2017 03:25:00 5.3 C 6.38 g/m*3 5.3 C 0 km/h
1538 09-04-2017 03:30:00 5.3 C 6.38 g/m*3 5.3 C 0 km/h
1539 09-04-2017 03:35:00 5.3 C 6.38 g/m*3 5.3 C 0 km/h
1540 09-04-2017 03:40:00 5.3 C 6.45 g/m*3 5.3 C 0 km/h
1541 09-04-2017 03:45:00 5.3 C 6.45 g/m*3 5.3 C 0 km/h
1542 09-04-2017 03:50:00 5.2 C 6.33 g/m*3 5.2 C 0 km/h
1543 09-04-2017 03:55:00 5.3 C 6.45 g/m*3 5.3 C 0 km/h
1544 09-04-2017 04:00:00 5.3 C 6.45 g/m*3 5.3 C 0 km/h
1545 09-04-2017 04:05:00 5.2 C 6.4 g/m*3 5.2 C 0 km/h
1546 09-04-2017 04:10:00 5.2 C 6.4 g/m*3 5.2 C 0 km/h
1547 09-04-2017 04:15:00 5.1 C 6.36 g/m*3 5.1 C 0 km/h
1548 09-04-2017 04:20:00 5.1 C 6.36 g/m*3 5.1 C 0 km/h
1549 09-04-2017 04:25:00 5 C 6.32 g/m*3 5 C 0 km/h
1550 09-04-2017 04:30:00 4.9 C 6.28 g/m*3 4.9 C 0 km/h
Sensor: Nr:Datum:Temp:Abs-Feuchte:Windchill:Wind:
Aussen-T/F 1551 09-04-2017 04:35:00 4.9 C 6.28 g/m*3 4.9 C 0 km/h
1552 09-04-2017 04:40:00 4.9 C 6.28 g/m*3 4.9 C 0 km/h
1553 09-04-2017 04:45:00 4.8 C 6.24 g/m*3 4.8 C 0 km/h
1554 09-04-2017 04:50:00 4.8 C 6.24 g/m*3 4.8 C 0 km/h
1555 09-04-2017 04:55:00 4.7 C 6.19 g/m*3 4.7 C 0 km/h
1556 09-04-2017 05:00:00 4.7 C 6.19 g/m*3 4.7 C 0 km/h
1557 09-04-2017 05:05:00 4.6 C 6.15 g/m*3 4.6 C 0 km/h
1558 09-04-2017 05:10:00 4.4 C 6.07 g/m*3 4.4 C 0 km/h
1559 09-04-2017 05:15:00 4.3 C 6.03 g/m*3 4.3 C 0 km/h
1560 09-04-2017 05:20:00 4.2 C 5.99 g/m*3 4.2 C 0 km/h
1561 09-04-2017 05:25:00 4.2 C 5.99 g/m*3 4.2 C 0 km/h
1562 09-04-2017 05:30:00 4.2 C 5.99 g/m*3 4.2 C 0 km/h
1563 09-04-2017 05:35:00 4.2 C 5.99 g/m*3 4.2 C 0 km/h
1564 09-04-2017 05:40:00 4.2 C 6.06 g/m*3 4.2 C 0 km/h
1565 09-04-2017 05:45:00 4.2 C 6.06 g/m*3 4.2 C 0 km/h
1566 09-04-2017 05:50:00 4.1 C 6.02 g/m*3 4.1 C 0 km/h
1567 09-04-2017 05:55:00 4.1 C 6.02 g/m*3 4.1 C 0 km/h
1568 09-04-2017 06:00:00 4.1 C 6.02 g/m*3 4.1 C 0 km/h
1569 09-04-2017 06:05:00 4.1 C 6.02 g/m*3 4.1 C 0 km/h
1570 09-04-2017 06:10:00 3.9 C 5.94 g/m*3 3.9 C 0 km/h
1571 09-04-2017 06:15:00 3.9 C 5.94 g/m*3 3.9 C 0 km/h
1572 09-04-2017 06:20:00 3.9 C 5.94 g/m*3 3.9 C 0 km/h
1573 09-04-2017 06:25:00 3.8 C 5.9 g/m*3 3.8 C 0 km/h
1574 09-04-2017 06:30:00 3.8 C 5.9 g/m*3 3.8 C 0 km/h
1575 09-04-2017 06:35:00 3.6 C 5.82 g/m*3 3.6 C 0 km/h
Sensor: Nr:Datum:Temp:Abs-Feuchte:Windchill:Wind:
Aussen-T/F 1576 09-04-2017 06:40:00 3.6 C 5.82 g/m*3 3.6 C 0 km/h
1577 09-04-2017 06:45:00 3.6 C 5.82 g/m*3 3.6 C 0 km/h
1578 09-04-2017 06:50:00 3.6 C 5.82 g/m*3 3.6 C 0 km/h
1579 09-04-2017 06:55:00 3.6 C 5.82 g/m*3 3.6 C 0 km/h
1580 09-04-2017 07:00:00 3.6 C 5.82 g/m*3 3.6 C 0 km/h
1581 09-04-2017 07:05:00 3.5 C 5.78 g/m*3 3.5 C 0 km/h
1582 09-04-2017 07:10:00 3.5 C 5.78 g/m*3 3.5 C 0 km/h
1583 09-04-2017 07:15:00 3.4 C 5.74 g/m*3 3.4 C 0 km/h
1584 09-04-2017 07:20:00 3.4 C 5.74 g/m*3 3.4 C 0 km/h
1585 09-04-2017 07:25:00 3.4 C 5.74 g/m*3 3.4 C 0 km/h
1586 09-04-2017 07:30:00 3.4 C 5.74 g/m*3 3.4 C 0 km/h
1587 09-04-2017 07:35:00 3.4 C 5.74 g/m*3 3.4 C 0 km/h
1588 09-04-2017 07:40:00 3.5 C 5.84 g/m*3 3.5 C 0 km/h
1589 09-04-2017 07:45:00 3.7 C 5.92 g/m*3 3.7 C 0 km/h
1590 09-04-2017 07:50:00 3.9 C 6 g/m*3 3.9 C 0 km/h
1591 09-04-2017 07:55:00 3.9 C 6 g/m*3 3.9 C 0 km/h
1592 09-04-2017 08:00:00 3.9 C 6 g/m*3 3.9 C 0 km/h
1593 09-04-2017 08:05:00 3.9 C 6 g/m*3 3.9 C 0 km/h
1594 09-04-2017 08:10:00 4 C 6.04 g/m*3 4 C 0 km/h
1595 09-04-2017 08:15:00 4.1 C 6.08 g/m*3 4.1 C 0 km/h
1596 09-04-2017 08:20:00 4.1 C 6.08 g/m*3 4.1 C 0 km/h
1597 09-04-2017 08:25:00 4.2 C 6.12 g/m*3 4.2 C 0 km/h
1598 09-04-2017 08:30:00 4.3 C 6.16 g/m*3 4.3 C 0 km/h
1599 09-04-2017 08:35:00 4.4 C 6.2 g/m*3 4.4 C 0 km/h
1600 09-04-2017 08:40:00 4.5 C 6.24 g/m*3 4.5 C 0 km/h
Sensor: Nr:Datum:Temp:Abs-Feuchte:Windchill:Wind:
Aussen-T/F 1601 09-04-2017 08:45:00 4.6 C 6.29 g/m*3 4.6 C 0 km/h
1602 09-04-2017 08:50:00 4.7 C 6.33 g/m*3 4.7 C 0 km/h
1603 09-04-2017 08:55:00 4.7 C 6.33 g/m*3 4.7 C 0 km/h
1604 09-04-2017 09:00:00 4.9 C 6.48 g/m*3 4.9 C 0 km/h
1605 09-04-2017 09:05:00 5 C 6.52 g/m*3 5 C 0 km/h
1606 09-04-2017 09:10:00 5.1 C 6.57 g/m*3 5.1 C 0 km/h
1607 09-04-2017 09:15:00 5.2 C 6.61 g/m*3 5.2 C 0 km/h
1608 09-04-2017 09:20:00 5.3 C 6.65 g/m*3 5.3 C 0 km/h
1609 09-04-2017 09:25:00 5.5 C 6.74 g/m*3 5.5 C 0 km/h
1610 09-04-2017 09:30:00 5.6 C 6.79 g/m*3 5.6 C 0 km/h
1611 09-04-2017 09:35:00 5.8 C 6.88 g/m*3 5.8 C 0 km/h
1612 09-04-2017 09:40:00 5.9 C 6.92 g/m*3 5.9 C 0 km/h
1613 09-04-2017 09:45:00 6.1 C 7.01 g/m*3 6.1 C 0 km/h
1614 09-04-2017 09:50:00 6.2 C 7.06 g/m*3 6.2 C 0 km/h
1615 09-04-2017 09:55:00 6.4 C 7.15 g/m*3 6.4 C 0 km/h
1616 09-04-2017 10:00:00 6.6 C 7.25 g/m*3 6.6 C 0 km/h
1617 09-04-2017 10:05:00 6.7 C 7.29 g/m*3 6.7 C 0 km/h
1618 09-04-2017 10:10:00 6.9 C 7.39 g/m*3 6.9 C 0 km/h
1619 09-04-2017 10:15:00 7.1 C 7.49 g/m*3 7.1 C 0 km/h
1620 09-04-2017 10:20:00 7.3 C 7.58 g/m*3 7.3 C 0 km/h
1621 09-04-2017 10:25:00 7.6 C 7.73 g/m*3 7.6 C 0 km/h
1622 09-04-2017 10:30:00 7.8 C 7.83 g/m*3 7.8 C 0 km/h
1623 09-04-2017 10:35:00 8 C 7.94 g/m*3 8 C 0 km/h
1624 09-04-2017 10:40:00 8.3 C 8.09 g/m*3 8.3 C 0 km/h
1625 09-04-2017 10:45:00 8.5 C 8.2 g/m*3 8.5 C 0 km/h
Sensor: Nr:Datum:Temp:Abs-Feuchte:Windchill:Wind:
Aussen-T/F 1626 09-04-2017 10:50:00 8.8 C 8.27 g/m*3 8.8 C 0 km/h
1627 09-04-2017 10:55:00 9.1 C 8.43 g/m*3 9.1 C 0 km/h
1628 09-04-2017 11:00:00 9.4 C 8.5 g/m*3 9.4 C 0 km/h
1629 09-04-2017 11:05:00 9.8 C 8.63 g/m*3 9.8 C 0 km/h
1630 09-04-2017 11:10:00 10.2 C 8.76 g/m*3 10.2 C 0 km/h
1631 09-04-2017 11:15:00 10.5 C 8.83 g/m*3 10.5 C 0 km/h
1632 09-04-2017 11:20:00 10.9 C 8.95 g/m*3 10.9 C 0 km/h
1633 09-04-2017 11:25:00 11.2 C 8.92 g/m*3 11.2 C 0 km/h
1634 09-04-2017 11:30:00 11.6 C 8.83 g/m*3 11.6 C 0 km/h
1635 09-04-2017 11:35:00 12 C 9.06 g/m*3 12 C 0 km/h
1636 09-04-2017 11:40:00 12.3 C 8.9 g/m*3 12.3 C 0 km/h
1637 09-04-2017 11:45:00 12.7 C 8.91 g/m*3 12.7 C 0 km/h
1638 09-04-2017 11:50:00 13.1 C 9.24 g/m*3 13.1 C 0 km/h
1639 09-04-2017 11:55:00 13.4 C 8.95 g/m*3 13.4 C 0 km/h
1640 09-04-2017 12:00:00 13.7 C 9.24 g/m*3 13.7 C 0 km/h
1641 09-04-2017 12:05:00 14 C 9.29 g/m*3 14 C 0 km/h
1642 09-04-2017 12:10:00 14.3 C 9.34 g/m*3 14.3 C 0 km/h
1643 09-04-2017 12:15:00 14.6 C 9.51 g/m*3 14.6 C 0 km/h
1644 09-04-2017 12:20:00 14.9 C 8.92 g/m*3 14.9 C 0 km/h
1645 09-04-2017 12:25:00 15.3 C 9.27 g/m*3 15.3 C 0 km/h
1646 09-04-2017 12:30:00 15.6 C 9.04 g/m*3 15.6 C 4.8 km/h
1647 09-04-2017 12:35:00 16.1 C 9.18 g/m*3 16.1 C 4.8 km/h
1648 09-04-2017 12:40:00 16.3 C 8.88 g/m*3 16.3 C 8.1 km/h
1649 09-04-2017 12:45:00 16.7 C 8.95 g/m*3 16.7 C 8.1 km/h
1650 09-04-2017 12:50:00 16.9 C 8.92 g/m*3 16.9 C 4.8 km/h
Sensor: Nr:Datum:Temp:Abs-Feuchte:Windchill:Wind:
Aussen-T/F 1651 09-04-2017 12:55:00 17.1 C 8.59 g/m*3 17.1 C 3.2 km/h
1652 09-04-2017 13:00:00 17.4 C 8.6 g/m*3 17.4 C 6.4 km/h
1653 09-04-2017 13:05:00 17.6 C 8.55 g/m*3 17.6 C 6.4 km/h
1654 09-04-2017 13:10:00 17.8 C 8.65 g/m*3 17.8 C 6.4 km/h
1655 09-04-2017 13:15:00 17.9 C 8.55 g/m*3 17.9 C 8.1 km/h
1656 09-04-2017 13:20:00 17.9 C 8.7 g/m*3 17.9 C 4.8 km/h
1657 09-04-2017 13:25:00 18.1 C 8.65 g/m*3 18.1 C 8.1 km/h
1658 09-04-2017 13:30:00 18.3 C 8.76 g/m*3 18.3 C 6.4 km/h
1659 09-04-2017 13:35:00 18.4 C 8.65 g/m*3 18.4 C 8.1 km/h
1660 09-04-2017 13:40:00 18.6 C 8.59 g/m*3 18.6 C 4.8 km/h
1661 09-04-2017 13:45:00 18.6 C 8.59 g/m*3 18.6 C 3.2 km/h
1662 09-04-2017 13:50:00 18.7 C 8.65 g/m*3 18.7 C 3.2 km/h
1663 09-04-2017 13:55:00 18.9 C 8.42 g/m*3 18.9 C 3.2 km/h
1664 09-04-2017 14:00:00 19.1 C 8.52 g/m*3 19.1 C 8.1 km/h
1665 09-04-2017 14:05:00 19.3 C 8.63 g/m*3 19.3 C 4.8 km/h
1666 09-04-2017 14:10:00 19.5 C 8.56 g/m*3 19.5 C 11.3 km/h
1667 09-04-2017 14:15:00 19.7 C 8.49 g/m*3 19.7 C 8.1 km/h
1668 09-04-2017 14:20:00 19.8 C 8.54 g/m*3 19.8 C 9.7 km/h
1669 09-04-2017 14:25:00 19.8 C 8.54 g/m*3 19.8 C 4.8 km/h
1670 09-04-2017 14:30:00 19.9 C 8.25 g/m*3 19.9 C 4.8 km/h
1671 09-04-2017 14:35:00 20 C 8.47 g/m*3 20 C 6.4 km/h
1672 09-04-2017 14:40:00 20.1 C 8.17 g/m*3 20.1 C 6.4 km/h
1673 09-04-2017 14:45:00 20.3 C 8.27 g/m*3 20.3 C 4.8 km/h
1674 09-04-2017 14:50:00 20.3 C 8.27 g/m*3 20.3 C 6.4 km/h
1675 09-04-2017 14:55:00 20.4 C 8.14 g/m*3 20.4 C 6.4 km/h
Sensor: Nr:Datum:Temp:Abs-Feuchte:Windchill:Wind:
Aussen-T/F 1676 09-04-2017 15:00:00 20.6 C 8.23 g/m*3 20.6 C 8.1 km/h
1677 09-04-2017 15:05:00 20.8 C 8.33 g/m*3 20.8 C 9.7 km/h
1678 09-04-2017 15:10:00 21 C 8.43 g/m*3 21 C 11.3 km/h
1679 09-04-2017 15:15:00 21.1 C 8.29 g/m*3 21.1 C 6.4 km/h
1680 09-04-2017 15:20:00 21.2 C 8.15 g/m*3 21.2 C 4.8 km/h
1681 09-04-2017 15:25:00 21.3 C 8.02 g/m*3 21.3 C 4.8 km/h
1682 09-04-2017 15:30:00 21.3 C 8.2 g/m*3 21.3 C 8.1 km/h
1683 09-04-2017 15:35:00 21.5 C 8.11 g/m*3 21.5 C 9.7 km/h
1684 09-04-2017 15:40:00 21.6 C 8.16 g/m*3 21.6 C 6.4 km/h
1685 09-04-2017 15:45:00 21.6 C 8.16 g/m*3 21.6 C 6.4 km/h
1686 09-04-2017 15:50:00 21.7 C 8.2 g/m*3 21.7 C 6.4 km/h
1687 09-04-2017 15:55:00 21.8 C 8.25 g/m*3 21.8 C 3.2 km/h
1688 09-04-2017 16:00:00 22 C 8.15 g/m*3 22 C 4.8 km/h
1689 09-04-2017 16:05:00 22.2 C 8.25 g/m*3 22.2 C 8.1 km/h
1690 09-04-2017 16:10:00 22.3 C 8.29 g/m*3 22.3 C 1.6 km/h
1691 09-04-2017 16:15:00 22.4 C 8.14 g/m*3 22.4 C 3.2 km/h
1692 09-04-2017 16:20:00 22.5 C 8.19 g/m*3 22.5 C 9.7 km/h
1693 09-04-2017 16:25:00 22.7 C 8.08 g/m*3 22.7 C 8.1 km/h
1694 09-04-2017 16:30:00 22.8 C 7.92 g/m*3 22.8 C 8.1 km/h
1695 09-04-2017 16:35:00 22.9 C 7.97 g/m*3 22.9 C 3.2 km/h
1696 09-04-2017 16:40:00 23.3 C 8.36 g/m*3 23.3 C 3.2 km/h
1697 09-04-2017 16:45:00 23.8 C 7.96 g/m*3 23.8 C 4.8 km/h
1698 09-04-2017 16:50:00 24.1 C 7.88 g/m*3 24.1 C 6.4 km/h
1699 09-04-2017 16:55:00 24.2 C 8.14 g/m*3 24.2 C 4.8 km/h
1700 09-04-2017 17:00:00 24.2 C 7.92 g/m*3 24.2 C 4.8 km/h
Sensor: Nr:Datum:Temp:Abs-Feuchte:Windchill:Wind:
Aussen-T/F 1701 09-04-2017 17:05:00 24.3 C 7.97 g/m*3 24.3 C 6.4 km/h
1702 09-04-2017 17:10:00 24.1 C 8.1 g/m*3 24.1 C 11.3 km/h
1703 09-04-2017 17:15:00 24.2 C 7.92 g/m*3 24.2 C 6.4 km/h
1704 09-04-2017 17:20:00 24.2 C 7.92 g/m*3 24.2 C 4.8 km/h
1705 09-04-2017 17:25:00 24.3 C 7.75 g/m*3 24.3 C 6.4 km/h
1706 09-04-2017 17:30:00 24.2 C 7.7 g/m*3 24.2 C 8.1 km/h
1707 09-04-2017 17:35:00 24.4 C 8.23 g/m*3 24.4 C 1.6 km/h
1708 09-04-2017 17:40:00 24.7 C 7.7 g/m*3 24.7 C 4.8 km/h
1709 09-04-2017 17:45:00 24.6 C 7.88 g/m*3 24.6 C 4.8 km/h
1710 09-04-2017 17:50:00 24.7 C 7.92 g/m*3 24.7 C 6.4 km/h
1711 09-04-2017 17:55:00 25 C 7.83 g/m*3 25 C 1.6 km/h
1712 09-04-2017 18:00:00 25.2 C 8.15 g/m*3 25.2 C 3.2 km/h
1713 09-04-2017 18:05:00 25.3 C 7.73 g/m*3 25.3 C 4.8 km/h
1714 09-04-2017 18:10:00 25.2 C 7.92 g/m*3 25.2 C 4.8 km/h
1715 09-04-2017 18:15:00 25.3 C 7.73 g/m*3 25.3 C 3.2 km/h
1716 09-04-2017 18:20:00 25.3 C 7.73 g/m*3 25.3 C 3.2 km/h
1717 09-04-2017 18:25:00 25.3 C 7.73 g/m*3 25.3 C 3.2 km/h
1718 09-04-2017 18:30:00 25.2 C 7.68 g/m*3 25.2 C 4.8 km/h
1719 09-04-2017 18:35:00 24.9 C 7.55 g/m*3 24.9 C 4.8 km/h
1720 09-04-2017 18:40:00 24.8 C 8.19 g/m*3 24.8 C 3.2 km/h
1721 09-04-2017 18:45:00 25.1 C 8.8 g/m*3 25.1 C 1.6 km/h
1722 09-04-2017 18:50:00 25.2 C 8.61 g/m*3 25.2 C 1.6 km/h
1723 09-04-2017 18:55:00 25.2 C 9.31 g/m*3 25.2 C 3.2 km/h
1724 09-04-2017 19:00:00 25.1 C 9.03 g/m*3 25.1 C 0 km/h
1725 09-04-2017 19:05:00 24.8 C 9.1 g/m*3 24.8 C 0 km/h
Sensor: Nr:Datum:Temp:Abs-Feuchte:Windchill:Wind:
Aussen-T/F 1726 09-04-2017 19:10:00 24.6 C 9.23 g/m*3 24.6 C 0 km/h
1727 09-04-2017 19:15:00 24.2 C 9.02 g/m*3 24.2 C 0 km/h
1728 09-04-2017 19:20:00 23.4 C 8.83 g/m*3 23.4 C 1.6 km/h
1729 09-04-2017 19:25:00 22.6 C 8.84 g/m*3 22.6 C 1.6 km/h
1730 09-04-2017 19:30:00 21.8 C 9.02 g/m*3 21.8 C 3.2 km/h
1731 09-04-2017 19:35:00 21.1 C 8.84 g/m*3 21.1 C 4.8 km/h
1732 09-04-2017 19:40:00 20.5 C 8.54 g/m*3 20.5 C 4.8 km/h
1733 09-04-2017 19:45:00 20.1 C 8.52 g/m*3 20.1 C 4.8 km/h
1734 09-04-2017 19:50:00 19.7 C 8.49 g/m*3 19.7 C 4.8 km/h
1735 09-04-2017 19:55:00 19.4 C 8.34 g/m*3 19.4 C 4.8 km/h
1736 09-04-2017 20:00:00 19.1 C 8.2 g/m*3 19.1 C 4.8 km/h
1737 09-04-2017 20:05:00 18.7 C 8.17 g/m*3 18.7 C 6.4 km/h
1738 09-04-2017 20:10:00 18.4 C 8.02 g/m*3 18.4 C 6.4 km/h
1739 09-04-2017 20:15:00 18.2 C 7.93 g/m*3 18.2 C 6.4 km/h
1740 09-04-2017 20:20:00 18 C 7.99 g/m*3 18 C 6.4 km/h
1741 09-04-2017 20:25:00 17.8 C 8.04 g/m*3 17.8 C 6.4 km/h
1742 09-04-2017 20:30:00 17.6 C 8.1 g/m*3 17.6 C 6.4 km/h
1743 09-04-2017 20:35:00 17.3 C 8.1 g/m*3 17.3 C 4.8 km/h
1744 09-04-2017 20:40:00 17.1 C 8.15 g/m*3 17.1 C 6.4 km/h
1745 09-04-2017 20:45:00 16.8 C 8.15 g/m*3 16.8 C 4.8 km/h
1746 09-04-2017 20:50:00 16.7 C 8.24 g/m*3 16.7 C 4.8 km/h
1747 09-04-2017 20:55:00 16.6 C 8.33 g/m*3 16.6 C 4.8 km/h
1748 09-04-2017 21:00:00 16.3 C 8.32 g/m*3 16.3 C 4.8 km/h
1749 09-04-2017 21:05:00 16.1 C 8.36 g/m*3 16.1 C 3.2 km/h
1750 09-04-2017 21:10:00 15.8 C 8.35 g/m*3 15.8 C 4.8 km/h
Sensor: Nr:Datum:Temp:Abs-Feuchte:Windchill:Wind:
Aussen-T/F 1751 09-04-2017 21:15:00 15.6 C 8.38 g/m*3 15.6 C 3.2 km/h
1752 09-04-2017 21:20:00 15.4 C 8.28 g/m*3 15.4 C 1.6 km/h
1753 09-04-2017 21:25:00 15.2 C 8.31 g/m*3 15.2 C 3.2 km/h
1754 09-04-2017 21:30:00 15.1 C 8.39 g/m*3 15.1 C 3.2 km/h
1755 09-04-2017 21:35:00 14.9 C 8.41 g/m*3 14.9 C 3.2 km/h
1756 09-04-2017 21:40:00 14.8 C 8.36 g/m*3 14.8 C 3.2 km/h
1757 09-04-2017 21:45:00 14.7 C 8.44 g/m*3 14.7 C 1.6 km/h
1758 09-04-2017 21:50:00 14.6 C 8.38 g/m*3 14.6 C 3.2 km/h
1759 09-04-2017 21:55:00 14.3 C 8.35 g/m*3 14.3 C 0 km/h
1760 09-04-2017 22:00:00 14.1 C 8.37 g/m*3 14.1 C 0 km/h
1761 09-04-2017 22:05:00 13.8 C 8.34 g/m*3 13.8 C 0 km/h
1762 09-04-2017 22:10:00 13.4 C 8.25 g/m*3 13.4 C 0 km/h
1763 09-04-2017 22:15:00 13.2 C 8.27 g/m*3 13.2 C 4.8 km/h
1764 09-04-2017 22:20:00 13.1 C 8.22 g/m*3 13.1 C 3.2 km/h
1765 09-04-2017 22:25:00 13.1 C 8.33 g/m*3 13.1 C 0 km/h
1766 09-04-2017 22:30:00 13.1 C 8.33 g/m*3 13.1 C 1.6 km/h
1767 09-04-2017 22:35:00 13.2 C 8.27 g/m*3 13.2 C 3.2 km/h
1768 09-04-2017 22:40:00 13.1 C 8.33 g/m*3 13.1 C 0 km/h
1769 09-04-2017 22:45:00 12.9 C 8.23 g/m*3 12.9 C 0 km/h
1770 09-04-2017 22:50:00 12.7 C 8.24 g/m*3 12.7 C 0 km/h
1771 09-04-2017 22:55:00 12.6 C 8.19 g/m*3 12.6 C 0 km/h
1772 09-04-2017 23:00:00 12.4 C 8.09 g/m*3 12.4 C 0 km/h
1773 09-04-2017 23:05:00 12.3 C 8.14 g/m*3 12.3 C 0 km/h
1774 09-04-2017 23:10:00 12.1 C 8.04 g/m*3 12.1 C 0 km/h
1775 09-04-2017 23:15:00 12.1 C 8.04 g/m*3 12.1 C 0 km/h
Sensor: Nr:Datum:Temp:Abs-Feuchte:Windchill:Wind:
Aussen-T/F 1776 09-04-2017 23:20:00 11.9 C 7.94 g/m*3 11.9 C 0 km/h
1777 09-04-2017 23:25:00 11.8 C 7.89 g/m*3 11.8 C 0 km/h
1778 09-04-2017 23:30:00 11.6 C 7.9 g/m*3 11.6 C 0 km/h
1779 09-04-2017 23:35:00 11.4 C 7.8 g/m*3 11.4 C 0 km/h
1780 09-04-2017 23:40:00 11.3 C 7.85 g/m*3 11.3 C 0 km/h
1781 09-04-2017 23:45:00 11.2 C 7.8 g/m*3 11.2 C 0 km/h
1782 09-04-2017 23:50:00 11 C 7.71 g/m*3 11 C 0 km/h
1783 09-04-2017 23:55:00 10.8 C 7.71 g/m*3 10.8 C 0 km/h
1784 10-04-2017 00:00:00 10.6 C 7.71 g/m*3 10.6 C 0 km/h
1785 10-04-2017 00:05:00 10.6 C 7.71 g/m*3 10.6 C 0 km/h
1786 10-04-2017 00:10:00 10.5 C 7.66 g/m*3 10.5 C 0 km/h
1787 10-04-2017 00:15:00 10.4 C 7.61 g/m*3 10.4 C 0 km/h
1788 10-04-2017 00:20:00 10.4 C 7.61 g/m*3 10.4 C 0 km/h
1789 10-04-2017 00:25:00 10.4 C 7.71 g/m*3 10.4 C 1.6 km/h
1790 10-04-2017 00:30:00 10.5 C 7.76 g/m*3 10.5 C 3.2 km/h
1791 10-04-2017 00:35:00 10.7 C 7.76 g/m*3 10.7 C 3.2 km/h
1792 10-04-2017 00:40:00 10.7 C 7.76 g/m*3 10.7 C 0 km/h
1793 10-04-2017 00:45:00 10.7 C 7.66 g/m*3 10.7 C 0 km/h
1794 10-04-2017 00:50:00 10.4 C 7.52 g/m*3 10.4 C 0 km/h
1795 10-04-2017 00:55:00 10.1 C 7.56 g/m*3 10.1 C 0 km/h
1796 10-04-2017 01:00:00 9.9 C 7.47 g/m*3 9.9 C 0 km/h
1797 10-04-2017 01:05:00 9.7 C 7.47 g/m*3 9.7 C 0 km/h
1798 10-04-2017 01:10:00 9.6 C 7.42 g/m*3 9.6 C 0 km/h
1799 10-04-2017 01:15:00 9.4 C 7.42 g/m*3 9.4 C 0 km/h
1800 10-04-2017 01:20:00 9.2 C 7.32 g/m*3 9.2 C 0 km/h
Sensor: Nr:Datum:Temp:Abs-Feuchte:Windchill:Wind:
Aussen-T/F 1801 10-04-2017 01:25:00 9.1 C 7.36 g/m*3 9.1 C 0 km/h
1802 10-04-2017 01:30:00 9.1 C 7.45 g/m*3 9.1 C 0 km/h
1803 10-04-2017 01:35:00 9.1 C 7.45 g/m*3 9.1 C 0 km/h
1804 10-04-2017 01:40:00 9.2 C 7.5 g/m*3 9.2 C 0 km/h
1805 10-04-2017 01:45:00 9.1 C 7.36 g/m*3 9.1 C 0 km/h
1806 10-04-2017 01:50:00 8.9 C 7.36 g/m*3 8.9 C 0 km/h
1807 10-04-2017 01:55:00 8.8 C 7.31 g/m*3 8.8 C 0 km/h
1808 10-04-2017 02:00:00 8.8 C 7.4 g/m*3 8.8 C 0 km/h
1809 10-04-2017 02:05:00 8.7 C 7.35 g/m*3 8.7 C 0 km/h
1810 10-04-2017 02:10:00 8.7 C 7.35 g/m*3 8.7 C 0 km/h
1811 10-04-2017 02:15:00 8.6 C 7.3 g/m*3 8.6 C 0 km/h
1812 10-04-2017 02:20:00 8.4 C 7.21 g/m*3 8.4 C 0 km/h
1813 10-04-2017 02:25:00 8.3 C 7.25 g/m*3 8.3 C 0 km/h
1814 10-04-2017 02:30:00 8.2 C 7.2 g/m*3 8.2 C 0 km/h
1815 10-04-2017 02:35:00 8.1 C 7.16 g/m*3 8.1 C 0 km/h
1816 10-04-2017 02:40:00 7.9 C 7.15 g/m*3 7.9 C 0 km/h
1817 10-04-2017 02:45:00 7.9 C 7.15 g/m*3 7.9 C 0 km/h
1818 10-04-2017 02:50:00 7.8 C 7.1 g/m*3 7.8 C 0 km/h
1819 10-04-2017 02:55:00 7.8 C 7.18 g/m*3 7.8 C 0 km/h
1820 10-04-2017 03:00:00 7.7 C 7.14 g/m*3 7.7 C 0 km/h
1821 10-04-2017 03:05:00 7.7 C 7.14 g/m*3 7.7 C 0 km/h
1822 10-04-2017 03:10:00 7.7 C 7.22 g/m*3 7.7 C 0 km/h
1823 10-04-2017 03:15:00 7.8 C 7.26 g/m*3 7.8 C 0 km/h
1824 10-04-2017 03:20:00 7.9 C 7.23 g/m*3 7.9 C 1.6 km/h
1825 10-04-2017 03:25:00 7.8 C 7.18 g/m*3 7.8 C 0 km/h
Sensor: Nr:Datum:Temp:Abs-Feuchte:Windchill:Wind:
Aussen-T/F 1826 10-04-2017 03:30:00 7.8 C 7.18 g/m*3 7.8 C 0 km/h
1827 10-04-2017 03:35:00 7.8 C 7.18 g/m*3 7.8 C 1.6 km/h
1828 10-04-2017 03:40:00 7.8 C 7.26 g/m*3 7.8 C 1.6 km/h
1829 10-04-2017 03:45:00 7.8 C 7.26 g/m*3 7.8 C 1.6 km/h
1830 10-04-2017 03:50:00 7.7 C 7.14 g/m*3 7.7 C 1.6 km/h
1831 10-04-2017 03:55:00 7.7 C 7.14 g/m*3 7.7 C 0 km/h
1832 10-04-2017 04:00:00 7.5 C 7.04 g/m*3 7.5 C 0 km/h
1833 10-04-2017 04:05:00 7.3 C 6.95 g/m*3 7.3 C 0 km/h
1834 10-04-2017 04:10:00 7.2 C 6.99 g/m*3 7.2 C 0 km/h
1835 10-04-2017 04:15:00 7.2 C 6.99 g/m*3 7.2 C 1.6 km/h
1836 10-04-2017 04:20:00 7.3 C 7.11 g/m*3 7.3 C 3.2 km/h
1837 10-04-2017 04:25:00 7.4 C 7.16 g/m*3 7.4 C 0 km/h
1838 10-04-2017 04:30:00 7.3 C 7.03 g/m*3 7.3 C 0 km/h
1839 10-04-2017 04:35:00 7.2 C 6.99 g/m*3 7.2 C 0 km/h
1840 10-04-2017 04:40:00 7 C 6.9 g/m*3 7 C 1.6 km/h
1841 10-04-2017 04:45:00 6.9 C 6.85 g/m*3 6.9 C 1.6 km/h
1842 10-04-2017 04:50:00 6.8 C 6.88 g/m*3 6.8 C 0 km/h
1843 10-04-2017 04:55:00 6.8 C 6.88 g/m*3 6.8 C 0 km/h
1844 10-04-2017 05:00:00 6.9 C 7.01 g/m*3 6.9 C 1.6 km/h
1845 10-04-2017 05:05:00 7.1 C 7.1 g/m*3 7.1 C 1.6 km/h
1846 10-04-2017 05:10:00 7.1 C 7.02 g/m*3 7.1 C 3.2 km/h
1847 10-04-2017 05:15:00 7 C 6.97 g/m*3 7 C 0 km/h
1848 10-04-2017 05:20:00 7.1 C 7.02 g/m*3 7.1 C 0 km/h
1849 10-04-2017 05:25:00 7.1 C 7.02 g/m*3 7.1 C 0 km/h
1850 10-04-2017 05:30:00 7.1 C 7.02 g/m*3 7.1 C 0 km/h
Sensor: Nr:Datum:Temp:Abs-Feuchte:Windchill:Wind:
Aussen-T/F 1851 10-04-2017 05:35:00 7.1 C 7.02 g/m*3 7.1 C 0 km/h
1852 10-04-2017 05:40:00 7.2 C 7.06 g/m*3 7.2 C 3.2 km/h
1853 10-04-2017 05:45:00 7.3 C 7.11 g/m*3 7.3 C 3.2 km/h
1854 10-04-2017 05:50:00 7.5 C 7.12 g/m*3 7.5 C 1.6 km/h
1855 10-04-2017 05:55:00 7.6 C 7.17 g/m*3 7.6 C 3.2 km/h
1856 10-04-2017 06:00:00 7.6 C 7.01 g/m*3 7.6 C 0 km/h
1857 10-04-2017 06:05:00 7.3 C 6.79 g/m*3 7.3 C 0 km/h
1858 10-04-2017 06:10:00 7.2 C 6.91 g/m*3 7.2 C 4.8 km/h
1859 10-04-2017 06:15:00 6.9 C 6.77 g/m*3 6.9 C 1.6 km/h
1860 10-04-2017 06:20:00 6.8 C 6.81 g/m*3 6.8 C 1.6 km/h
1861 10-04-2017 06:25:00 6.8 C 6.81 g/m*3 6.8 C 3.2 km/h
1862 10-04-2017 06:30:00 6.7 C 6.76 g/m*3 6.7 C 0 km/h
1863 10-04-2017 06:35:00 6.6 C 6.72 g/m*3 6.6 C 0 km/h
1864 10-04-2017 06:40:00 6.4 C 6.71 g/m*3 6.4 C 4.8 km/h
1865 10-04-2017 06:45:00 6.5 C 6.82 g/m*3 6.5 C 3.2 km/h
1866 10-04-2017 06:50:00 6.6 C 6.87 g/m*3 6.6 C 1.6 km/h
1867 10-04-2017 06:55:00 6.5 C 6.82 g/m*3 6.5 C 1.6 km/h
1868 10-04-2017 07:00:00 6.3 C 6.66 g/m*3 6.3 C 0 km/h
1869 10-04-2017 07:05:00 6.3 C 6.74 g/m*3 6.3 C 0 km/h
1870 10-04-2017 07:10:00 6.2 C 6.69 g/m*3 6.2 C 0 km/h
1871 10-04-2017 07:15:00 6.2 C 6.69 g/m*3 6.2 C 0 km/h
1872 10-04-2017 07:20:00 6.2 C 6.77 g/m*3 6.2 C 0 km/h
1873 10-04-2017 07:25:00 6.2 C 6.77 g/m*3 6.2 C 0 km/h
1874 10-04-2017 07:30:00 6.2 C 6.77 g/m*3 6.2 C 0 km/h
1875 10-04-2017 07:35:00 6.3 C 6.81 g/m*3 6.3 C 0 km/h
Sensor: Nr:Datum:Temp:Abs-Feuchte:Windchill:Wind:
Aussen-T/F 1876 10-04-2017 07:40:00 6.3 C 6.81 g/m*3 6.3 C 0 km/h
1877 10-04-2017 07:45:00 6.3 C 6.81 g/m*3 6.3 C 0 km/h
1878 10-04-2017 07:50:00 6.3 C 6.81 g/m*3 6.3 C 0 km/h
1879 10-04-2017 07:55:00 6.4 C 6.85 g/m*3 6.4 C 0 km/h
1880 10-04-2017 08:00:00 6.6 C 6.95 g/m*3 6.6 C 1.6 km/h
1881 10-04-2017 08:05:00 6.7 C 6.99 g/m*3 6.7 C 0 km/h
1882 10-04-2017 08:10:00 6.7 C 6.99 g/m*3 6.7 C 0 km/h
1883 10-04-2017 08:15:00 6.9 C 7.08 g/m*3 6.9 C 0 km/h
1884 10-04-2017 08:20:00 7.1 C 7.18 g/m*3 7.1 C 0 km/h
1885 10-04-2017 08:25:00 7.2 C 7.22 g/m*3 7.2 C 0 km/h
1886 10-04-2017 08:30:00 7.3 C 7.27 g/m*3 7.3 C 0 km/h
1887 10-04-2017 08:35:00 7.4 C 7.24 g/m*3 7.4 C 1.6 km/h
1888 10-04-2017 08:40:00 7.6 C 7.33 g/m*3 7.6 C 0 km/h
1889 10-04-2017 08:45:00 7.7 C 7.38 g/m*3 7.7 C 0 km/h
1890 10-04-2017 08:50:00 7.9 C 7.56 g/m*3 7.9 C 0 km/h
1891 10-04-2017 08:55:00 8.1 C 7.66 g/m*3 8.1 C 0 km/h
1892 10-04-2017 09:00:00 8.3 C 7.67 g/m*3 8.3 C 0 km/h
1893 10-04-2017 09:05:00 8.6 C 7.82 g/m*3 8.6 C 0 km/h
1894 10-04-2017 09:10:00 8.9 C 7.97 g/m*3 8.9 C 0 km/h
1895 10-04-2017 09:15:00 9.2 C 8.04 g/m*3 9.2 C 0 km/h
1896 10-04-2017 09:20:00 9.4 C 8.14 g/m*3 9.4 C 0 km/h
1897 10-04-2017 09:25:00 9.6 C 8.15 g/m*3 9.6 C 0 km/h
1898 10-04-2017 09:30:00 9.9 C 8.4 g/m*3 9.9 C 0 km/h
1899 10-04-2017 09:35:00 10.2 C 8.56 g/m*3 10.2 C 0 km/h
1900 10-04-2017 09:40:00 10.5 C 8.44 g/m*3 10.5 C 1.6 km/h
Sensor: Nr:Datum:Temp:Abs-Feuchte:Windchill:Wind:
Aussen-T/F 1901 10-04-2017 09:45:00 10.8 C 8.3 g/m*3 10.8 C 3.2 km/h
1902 10-04-2017 09:50:00 11.1 C 8.46 g/m*3 11.1 C 1.6 km/h
1903 10-04-2017 09:55:00 11.3 C 8.57 g/m*3 11.3 C 3.2 km/h
1904 10-04-2017 10:00:00 11.5 C 8.57 g/m*3 11.5 C 4.8 km/h
1905 10-04-2017 10:05:00 11.7 C 8.58 g/m*3 11.7 C 3.2 km/h
1906 10-04-2017 10:10:00 11.9 C 8.68 g/m*3 11.9 C 3.2 km/h
1907 10-04-2017 10:15:00 12.2 C 8.63 g/m*3 12.2 C 1.6 km/h
1908 10-04-2017 10:20:00 12.6 C 8.52 g/m*3 12.6 C 8.1 km/h
1909 10-04-2017 10:25:00 12.9 C 8.45 g/m*3 12.9 C 9.7 km/h
1910 10-04-2017 10:30:00 13.2 C 8.61 g/m*3 13.2 C 3.2 km/h
1911 10-04-2017 10:35:00 13.4 C 8.6 g/m*3 13.4 C 11.3 km/h
1912 10-04-2017 10:40:00 13.8 C 8.7 g/m*3 13.8 C 6.4 km/h
1913 10-04-2017 10:45:00 13.9 C 8.63 g/m*3 13.9 C 19.3 km/h
1914 10-04-2017 10:50:00 14.1 C 8.74 g/m*3 14.1 C 9.7 km/h
1915 10-04-2017 10:55:00 14.2 C 8.79 g/m*3 14.2 C 16.1 km/h
1916 10-04-2017 11:00:00 14.4 C 8.78 g/m*3 14.4 C 12.9 km/h
1917 10-04-2017 11:05:00 14.4 C 8.78 g/m*3 14.4 C 14.5 km/h
1918 10-04-2017 11:10:00 14.5 C 8.95 g/m*3 14.5 C 12.9 km/h
1919 10-04-2017 11:15:00 14.4 C 8.9 g/m*3 14.4 C 16.1 km/h
1920 10-04-2017 11:20:00 14.4 C 8.9 g/m*3 14.4 C 16.1 km/h
1921 10-04-2017 11:25:00 14.4 C 9.02 g/m*3 14.4 C 16.1 km/h
1922 10-04-2017 11:30:00 14.4 C 8.9 g/m*3 14.4 C 16.1 km/h
1923 10-04-2017 11:35:00 14.4 C 8.9 g/m*3 14.4 C 19.3 km/h
1924 10-04-2017 11:40:00 14.5 C 9.08 g/m*3 14.5 C 12.9 km/h
1925 10-04-2017 11:45:00 14.6 C 9.01 g/m*3 14.6 C 16.1 km/h
Sensor: Nr:Datum:Temp:Abs-Feuchte:Windchill:Wind:
Aussen-T/F 1926 10-04-2017 11:50:00 14.5 C 8.95 g/m*3 14.5 C 14.5 km/h
1927 10-04-2017 11:55:00 14.6 C 9.01 g/m*3 14.6 C 14.5 km/h
1928 10-04-2017 12:00:00 14.7 C 8.81 g/m*3 14.7 C 19.3 km/h
1929 10-04-2017 12:05:00 14.6 C 8.88 g/m*3 14.6 C 20.9 km/h
1930 10-04-2017 12:10:00 14.7 C 8.94 g/m*3 14.7 C 11.3 km/h
1931 10-04-2017 12:15:00 14.8 C 8.87 g/m*3 14.8 C 16.1 km/h
1932 10-04-2017 12:20:00 14.8 C 8.74 g/m*3 14.8 C 14.5 km/h
1933 10-04-2017 12:25:00 14.8 C 8.74 g/m*3 14.8 C 12.9 km/h
1934 10-04-2017 12:30:00 14.7 C 8.69 g/m*3 14.7 C 16.1 km/h
1935 10-04-2017 12:35:00 14.8 C 8.74 g/m*3 14.8 C 16.1 km/h
1936 10-04-2017 12:40:00 14.7 C 8.69 g/m*3 14.7 C 16.1 km/h
1937 10-04-2017 12:45:00 14.8 C 8.74 g/m*3 14.8 C 14.5 km/h
1938 10-04-2017 12:50:00 14.8 C 8.74 g/m*3 14.8 C 17.7 km/h
1939 10-04-2017 12:55:00 14.8 C 8.74 g/m*3 14.8 C 14.5 km/h
1940 10-04-2017 13:00:00 14.8 C 8.74 g/m*3 14.8 C 17.7 km/h
1941 10-04-2017 13:05:00 14.8 C 8.87 g/m*3 14.8 C 12.9 km/h
1942 10-04-2017 13:10:00 14.7 C 8.69 g/m*3 14.7 C 19.3 km/h
1943 10-04-2017 13:15:00 14.7 C 8.69 g/m*3 14.7 C 16.1 km/h
1944 10-04-2017 13:20:00 14.6 C 8.76 g/m*3 14.6 C 19.3 km/h
1945 10-04-2017 13:25:00 14.5 C 8.71 g/m*3 14.5 C 12.9 km/h
1946 10-04-2017 13:30:00 14.4 C 8.65 g/m*3 14.4 C 11.3 km/h
1947 10-04-2017 13:35:00 14.5 C 8.83 g/m*3 14.5 C 16.1 km/h
1948 10-04-2017 13:40:00 14.3 C 8.48 g/m*3 14.3 C 19.3 km/h
1949 10-04-2017 13:45:00 14.2 C 8.55 g/m*3 14.2 C 11.3 km/h
1950 10-04-2017 13:50:00 14.2 C 8.67 g/m*3 14.2 C 11.3 km/h
Sensor: Nr:Datum:Temp:Abs-Feuchte:Windchill:Wind:
Aussen-T/F 1951 10-04-2017 13:55:00 14.2 C 8.67 g/m*3 14.2 C 11.3 km/h
1952 10-04-2017 14:00:00 14.2 C 8.55 g/m*3 14.2 C 12.9 km/h
1953 10-04-2017 14:05:00 14.1 C 8.5 g/m*3 14.1 C 14.5 km/h
1954 10-04-2017 14:10:00 14.2 C 8.43 g/m*3 14.2 C 12.9 km/h
1955 10-04-2017 14:15:00 14.3 C 8.6 g/m*3 14.3 C 11.3 km/h
1956 10-04-2017 14:20:00 14.3 C 8.23 g/m*3 14.3 C 17.7 km/h
1957 10-04-2017 14:25:00 14.3 C 7.86 g/m*3 14.3 C 11.3 km/h
1958 10-04-2017 14:30:00 14.4 C 8.03 g/m*3 14.4 C 12.9 km/h
1959 10-04-2017 14:35:00 14.4 C 8.03 g/m*3 14.4 C 9.7 km/h
1960 10-04-2017 14:40:00 14.4 C 8.03 g/m*3 14.4 C 12.9 km/h
1961 10-04-2017 14:45:00 14.4 C 7.91 g/m*3 14.4 C 24.1 km/h
1962 10-04-2017 14:50:00 14.3 C 8.11 g/m*3 14.3 C 24.1 km/h
1963 10-04-2017 14:55:00 14.3 C 8.11 g/m*3 14.3 C 14.5 km/h
1964 10-04-2017 15:00:00 14.5 C 8.21 g/m*3 14.5 C 12.9 km/h
1965 10-04-2017 15:05:00 14.7 C 8.06 g/m*3 14.7 C 11.3 km/h
1966 10-04-2017 15:10:00 14.8 C 7.98 g/m*3 14.8 C 9.7 km/h
1967 10-04-2017 15:15:00 14.9 C 7.9 g/m*3 14.9 C 14.5 km/h
1968 10-04-2017 15:20:00 15 C 7.95 g/m*3 15 C 16.1 km/h
1969 10-04-2017 15:25:00 14.9 C 7.9 g/m*3 14.9 C 16.1 km/h
1970 10-04-2017 15:30:00 15 C 7.95 g/m*3 15 C 12.9 km/h
1971 10-04-2017 15:35:00 15.1 C 8.26 g/m*3 15.1 C 14.5 km/h
1972 10-04-2017 15:40:00 15.1 C 8.26 g/m*3 15.1 C 19.3 km/h
1973 10-04-2017 15:45:00 14.9 C 8.03 g/m*3 14.9 C 17.7 km/h
1974 10-04-2017 15:50:00 14.7 C 8.06 g/m*3 14.7 C 17.7 km/h
1975 10-04-2017 15:55:00 14.4 C 7.91 g/m*3 14.4 C 20.9 km/h
Sensor: Nr:Datum:Temp:Abs-Feuchte:Windchill:Wind:
Aussen-T/F 1976 10-04-2017 16:00:00 14.2 C 7.94 g/m*3 14.2 C 17.7 km/h
1977 10-04-2017 16:05:00 14.1 C 7.77 g/m*3 14.1 C 22.5 km/h
1978 10-04-2017 16:10:00 14 C 7.84 g/m*3 14 C 14.5 km/h
1979 10-04-2017 16:15:00 14.2 C 7.82 g/m*3 14.2 C 12.9 km/h
1980 10-04-2017 16:20:00 14.2 C 7.69 g/m*3 14.2 C 25.7 km/h
1981 10-04-2017 16:25:00 14.2 C 7.82 g/m*3 14.2 C 11.3 km/h
1982 10-04-2017 16:30:00 14.2 C 7.69 g/m*3 14.2 C 19.3 km/h
1983 10-04-2017 16:35:00 14.3 C 7.74 g/m*3 14.3 C 19.3 km/h
1984 10-04-2017 16:40:00 14.6 C 7.88 g/m*3 14.6 C 16.1 km/h
1985 10-04-2017 16:45:00 14.5 C 7.84 g/m*3 14.5 C 17.7 km/h
1986 10-04-2017 16:50:00 14.3 C 7.74 g/m*3 14.3 C 16.1 km/h
1987 10-04-2017 16:55:00 14.2 C 7.82 g/m*3 14.2 C 14.5 km/h
1988 10-04-2017 17:00:00 14.1 C 7.89 g/m*3 14.1 C 9.7 km/h
1989 10-04-2017 17:05:00 13.9 C 7.67 g/m*3 13.9 C 14.5 km/h
1990 10-04-2017 17:10:00 13.8 C 7.86 g/m*3 13.8 C 11.3 km/h
1991 10-04-2017 17:15:00 13.7 C 7.82 g/m*3 13.7 C 9.7 km/h
1992 10-04-2017 17:20:00 13.9 C 7.91 g/m*3 13.9 C 9.7 km/h
1993 10-04-2017 17:25:00 14.2 C 7.69 g/m*3 14.2 C 14.5 km/h
1994 10-04-2017 17:30:00 14.1 C 7.65 g/m*3 14.1 C 12.9 km/h
1995 10-04-2017 17:35:00 13.9 C 7.43 g/m*3 13.9 C 14.5 km/h
1996 10-04-2017 17:40:00 13.7 C 7.34 g/m*3 13.7 C 14.5 km/h
1997 10-04-2017 17:45:00 13.6 C 7.41 g/m*3 13.6 C 11.3 km/h
1998 10-04-2017 17:50:00 13.6 C 7.53 g/m*3 13.6 C 12.9 km/h
1999 10-04-2017 17:55:00 13.6 C 7.53 g/m*3 13.6 C 8.1 km/h
2000 10-04-2017 18:00:00 13.7 C 7.7 g/m*3 13.7 C 9.7 km/h
Sensor: Nr:Datum:Temp:Abs-Feuchte:Windchill:Wind:
Aussen-T/F 2001 10-04-2017 18:05:00 13.7 C 7.7 g/m*3 13.7 C 8.1 km/h
2002 10-04-2017 18:10:00 13.6 C 7.65 g/m*3 13.6 C 6.4 km/h
2003 10-04-2017 18:15:00 13.6 C 7.77 g/m*3 13.6 C 4.8 km/h
2004 10-04-2017 18:20:00 13.5 C 7.72 g/m*3 13.5 C 6.4 km/h
2005 10-04-2017 18:25:00 13.4 C 7.56 g/m*3 13.4 C 6.4 km/h
2006 10-04-2017 18:30:00 13.4 C 7.56 g/m*3 13.4 C 9.7 km/h
2007 10-04-2017 18:35:00 13.4 C 7.56 g/m*3 13.4 C 9.7 km/h
2008 10-04-2017 18:40:00 13.4 C 7.56 g/m*3 13.4 C 6.4 km/h
2009 10-04-2017 18:45:00 13.6 C 7.41 g/m*3 13.6 C 8.1 km/h
2010 10-04-2017 18:50:00 13.7 C 7.58 g/m*3 13.7 C 4.8 km/h
2011 10-04-2017 18:55:00 13.8 C 7.51 g/m*3 13.8 C 11.3 km/h
2012 10-04-2017 19:00:00 14.2 C 7.57 g/m*3 14.2 C 4.8 km/h
2013 10-04-2017 19:05:00 14.3 C 7.37 g/m*3 14.3 C 3.2 km/h
2014 10-04-2017 19:10:00 14.1 C 7.4 g/m*3 14.1 C 8.1 km/h
2015 10-04-2017 19:15:00 14 C 7.48 g/m*3 14 C 4.8 km/h
2016 10-04-2017 19:20:00 13.8 C 7.27 g/m*3 13.8 C 4.8 km/h
2017 10-04-2017 19:25:00 13.6 C 7.3 g/m*3 13.6 C 4.8 km/h
2018 10-04-2017 19:30:00 13.3 C 7.16 g/m*3 13.3 C 11.3 km/h
2019 10-04-2017 19:35:00 13.2 C 7.12 g/m*3 13.2 C 4.8 km/h
2020 10-04-2017 19:40:00 13.2 C 7.12 g/m*3 13.2 C 4.8 km/h
2021 10-04-2017 19:45:00 13.1 C 7.07 g/m*3 13.1 C 6.4 km/h
2022 10-04-2017 19:50:00 13 C 7.03 g/m*3 13 C 8.1 km/h
2023 10-04-2017 19:55:00 12.9 C 6.99 g/m*3 12.9 C 4.8 km/h
2024 10-04-2017 20:00:00 12.8 C 6.83 g/m*3 12.8 C 9.7 km/h
2025 10-04-2017 20:05:00 12.7 C 6.9 g/m*3 12.7 C 4.8 km/h
Sensor: Nr:Datum:Temp:Abs-Feuchte:Windchill:Wind:
Aussen-T/F 2026 10-04-2017 20:10:00 12.7 C 6.79 g/m*3 12.7 C 12.9 km/h
2027 10-04-2017 20:15:00 12.6 C 6.64 g/m*3 12.6 C 11.3 km/h
2028 10-04-2017 20:20:00 12.6 C 6.64 g/m*3 12.6 C 8.1 km/h
2029 10-04-2017 20:25:00 12.4 C 6.77 g/m*3 12.4 C 6.4 km/h
2030 10-04-2017 20:30:00 12.3 C 6.84 g/m*3 12.3 C 3.2 km/h
2031 10-04-2017 20:35:00 11.9 C 6.57 g/m*3 11.9 C 9.7 km/h
2032 10-04-2017 20:40:00 11.8 C 6.74 g/m*3 11.8 C 1.6 km/h
2033 10-04-2017 20:45:00 11.6 C 6.55 g/m*3 11.6 C 3.2 km/h
2034 10-04-2017 20:50:00 11.3 C 6.63 g/m*3 11.3 C 0 km/h
2035 10-04-2017 20:55:00 11.2 C 6.39 g/m*3 11.2 C 4.8 km/h
2036 10-04-2017 21:00:00 11.2 C 6.49 g/m*3 11.2 C 9.7 km/h
2037 10-04-2017 21:05:00 11.1 C 6.35 g/m*3 11.1 C 4.8 km/h
2038 10-04-2017 21:10:00 11.1 C 6.45 g/m*3 11.1 C 3.2 km/h
2039 10-04-2017 21:15:00 10.9 C 6.37 g/m*3 10.9 C 3.2 km/h
2040 10-04-2017 21:20:00 10.7 C 6.29 g/m*3 10.18 C 6.4 km/h
2041 10-04-2017 21:25:00 10.7 C 6.19 g/m*3 10.18 C 6.4 km/h
2042 10-04-2017 21:30:00 10.7 C 6.38 g/m*3 10.7 C 3.2 km/h
2043 10-04-2017 21:35:00 10.6 C 6.25 g/m*3 10.06 C 6.4 km/h
2044 10-04-2017 21:40:00 10.5 C 6.3 g/m*3 10.5 C 4.8 km/h
2045 10-04-2017 21:45:00 10.4 C 6.17 g/m*3 9.16 C 9.7 km/h
2046 10-04-2017 21:50:00 10.6 C 6.34 g/m*3 9.69 C 8.1 km/h
2047 10-04-2017 21:55:00 10.5 C 6.21 g/m*3 10.5 C 3.2 km/h
2048 10-04-2017 22:00:00 10.5 C 6.11 g/m*3 9.28 C 9.7 km/h
2049 10-04-2017 22:05:00 10.4 C 6.17 g/m*3 9.46 C 8.1 km/h
2050 10-04-2017 22:10:00 10.3 C 6.13 g/m*3 10.3 C 4.8 km/h
Sensor: Nr:Datum:Temp:Abs-Feuchte:Windchill:Wind:
Aussen-T/F 2051 10-04-2017 22:15:00 10.3 C 6.22 g/m*3 10.3 C 4.8 km/h
2052 10-04-2017 22:20:00 10.1 C 6.24 g/m*3 10.1 C 1.6 km/h
2053 10-04-2017 22:25:00 9.8 C 6.22 g/m*3 9.8 C 0 km/h
2054 10-04-2017 22:30:00 9.4 C 6.15 g/m*3 9.4 C 1.6 km/h
2055 10-04-2017 22:35:00 9.2 C 6.07 g/m*3 9.2 C 3.2 km/h
2056 10-04-2017 22:40:00 9.2 C 6.07 g/m*3 9.2 C 4.8 km/h
2057 10-04-2017 22:45:00 9.3 C 6.11 g/m*3 9.3 C 1.6 km/h
2058 10-04-2017 22:50:00 9.3 C 6.2 g/m*3 9.3 C 3.2 km/h
2059 10-04-2017 22:55:00 9.1 C 6.12 g/m*3 8.33 C 6.4 km/h
2060 10-04-2017 23:00:00 9.1 C 6.12 g/m*3 7.93 C 8.1 km/h
2061 10-04-2017 23:05:00 9.1 C 6.12 g/m*3 9.1 C 3.2 km/h
2062 10-04-2017 23:10:00 9 C 6.08 g/m*3 9 C 4.8 km/h
2063 10-04-2017 23:15:00 8.9 C 6.04 g/m*3 8.9 C 1.6 km/h
2064 10-04-2017 23:20:00 8.8 C 6.18 g/m*3 8.8 C 1.6 km/h
2065 10-04-2017 23:25:00 8.7 C 6.14 g/m*3 8.7 C 4.8 km/h
2066 10-04-2017 23:30:00 8.6 C 6.19 g/m*3 8.6 C 1.6 km/h
2067 10-04-2017 23:35:00 8.3 C 6.15 g/m*3 8.3 C 3.2 km/h
2068 10-04-2017 23:40:00 8.3 C 6.15 g/m*3 8.3 C 4.8 km/h
2069 10-04-2017 23:45:00 8.2 C 6.2 g/m*3 8.2 C 4.8 km/h
2070 10-04-2017 23:50:00 8.2 C 6.2 g/m*3 8.2 C 0 km/h
2071 10-04-2017 23:55:00 8.1 C 6.24 g/m*3 8.1 C 4.8 km/h
2072 11-04-2017 00:00:00 8.1 C 6.24 g/m*3 8.1 C 3.2 km/h
2073 11-04-2017 00:05:00 8 C 6.28 g/m*3 8 C 1.6 km/h
2074 11-04-2017 00:10:00 8.1 C 6.24 g/m*3 8.1 C 3.2 km/h
2075 11-04-2017 00:15:00 8.2 C 6.36 g/m*3 8.2 C 4.8 km/h
Sensor: Nr:Datum:Temp:Abs-Feuchte:Windchill:Wind:
Aussen-T/F 2076 11-04-2017 00:20:00 8.4 C 6.36 g/m*3 6.78 C 9.7 km/h
2077 11-04-2017 00:25:00 8.6 C 6.44 g/m*3 8.6 C 4.8 km/h
2078 11-04-2017 00:30:00 8.7 C 6.4 g/m*3 7.87 C 6.4 km/h
2079 11-04-2017 00:35:00 8.7 C 6.4 g/m*3 8.7 C 4.8 km/h
2080 11-04-2017 00:40:00 8.7 C 6.49 g/m*3 8.7 C 3.2 km/h
2081 11-04-2017 00:45:00 8.7 C 6.49 g/m*3 7.13 C 9.7 km/h
2082 11-04-2017 00:50:00 8.7 C 6.4 g/m*3 7.13 C 9.7 km/h
2083 11-04-2017 00:55:00 8.8 C 6.44 g/m*3 8.8 C 4.8 km/h
2084 11-04-2017 01:00:00 8.8 C 6.44 g/m*3 7.98 C 6.4 km/h
2085 11-04-2017 01:05:00 8.8 C 6.44 g/m*3 7.58 C 8.1 km/h
2086 11-04-2017 01:10:00 8.8 C 6.44 g/m*3 8.8 C 3.2 km/h
2087 11-04-2017 01:15:00 8.7 C 6.4 g/m*3 8.7 C 4.8 km/h
2088 11-04-2017 01:20:00 8.7 C 6.4 g/m*3 8.7 C 4.8 km/h
2089 11-04-2017 01:25:00 8.7 C 6.4 g/m*3 8.7 C 4.8 km/h
2090 11-04-2017 01:30:00 8.7 C 6.4 g/m*3 8.7 C 4.8 km/h
2091 11-04-2017 01:35:00 8.7 C 6.4 g/m*3 7.87 C 6.4 km/h
2092 11-04-2017 01:40:00 8.8 C 6.35 g/m*3 5.93 C 19.3 km/h
2093 11-04-2017 01:45:00 8.8 C 6.35 g/m*3 7.58 C 8.1 km/h
2094 11-04-2017 01:50:00 8.7 C 6.4 g/m*3 8.7 C 4.8 km/h
2095 11-04-2017 01:55:00 8.7 C 6.4 g/m*3 7.87 C 6.4 km/h
2096 11-04-2017 02:00:00 8.6 C 6.36 g/m*3 8.6 C 3.2 km/h
2097 11-04-2017 02:05:00 8.6 C 6.36 g/m*3 7.75 C 6.4 km/h
2098 11-04-2017 02:10:00 8.4 C 6.36 g/m*3 8.4 C 4.8 km/h
2099 11-04-2017 02:15:00 8.4 C 6.36 g/m*3 7.11 C 8.1 km/h
2100 11-04-2017 02:20:00 8.4 C 6.36 g/m*3 8.4 C 4.8 km/h
Sensor: Nr:Datum:Temp:Abs-Feuchte:Windchill:Wind:
Aussen-T/F 2101 11-04-2017 02:25:00 8.3 C 6.32 g/m*3 7.41 C 6.4 km/h
2102 11-04-2017 02:30:00 8.3 C 6.32 g/m*3 6.66 C 9.7 km/h
2103 11-04-2017 02:35:00 8.3 C 6.32 g/m*3 7.41 C 6.4 km/h
2104 11-04-2017 02:40:00 8.2 C 6.36 g/m*3 6.54 C 9.7 km/h
2105 11-04-2017 02:45:00 8.1 C 6.32 g/m*3 7.17 C 6.4 km/h
2106 11-04-2017 02:50:00 7.9 C 6.24 g/m*3 6.52 C 8.1 km/h
2107 11-04-2017 02:55:00 7.8 C 6.28 g/m*3 6.4 C 8.1 km/h
2108 11-04-2017 03:00:00 7.8 C 6.28 g/m*3 7.8 C 4.8 km/h
2109 11-04-2017 03:05:00 7.8 C 6.37 g/m*3 6.83 C 6.4 km/h
2110 11-04-2017 03:10:00 7.7 C 6.32 g/m*3 7.7 C 4.8 km/h
2111 11-04-2017 03:15:00 7.6 C 6.28 g/m*3 7.6 C 4.8 km/h
2112 11-04-2017 03:20:00 7.6 C 6.36 g/m*3 5.82 C 9.7 km/h
2113 11-04-2017 03:25:00 7.6 C 6.36 g/m*3 6.6 C 6.4 km/h
2114 11-04-2017 03:30:00 7.6 C 6.36 g/m*3 7.6 C 4.8 km/h
2115 11-04-2017 03:35:00 7.6 C 6.36 g/m*3 6.16 C 8.1 km/h
2116 11-04-2017 03:40:00 7.6 C 6.36 g/m*3 7.6 C 3.2 km/h
2117 11-04-2017 03:45:00 7.6 C 6.36 g/m*3 6.16 C 8.1 km/h
2118 11-04-2017 03:50:00 7.6 C 6.36 g/m*3 6.6 C 6.4 km/h
2119 11-04-2017 03:55:00 7.6 C 6.36 g/m*3 6.6 C 6.4 km/h
2120 11-04-2017 04:00:00 7.6 C 6.36 g/m*3 6.6 C 6.4 km/h
2121 11-04-2017 04:05:00 7.6 C 6.36 g/m*3 7.6 C 4.8 km/h
2122 11-04-2017 04:10:00 7.5 C 6.32 g/m*3 7.5 C 4.8 km/h
2123 11-04-2017 04:15:00 7.5 C 6.32 g/m*3 6.48 C 6.4 km/h
2124 11-04-2017 04:20:00 7.5 C 6.4 g/m*3 7.5 C 4.8 km/h
2125 11-04-2017 04:25:00 7.4 C 6.36 g/m*3 7.4 C 3.2 km/h
Sensor: Nr:Datum:Temp:Abs-Feuchte:Windchill:Wind:
Aussen-T/F 2126 11-04-2017 04:30:00 7.4 C 6.36 g/m*3 5.58 C 9.7 km/h
2127 11-04-2017 04:35:00 7.4 C 6.36 g/m*3 7.4 C 4.8 km/h
2128 11-04-2017 04:40:00 7.4 C 6.36 g/m*3 7.4 C 3.2 km/h
2129 11-04-2017 04:45:00 7.3 C 6.4 g/m*3 7.3 C 4.8 km/h
2130 11-04-2017 04:50:00 7.3 C 6.4 g/m*3 7.3 C 1.6 km/h
2131 11-04-2017 04:55:00 7.3 C 6.4 g/m*3 7.3 C 3.2 km/h
2132 11-04-2017 05:00:00 7.3 C 6.4 g/m*3 7.3 C 3.2 km/h
2133 11-04-2017 05:05:00 7.3 C 6.4 g/m*3 7.3 C 1.6 km/h
2134 11-04-2017 05:10:00 7.3 C 6.4 g/m*3 7.3 C 1.6 km/h
2135 11-04-2017 05:15:00 7.3 C 6.4 g/m*3 7.3 C 4.8 km/h
2136 11-04-2017 05:20:00 7.3 C 6.4 g/m*3 6.25 C 6.4 km/h
2137 11-04-2017 05:25:00 7.3 C 6.4 g/m*3 7.3 C 3.2 km/h
2138 11-04-2017 05:30:00 7.3 C 6.4 g/m*3 7.3 C 1.6 km/h
2139 11-04-2017 05:35:00 7.2 C 6.36 g/m*3 7.2 C 4.8 km/h
2140 11-04-2017 05:40:00 7.2 C 6.44 g/m*3 7.2 C 4.8 km/h
2141 11-04-2017 05:45:00 7.2 C 6.44 g/m*3 7.2 C 1.6 km/h
2142 11-04-2017 05:50:00 7.2 C 6.44 g/m*3 7.2 C 4.8 km/h
2143 11-04-2017 05:55:00 7.2 C 6.44 g/m*3 7.2 C 4.8 km/h
2144 11-04-2017 06:00:00 7.2 C 6.44 g/m*3 7.2 C 3.2 km/h
2145 11-04-2017 06:05:00 7.2 C 6.44 g/m*3 7.2 C 4.8 km/h
2146 11-04-2017 06:10:00 7.2 C 6.44 g/m*3 7.2 C 4.8 km/h
2147 11-04-2017 06:15:00 7.1 C 6.4 g/m*3 6.02 C 6.4 km/h
2148 11-04-2017 06:20:00 7.1 C 6.4 g/m*3 7.1 C 4.8 km/h
2149 11-04-2017 06:25:00 7.1 C 6.47 g/m*3 7.1 C 1.6 km/h
2150 11-04-2017 06:30:00 7 C 6.43 g/m*3 7 C 1.6 km/h
Sensor: Nr:Datum:Temp:Abs-Feuchte:Windchill:Wind:
Aussen-T/F 2151 11-04-2017 06:35:00 7 C 6.43 g/m*3 7 C 3.2 km/h
2152 11-04-2017 06:40:00 6.9 C 6.39 g/m*3 6.9 C 1.6 km/h
2153 11-04-2017 06:45:00 6.9 C 6.39 g/m*3 6.9 C 3.2 km/h
2154 11-04-2017 06:50:00 6.8 C 6.35 g/m*3 6.8 C 1.6 km/h
2155 11-04-2017 06:55:00 6.8 C 6.42 g/m*3 6.8 C 4.8 km/h
2156 11-04-2017 07:00:00 6.7 C 6.38 g/m*3 5.11 C 8.1 km/h
2157 11-04-2017 07:05:00 6.7 C 6.38 g/m*3 6.7 C 1.6 km/h
2158 11-04-2017 07:10:00 6.7 C 6.38 g/m*3 6.7 C 4.8 km/h
2159 11-04-2017 07:15:00 6.7 C 6.38 g/m*3 6.7 C 4.8 km/h
2160 11-04-2017 07:20:00 6.7 C 6.46 g/m*3 5.56 C 6.4 km/h
2161 11-04-2017 07:25:00 6.7 C 6.46 g/m*3 5.56 C 6.4 km/h
2162 11-04-2017 07:30:00 6.7 C 6.46 g/m*3 5.11 C 8.1 km/h
2163 11-04-2017 07:35:00 6.7 C 6.46 g/m*3 6.7 C 3.2 km/h
2164 11-04-2017 07:40:00 6.7 C 6.46 g/m*3 4.44 C 11.3 km/h
2165 11-04-2017 07:45:00 6.7 C 6.46 g/m*3 6.7 C 3.2 km/h
2166 11-04-2017 07:50:00 6.7 C 6.46 g/m*3 6.7 C 1.6 km/h
2167 11-04-2017 07:55:00 6.7 C 6.46 g/m*3 6.7 C 1.6 km/h
2168 11-04-2017 08:00:00 6.8 C 6.5 g/m*3 6.8 C 1.6 km/h
2169 11-04-2017 08:05:00 6.8 C 6.5 g/m*3 6.8 C 3.2 km/h
2170 11-04-2017 08:10:00 6.9 C 6.54 g/m*3 6.9 C 0 km/h
2171 11-04-2017 08:15:00 6.9 C 6.54 g/m*3 6.9 C 0 km/h
2172 11-04-2017 08:20:00 7 C 6.59 g/m*3 7 C 3.2 km/h
2173 11-04-2017 08:25:00 7.1 C 6.63 g/m*3 7.1 C 0 km/h
2174 11-04-2017 08:30:00 7.2 C 6.59 g/m*3 7.2 C 4.8 km/h
2175 11-04-2017 08:35:00 7.2 C 6.59 g/m*3 7.2 C 3.2 km/h
Sensor: Nr:Datum:Temp:Abs-Feuchte:Windchill:Wind:
Aussen-T/F 2176 11-04-2017 08:40:00 7.3 C 6.64 g/m*3 6.25 C 6.4 km/h
2177 11-04-2017 08:45:00 7.4 C 6.6 g/m*3 6.37 C 6.4 km/h
2178 11-04-2017 08:50:00 7.4 C 6.6 g/m*3 6.37 C 6.4 km/h
2179 11-04-2017 08:55:00 7.5 C 6.64 g/m*3 6.48 C 6.4 km/h
2180 11-04-2017 09:00:00 7.6 C 6.69 g/m*3 6.16 C 8.1 km/h
2181 11-04-2017 09:05:00 7.7 C 6.65 g/m*3 5.65 C 11.3 km/h
2182 11-04-2017 09:10:00 7.8 C 6.69 g/m*3 6.83 C 6.4 km/h
2183 11-04-2017 09:15:00 7.8 C 6.61 g/m*3 6.06 C 9.7 km/h
2184 11-04-2017 09:20:00 7.9 C 6.65 g/m*3 6.52 C 8.1 km/h
2185 11-04-2017 09:25:00 7.9 C 6.65 g/m*3 6.18 C 9.7 km/h
2186 11-04-2017 09:30:00 7.9 C 6.65 g/m*3 6.94 C 6.4 km/h
2187 11-04-2017 09:35:00 8 C 6.7 g/m*3 6.64 C 8.1 km/h
2188 11-04-2017 09:40:00 8.1 C 6.66 g/m*3 6.42 C 9.7 km/h
2189 11-04-2017 09:45:00 8.1 C 6.66 g/m*3 6.75 C 8.1 km/h
2190 11-04-2017 09:50:00 8.2 C 6.7 g/m*3 7.29 C 6.4 km/h
2191 11-04-2017 09:55:00 8.3 C 6.66 g/m*3 7.41 C 6.4 km/h
2192 11-04-2017 10:00:00 8.4 C 6.53 g/m*3 6.78 C 9.7 km/h
2193 11-04-2017 10:05:00 8.3 C 6.41 g/m*3 6.37 C 11.3 km/h
2194 11-04-2017 10:10:00 8.2 C 6.36 g/m*3 6.87 C 8.1 km/h
2195 11-04-2017 10:15:00 8.1 C 6.41 g/m*3 8.1 C 4.8 km/h
2196 11-04-2017 10:20:00 8.1 C 6.32 g/m*3 8.1 C 4.8 km/h
2197 11-04-2017 10:25:00 8.1 C 6.32 g/m*3 6.75 C 8.1 km/h
2198 11-04-2017 10:30:00 8.1 C 6.24 g/m*3 6.75 C 8.1 km/h
2199 11-04-2017 10:35:00 8.3 C 6.41 g/m*3 7.41 C 6.4 km/h
2200 11-04-2017 10:40:00 8.6 C 6.36 g/m*3 7.34 C 8.1 km/h
Sensor: Nr:Datum:Temp:Abs-Feuchte:Windchill:Wind:
Aussen-T/F 2201 11-04-2017 10:45:00 8.8 C 6.27 g/m*3 7.58 C 8.1 km/h
2202 11-04-2017 10:50:00 8.9 C 6.31 g/m*3 8.1 C 6.4 km/h
2203 11-04-2017 10:55:00 8.9 C 6.22 g/m*3 7.37 C 9.7 km/h
2204 11-04-2017 11:00:00 8.9 C 6.22 g/m*3 8.9 C 4.8 km/h
2205 11-04-2017 11:05:00 9 C 6.17 g/m*3 9 C 4.8 km/h
2206 11-04-2017 11:10:00 9.2 C 6.25 g/m*3 8.05 C 8.1 km/h
2207 11-04-2017 11:15:00 9.3 C 6.2 g/m*3 7.85 C 9.7 km/h
2208 11-04-2017 11:20:00 9.3 C 6.02 g/m*3 8.56 C 6.4 km/h
2209 11-04-2017 11:25:00 9.4 C 6.24 g/m*3 8.28 C 8.1 km/h
2210 11-04-2017 11:30:00 9.8 C 6.31 g/m*3 8.75 C 8.1 km/h
2211 11-04-2017 11:35:00 9.9 C 6.07 g/m*3 8.87 C 8.1 km/h
2212 11-04-2017 11:40:00 10.1 C 6.15 g/m*3 8.54 C 11.3 km/h
2213 11-04-2017 11:45:00 10.2 C 6 g/m*3 9.22 C 8.1 km/h
2214 11-04-2017 11:50:00 10.3 C 6.03 g/m*3 10.3 C 4.8 km/h
2215 11-04-2017 11:55:00 10.4 C 5.98 g/m*3 9.83 C 6.4 km/h
2216 11-04-2017 12:00:00 10.3 C 5.84 g/m*3 9.72 C 6.4 km/h
2217 11-04-2017 12:05:00 10.3 C 6.03 g/m*3 9.34 C 8.1 km/h
2218 11-04-2017 12:10:00 10.3 C 6.13 g/m*3 9.72 C 6.4 km/h
2219 11-04-2017 12:15:00 10.4 C 6.07 g/m*3 9.46 C 8.1 km/h
2220 11-04-2017 12:20:00 10.4 C 5.78 g/m*3 9.83 C 6.4 km/h
2221 11-04-2017 12:25:00 10.3 C 5.94 g/m*3 10.3 C 4.8 km/h
2222 11-04-2017 12:30:00 10.3 C 5.94 g/m*3 9.72 C 6.4 km/h
2223 11-04-2017 12:35:00 10.4 C 5.88 g/m*3 10.4 C 3.2 km/h
2224 11-04-2017 12:40:00 10.6 C 5.86 g/m*3 10.6 C 1.6 km/h
2225 11-04-2017 12:45:00 10.7 C 5.99 g/m*3 10.7 C 4.8 km/h
Sensor: Nr:Datum:Temp:Abs-Feuchte:Windchill:Wind:
Aussen-T/F 2226 11-04-2017 12:50:00 10.8 C 6.23 g/m*3 10.8 C 3.2 km/h
2227 11-04-2017 12:55:00 10.9 C 6.07 g/m*3 10.9 C 4.8 km/h
2228 11-04-2017 13:00:00 11.1 C 6.14 g/m*3 11.1 C 6.4 km/h
2229 11-04-2017 13:05:00 11.1 C 6.14 g/m*3 11.1 C 4.8 km/h
2230 11-04-2017 13:10:00 11.1 C 6.04 g/m*3 11.1 C 8.1 km/h
2231 11-04-2017 13:15:00 10.9 C 6.07 g/m*3 9.51 C 11.3 km/h
2232 11-04-2017 13:20:00 10.9 C 6.07 g/m*3 10.9 C 4.8 km/h
2233 11-04-2017 13:25:00 11 C 6.01 g/m*3 10.16 C 8.1 km/h
2234 11-04-2017 13:30:00 11.1 C 5.94 g/m*3 11.1 C 9.7 km/h
2235 11-04-2017 13:35:00 11.2 C 5.98 g/m*3 11.2 C 6.4 km/h
2236 11-04-2017 13:40:00 11.3 C 5.92 g/m*3 11.3 C 6.4 km/h
2237 11-04-2017 13:45:00 11.5 C 5.89 g/m*3 11.5 C 4.8 km/h
2238 11-04-2017 13:50:00 11.6 C 6.03 g/m*3 11.6 C 6.4 km/h
2239 11-04-2017 13:55:00 11.7 C 5.75 g/m*3 11.7 C 1.6 km/h
2240 11-04-2017 14:00:00 11.7 C 5.86 g/m*3 11.7 C 9.7 km/h
2241 11-04-2017 14:05:00 11.7 C 5.65 g/m*3 11.7 C 8.1 km/h
2242 11-04-2017 14:10:00 11.7 C 5.86 g/m*3 11.7 C 4.8 km/h
2243 11-04-2017 14:15:00 11.7 C 5.65 g/m*3 11.7 C 3.2 km/h
2244 11-04-2017 14:20:00 11.7 C 5.75 g/m*3 11.7 C 3.2 km/h
2245 11-04-2017 14:25:00 11.7 C 5.65 g/m*3 11.7 C 8.1 km/h
2246 11-04-2017 14:30:00 11.7 C 5.75 g/m*3 11.7 C 6.4 km/h
2247 11-04-2017 14:35:00 11.8 C 5.68 g/m*3 11.8 C 4.8 km/h
2248 11-04-2017 14:40:00 11.8 C 5.68 g/m*3 11.8 C 6.4 km/h
2249 11-04-2017 14:45:00 11.7 C 5.75 g/m*3 11.7 C 6.4 km/h
2250 11-04-2017 14:50:00 11.6 C 5.82 g/m*3 11.6 C 4.8 km/h
Sensor: Nr:Datum:Temp:Abs-Feuchte:Windchill:Wind:
Aussen-T/F 2251 11-04-2017 14:55:00 11.7 C 5.86 g/m*3 11.7 C 6.4 km/h
2252 11-04-2017 15:00:00 11.7 C 5.65 g/m*3 11.7 C 3.2 km/h
2253 11-04-2017 15:05:00 11.9 C 5.82 g/m*3 11.9 C 4.8 km/h
2254 11-04-2017 15:10:00 12.2 C 5.94 g/m*3 12.2 C 6.4 km/h
2255 11-04-2017 15:15:00 12.4 C 5.9 g/m*3 12.4 C 4.8 km/h
2256 11-04-2017 15:20:00 12.6 C 5.75 g/m*3 12.6 C 8.1 km/h
2257 11-04-2017 15:25:00 12.7 C 5.79 g/m*3 12.7 C 4.8 km/h
2258 11-04-2017 15:30:00 12.7 C 5.79 g/m*3 12.7 C 3.2 km/h
2259 11-04-2017 15:35:00 12.8 C 5.26 g/m*3 12.8 C 1.6 km/h
2260 11-04-2017 15:40:00 12.8 C 5.6 g/m*3 12.8 C 3.2 km/h
2261 11-04-2017 15:45:00 13.1 C 5.71 g/m*3 13.1 C 6.4 km/h
2262 11-04-2017 15:50:00 13.2 C 5.63 g/m*3 13.2 C 3.2 km/h
2263 11-04-2017 15:55:00 13.3 C 5.78 g/m*3 13.3 C 6.4 km/h
2264 11-04-2017 16:00:00 13.4 C 5.58 g/m*3 13.4 C 6.4 km/h
2265 11-04-2017 16:05:00 13.6 C 6 g/m*3 13.6 C 6.4 km/h
2266 11-04-2017 16:10:00 13.7 C 5.68 g/m*3 13.7 C 3.2 km/h
2267 11-04-2017 16:15:00 13.8 C 5.72 g/m*3 13.8 C 8.1 km/h
2268 11-04-2017 16:20:00 13.9 C 5.99 g/m*3 13.9 C 4.8 km/h
2269 11-04-2017 16:25:00 14.2 C 5.98 g/m*3 14.2 C 8.1 km/h
2270 11-04-2017 16:30:00 14.3 C 5.9 g/m*3 14.3 C 4.8 km/h
2271 11-04-2017 16:35:00 14.5 C 5.97 g/m*3 14.5 C 3.2 km/h
2272 11-04-2017 16:40:00 14.6 C 5.76 g/m*3 14.6 C 6.4 km/h
2273 11-04-2017 16:45:00 14.4 C 5.81 g/m*3 14.4 C 6.4 km/h
2274 11-04-2017 16:50:00 14.3 C 5.9 g/m*3 14.3 C 3.2 km/h
2275 11-04-2017 16:55:00 14.6 C 6.01 g/m*3 14.6 C 6.4 km/h
Sensor: Nr:Datum:Temp:Abs-Feuchte:Windchill:Wind:
Aussen-T/F 2276 11-04-2017 17:00:00 14.6 C 5.88 g/m*3 14.6 C 6.4 km/h
2277 11-04-2017 17:05:00 14.3 C 5.9 g/m*3 14.3 C 4.8 km/h
2278 11-04-2017 17:10:00 14.1 C 5.95 g/m*3 14.1 C 6.4 km/h
2279 11-04-2017 17:15:00 14.2 C 5.86 g/m*3 14.2 C 6.4 km/h
2280 11-04-2017 17:20:00 14.2 C 5.86 g/m*3 14.2 C 3.2 km/h
2281 11-04-2017 17:25:00 14.2 C 5.74 g/m*3 14.2 C 9.7 km/h
2282 11-04-2017 17:30:00 14.1 C 5.83 g/m*3 14.1 C 4.8 km/h
2283 11-04-2017 17:35:00 14 C 5.79 g/m*3 14 C 4.8 km/h
2284 11-04-2017 17:40:00 14 C 5.79 g/m*3 14 C 3.2 km/h
2285 11-04-2017 17:45:00 14 C 5.79 g/m*3 14 C 3.2 km/h
2286 11-04-2017 17:50:00 14.1 C 5.95 g/m*3 14.1 C 6.4 km/h
2287 11-04-2017 17:55:00 14.3 C 5.77 g/m*3 14.3 C 8.1 km/h
2288 11-04-2017 18:00:00 14.4 C 5.81 g/m*3 14.4 C 8.1 km/h
2289 11-04-2017 18:05:00 14.4 C 5.69 g/m*3 14.4 C 6.4 km/h
2290 11-04-2017 18:10:00 14.3 C 5.77 g/m*3 14.3 C 4.8 km/h
2291 11-04-2017 18:15:00 14.4 C 6.18 g/m*3 14.4 C 1.6 km/h
2292 11-04-2017 18:20:00 14.9 C 5.99 g/m*3 14.9 C 4.8 km/h
2293 11-04-2017 18:25:00 15.2 C 5.84 g/m*3 15.2 C 6.4 km/h
2294 11-04-2017 18:30:00 15.3 C 5.75 g/m*3 15.3 C 6.4 km/h
2295 11-04-2017 18:35:00 15.6 C 5.98 g/m*3 15.6 C 4.8 km/h
2296 11-04-2017 18:40:00 15.8 C 5.92 g/m*3 15.8 C 4.8 km/h
2297 11-04-2017 18:45:00 15.8 C 6.06 g/m*3 15.8 C 4.8 km/h
2298 11-04-2017 18:50:00 16 C 6.13 g/m*3 16 C 3.2 km/h
2299 11-04-2017 18:55:00 16.1 C 6.17 g/m*3 16.1 C 3.2 km/h
2300 11-04-2017 19:00:00 16.2 C 5.93 g/m*3 16.2 C 3.2 km/h
Sensor: Nr:Datum:Temp:Abs-Feuchte:Windchill:Wind:
Aussen-T/F 2301 11-04-2017 19:05:00 16.1 C 6.03 g/m*3 16.1 C 4.8 km/h
2302 11-04-2017 19:10:00 15.9 C 5.96 g/m*3 15.9 C 4.8 km/h
2303 11-04-2017 19:15:00 15.7 C 5.89 g/m*3 15.7 C 3.2 km/h
2304 11-04-2017 19:20:00 15.5 C 6.48 g/m*3 15.5 C 0 km/h
2305 11-04-2017 19:25:00 15.3 C 6.66 g/m*3 15.3 C 0 km/h
2306 11-04-2017 19:30:00 15.1 C 6.71 g/m*3 15.1 C 0 km/h
2307 11-04-2017 19:35:00 14.8 C 6.71 g/m*3 14.8 C 1.6 km/h
2308 11-04-2017 19:40:00 14.3 C 6.76 g/m*3 14.3 C 1.6 km/h
2309 11-04-2017 19:45:00 13.8 C 6.55 g/m*3 13.8 C 1.6 km/h
2310 11-04-2017 19:50:00 13.3 C 6.59 g/m*3 13.3 C 1.6 km/h
2311 11-04-2017 19:55:00 12.9 C 6.65 g/m*3 12.9 C 3.2 km/h
2312 11-04-2017 20:00:00 12.4 C 6.56 g/m*3 12.4 C 3.2 km/h
2313 11-04-2017 20:05:00 11.9 C 6.46 g/m*3 11.9 C 3.2 km/h
2314 11-04-2017 20:10:00 11.6 C 6.44 g/m*3 11.6 C 3.2 km/h
2315 11-04-2017 20:15:00 11.2 C 6.39 g/m*3 11.2 C 4.8 km/h
2316 11-04-2017 20:20:00 10.8 C 6.33 g/m*3 10.8 C 4.8 km/h
2317 11-04-2017 20:25:00 10.6 C 6.25 g/m*3 10.6 C 4.8 km/h
2318 11-04-2017 20:30:00 10.4 C 6.26 g/m*3 10.4 C 4.8 km/h
2319 11-04-2017 20:35:00 10.2 C 6.28 g/m*3 10.2 C 4.8 km/h
2320 11-04-2017 20:40:00 10.1 C 6.24 g/m*3 10.1 C 4.8 km/h
2321 11-04-2017 20:45:00 9.9 C 6.26 g/m*3 9.9 C 4.8 km/h
2322 11-04-2017 20:50:00 9.8 C 6.31 g/m*3 9.8 C 3.2 km/h
2323 11-04-2017 20:55:00 9.6 C 6.32 g/m*3 9.6 C 1.6 km/h
2324 11-04-2017 21:00:00 9.3 C 6.2 g/m*3 9.3 C 0 km/h
2325 11-04-2017 21:05:00 9.2 C 6.25 g/m*3 9.2 C 1.6 km/h
Sensor: Nr:Datum:Temp:Abs-Feuchte:Windchill:Wind:
Aussen-T/F 2326 11-04-2017 21:10:00 8.9 C 6.22 g/m*3 8.9 C 3.2 km/h
2327 11-04-2017 21:15:00 8.8 C 6.18 g/m*3 8.8 C 3.2 km/h
2328 11-04-2017 21:20:00 8.7 C 6.14 g/m*3 8.7 C 3.2 km/h
2329 11-04-2017 21:25:00 8.6 C 6.19 g/m*3 8.6 C 0 km/h
2330 11-04-2017 21:30:00 8.5 C 6.23 g/m*3 8.5 C 1.6 km/h
2331 11-04-2017 21:35:00 8.4 C 6.19 g/m*3 8.4 C 0 km/h
2332 11-04-2017 21:40:00 8.3 C 6.15 g/m*3 8.3 C 0 km/h
2333 11-04-2017 21:45:00 8.2 C 6.2 g/m*3 8.2 C 0 km/h
2334 11-04-2017 21:50:00 8 C 6.12 g/m*3 8 C 0 km/h
2335 11-04-2017 21:55:00 7.9 C 6.08 g/m*3 7.9 C 0 km/h
2336 11-04-2017 22:00:00 7.8 C 6.12 g/m*3 7.8 C 0 km/h
2337 11-04-2017 22:05:00 7.7 C 6.08 g/m*3 7.7 C 0 km/h
2338 11-04-2017 22:10:00 7.6 C 6.04 g/m*3 7.6 C 0 km/h
2339 11-04-2017 22:15:00 7.6 C 6.04 g/m*3 7.6 C 1.6 km/h
2340 11-04-2017 22:20:00 7.4 C 6.04 g/m*3 7.4 C 1.6 km/h
2341 11-04-2017 22:25:00 7.4 C 6.04 g/m*3 7.4 C 0 km/h
2342 11-04-2017 22:30:00 7.3 C 6 g/m*3 7.3 C 1.6 km/h
2343 11-04-2017 22:35:00 7.3 C 6.08 g/m*3 7.3 C 0 km/h
2344 11-04-2017 22:40:00 7.2 C 6.12 g/m*3 7.2 C 1.6 km/h
2345 11-04-2017 22:45:00 7.1 C 6.08 g/m*3 7.1 C 1.6 km/h
2346 11-04-2017 22:50:00 6.9 C 6 g/m*3 6.9 C 0 km/h
2347 11-04-2017 22:55:00 6.7 C 5.93 g/m*3 6.7 C 0 km/h
2348 11-04-2017 23:00:00 6.7 C 5.93 g/m*3 6.7 C 0 km/h
2349 11-04-2017 23:05:00 6.6 C 5.96 g/m*3 6.6 C 0 km/h
2350 11-04-2017 23:10:00 6.6 C 6.04 g/m*3 6.6 C 1.6 km/h
Sensor: Nr:Datum:Temp:Abs-Feuchte:Windchill:Wind:
Aussen-T/F 2351 11-04-2017 23:15:00 6.5 C 5.92 g/m*3 6.5 C 0 km/h
2352 11-04-2017 23:20:00 6.4 C 5.89 g/m*3 6.4 C 1.6 km/h
2353 11-04-2017 23:25:00 6.4 C 5.96 g/m*3 6.4 C 1.6 km/h
2354 11-04-2017 23:30:00 6.4 C 5.96 g/m*3 6.4 C 1.6 km/h
2355 11-04-2017 23:35:00 6.4 C 5.96 g/m*3 6.4 C 0 km/h
2356 11-04-2017 23:40:00 6.4 C 5.96 g/m*3 6.4 C 0 km/h
2357 11-04-2017 23:45:00 6.4 C 5.96 g/m*3 6.4 C 0 km/h
2358 11-04-2017 23:50:00 6.4 C 5.96 g/m*3 6.4 C 1.6 km/h
2359 11-04-2017 23:55:00 6.4 C 6.04 g/m*3 6.4 C 0 km/h
2360 12-04-2017 00:00:00 6.4 C 6.04 g/m*3 6.4 C 0 km/h
2361 12-04-2017 00:05:00 6.4 C 6.04 g/m*3 6.4 C 1.6 km/h
2362 12-04-2017 00:10:00 6.4 C 6.04 g/m*3 6.4 C 4.8 km/h
2363 12-04-2017 00:15:00 6.5 C 6.07 g/m*3 6.5 C 1.6 km/h
2364 12-04-2017 00:20:00 6.6 C 6.04 g/m*3 6.6 C 4.8 km/h
2365 12-04-2017 00:25:00 6.6 C 6.04 g/m*3 5.44 C 6.4 km/h
2366 12-04-2017 00:30:00 6.7 C 6.08 g/m*3 6.7 C 1.6 km/h
2367 12-04-2017 00:35:00 6.6 C 6.04 g/m*3 6.6 C 3.2 km/h
2368 12-04-2017 00:40:00 6.6 C 6.04 g/m*3 6.6 C 3.2 km/h
2369 12-04-2017 00:45:00 6.6 C 6.04 g/m*3 6.6 C 1.6 km/h
2370 12-04-2017 00:50:00 6.6 C 6.04 g/m*3 6.6 C 1.6 km/h
2371 12-04-2017 00:55:00 6.6 C 6.04 g/m*3 6.6 C 4.8 km/h
2372 12-04-2017 01:00:00 6.6 C 6.11 g/m*3 6.6 C 1.6 km/h
2373 12-04-2017 01:05:00 6.6 C 6.11 g/m*3 4.99 C 8.1 km/h
2374 12-04-2017 01:10:00 6.6 C 6.11 g/m*3 6.6 C 1.6 km/h
2375 12-04-2017 01:15:00 6.6 C 6.11 g/m*3 6.6 C 4.8 km/h
Sensor: Nr:Datum:Temp:Abs-Feuchte:Windchill:Wind:
Aussen-T/F 2376 12-04-2017 01:20:00 6.6 C 6.11 g/m*3 6.6 C 1.6 km/h
2377 12-04-2017 01:25:00 6.5 C 6.07 g/m*3 6.5 C 1.6 km/h
2378 12-04-2017 01:30:00 6.4 C 6.04 g/m*3 6.4 C 4.8 km/h
2379 12-04-2017 01:35:00 6.4 C 6.04 g/m*3 5.21 C 6.4 km/h
2380 12-04-2017 01:40:00 6.4 C 6.04 g/m*3 5.21 C 6.4 km/h
2381 12-04-2017 01:45:00 6.3 C 6 g/m*3 6.3 C 3.2 km/h
2382 12-04-2017 01:50:00 6.3 C 6 g/m*3 6.3 C 1.6 km/h
2383 12-04-2017 01:55:00 6.2 C 5.96 g/m*3 6.2 C 1.6 km/h
2384 12-04-2017 02:00:00 6.1 C 5.92 g/m*3 6.1 C 4.8 km/h
2385 12-04-2017 02:05:00 6.1 C 5.99 g/m*3 6.1 C 0 km/h
2386 12-04-2017 02:10:00 6 C 5.95 g/m*3 6 C 4.8 km/h
2387 12-04-2017 02:15:00 6 C 5.95 g/m*3 6 C 3.2 km/h
2388 12-04-2017 02:20:00 5.9 C 5.91 g/m*3 5.9 C 4.8 km/h
2389 12-04-2017 02:25:00 5.8 C 5.87 g/m*3 5.8 C 1.6 km/h
2390 12-04-2017 02:30:00 5.7 C 5.84 g/m*3 5.7 C 1.6 km/h
2391 12-04-2017 02:35:00 5.6 C 5.8 g/m*3 5.6 C 1.6 km/h
2392 12-04-2017 02:40:00 5.5 C 5.83 g/m*3 5.5 C 1.6 km/h
2393 12-04-2017 02:45:00 5.4 C 5.79 g/m*3 5.4 C 4.8 km/h
2394 12-04-2017 02:50:00 5.3 C 5.82 g/m*3 3.94 C 6.4 km/h
2395 12-04-2017 02:55:00 5.3 C 5.82 g/m*3 5.3 C 4.8 km/h
2396 12-04-2017 03:00:00 5.3 C 5.82 g/m*3 3.94 C 6.4 km/h
2397 12-04-2017 03:05:00 5.2 C 5.78 g/m*3 5.2 C 3.2 km/h
2398 12-04-2017 03:10:00 5.2 C 5.85 g/m*3 5.2 C 3.2 km/h
2399 12-04-2017 03:15:00 5.2 C 5.85 g/m*3 5.2 C 3.2 km/h
2400 12-04-2017 03:20:00 5.3 C 5.89 g/m*3 5.3 C 3.2 km/h
Sensor: Nr:Datum:Temp:Abs-Feuchte:Windchill:Wind:
Aussen-T/F 2401 12-04-2017 03:25:00 5.3 C 5.89 g/m*3 5.3 C 1.6 km/h
2402 12-04-2017 03:30:00 5.3 C 5.89 g/m*3 3.94 C 6.4 km/h
2403 12-04-2017 03:35:00 5.5 C 5.97 g/m*3 4.17 C 6.4 km/h
2404 12-04-2017 03:40:00 5.6 C 5.94 g/m*3 4.29 C 6.4 km/h
2405 12-04-2017 03:45:00 5.7 C 5.98 g/m*3 5.7 C 1.6 km/h
2406 12-04-2017 03:50:00 5.7 C 5.98 g/m*3 5.7 C 4.8 km/h
2407 12-04-2017 03:55:00 5.7 C 5.98 g/m*3 5.7 C 4.8 km/h
2408 12-04-2017 04:00:00 5.7 C 5.98 g/m*3 5.7 C 3.2 km/h
2409 12-04-2017 04:05:00 5.7 C 5.98 g/m*3 5.7 C 1.6 km/h
2410 12-04-2017 04:10:00 5.6 C 5.94 g/m*3 5.6 C 1.6 km/h
2411 12-04-2017 04:15:00 5.6 C 5.94 g/m*3 5.6 C 4.8 km/h
2412 12-04-2017 04:20:00 5.6 C 5.94 g/m*3 5.6 C 1.6 km/h
2413 12-04-2017 04:25:00 5.5 C 5.9 g/m*3 5.5 C 1.6 km/h
2414 12-04-2017 04:30:00 5.4 C 5.86 g/m*3 5.4 C 3.2 km/h
2415 12-04-2017 04:35:00 5.4 C 5.86 g/m*3 5.4 C 3.2 km/h
2416 12-04-2017 04:40:00 5.4 C 5.86 g/m*3 4.06 C 6.4 km/h
2417 12-04-2017 04:45:00 5.4 C 5.86 g/m*3 4.06 C 6.4 km/h
2418 12-04-2017 04:50:00 5.3 C 5.82 g/m*3 3.94 C 6.4 km/h
2419 12-04-2017 04:55:00 5.3 C 5.82 g/m*3 3.94 C 6.4 km/h
2420 12-04-2017 05:00:00 5.3 C 5.82 g/m*3 5.3 C 3.2 km/h
2421 12-04-2017 05:05:00 5.2 C 5.78 g/m*3 5.2 C 4.8 km/h
2422 12-04-2017 05:10:00 5.2 C 5.78 g/m*3 2.96 C 9.7 km/h
2423 12-04-2017 05:15:00 5.2 C 5.85 g/m*3 3.82 C 6.4 km/h
2424 12-04-2017 05:20:00 5.2 C 5.85 g/m*3 5.2 C 4.8 km/h
2425 12-04-2017 05:25:00 5.1 C 5.81 g/m*3 5.1 C 3.2 km/h
Sensor: Nr:Datum:Temp:Abs-Feuchte:Windchill:Wind:
Aussen-T/F 2426 12-04-2017 05:30:00 5 C 5.78 g/m*3 5 C 3.2 km/h
2427 12-04-2017 05:35:00 4.9 C 5.74 g/m*3 2.99 C 8.1 km/h
2428 12-04-2017 05:40:00 4.9 C 5.74 g/m*3 2.61 C 9.7 km/h
2429 12-04-2017 05:45:00 4.8 C 5.7 g/m*3 4.8 C 0 km/h
2430 12-04-2017 05:50:00 4.8 C 5.77 g/m*3 4.8 C 1.6 km/h
2431 12-04-2017 05:55:00 4.7 C 5.73 g/m*3 4.7 C 0 km/h
2432 12-04-2017 06:00:00 4.7 C 5.73 g/m*3 4.7 C 0 km/h
2433 12-04-2017 06:05:00 4.6 C 5.69 g/m*3 4.6 C 1.6 km/h
2434 12-04-2017 06:10:00 4.6 C 5.76 g/m*3 4.6 C 1.6 km/h
2435 12-04-2017 06:15:00 4.6 C 5.76 g/m*3 3.13 C 6.4 km/h
2436 12-04-2017 06:20:00 4.7 C 5.8 g/m*3 3.25 C 6.4 km/h
2437 12-04-2017 06:25:00 4.7 C 5.73 g/m*3 4.7 C 1.6 km/h
2438 12-04-2017 06:30:00 4.7 C 5.73 g/m*3 3.25 C 6.4 km/h
2439 12-04-2017 06:35:00 4.7 C 5.73 g/m*3 4.7 C 4.8 km/h
2440 12-04-2017 06:40:00 4.6 C 5.69 g/m*3 4.6 C 3.2 km/h
2441 12-04-2017 06:45:00 4.6 C 5.76 g/m*3 4.6 C 4.8 km/h
2442 12-04-2017 06:50:00 4.6 C 5.76 g/m*3 4.6 C 1.6 km/h
2443 12-04-2017 06:55:00 4.6 C 5.76 g/m*3 4.6 C 4.8 km/h
2444 12-04-2017 07:00:00 4.6 C 5.76 g/m*3 4.6 C 1.6 km/h
2445 12-04-2017 07:05:00 4.6 C 5.82 g/m*3 4.6 C 3.2 km/h
2446 12-04-2017 07:10:00 4.6 C 5.82 g/m*3 4.6 C 3.2 km/h
2447 12-04-2017 07:15:00 4.7 C 5.86 g/m*3 4.7 C 1.6 km/h
2448 12-04-2017 07:20:00 4.8 C 5.9 g/m*3 4.8 C 0 km/h
2449 12-04-2017 07:25:00 4.8 C 5.83 g/m*3 4.8 C 0 km/h
2450 12-04-2017 07:30:00 4.9 C 5.87 g/m*3 4.9 C 0 km/h
Sensor: Nr:Datum:Temp:Abs-Feuchte:Windchill:Wind:
Aussen-T/F 2451 12-04-2017 07:35:00 4.9 C 5.87 g/m*3 4.9 C 1.6 km/h
2452 12-04-2017 07:40:00 5 C 5.91 g/m*3 5 C 0 km/h
2453 12-04-2017 07:45:00 5.1 C 6.02 g/m*3 5.1 C 0 km/h
2454 12-04-2017 07:50:00 5.2 C 5.99 g/m*3 5.2 C 3.2 km/h
2455 12-04-2017 07:55:00 5.3 C 6.03 g/m*3 5.3 C 0 km/h
2456 12-04-2017 08:00:00 5.4 C 6.14 g/m*3 5.4 C 3.2 km/h
2457 12-04-2017 08:05:00 5.6 C 6.15 g/m*3 5.6 C 3.2 km/h
2458 12-04-2017 08:10:00 5.8 C 6.16 g/m*3 4.52 C 6.4 km/h
2459 12-04-2017 08:15:00 6.1 C 6.28 g/m*3 6.1 C 1.6 km/h
2460 12-04-2017 08:20:00 6.3 C 6.29 g/m*3 3.68 C 12.9 km/h
2461 12-04-2017 08:25:00 6.6 C 6.34 g/m*3 4.99 C 8.1 km/h
2462 12-04-2017 08:30:00 6.8 C 6.27 g/m*3 4.56 C 11.3 km/h
2463 12-04-2017 08:35:00 7 C 6.28 g/m*3 4.8 C 11.3 km/h
2464 12-04-2017 08:40:00 7.2 C 6.28 g/m*3 5.04 C 11.3 km/h
2465 12-04-2017 08:45:00 7.2 C 6.28 g/m*3 4.77 C 12.9 km/h
2466 12-04-2017 08:50:00 7.3 C 6.24 g/m*3 4.66 C 14.5 km/h
2467 12-04-2017 08:55:00 7.6 C 6.36 g/m*3 5.53 C 11.3 km/h
2468 12-04-2017 09:00:00 7.7 C 6.41 g/m*3 5.65 C 11.3 km/h
2469 12-04-2017 09:05:00 7.8 C 6.37 g/m*3 5.77 C 11.3 km/h
2470 12-04-2017 09:10:00 8 C 6.37 g/m*3 6.01 C 11.3 km/h
2471 12-04-2017 09:15:00 8.2 C 6.53 g/m*3 6.54 C 9.7 km/h
2472 12-04-2017 09:20:00 8.4 C 6.53 g/m*3 6.24 C 12.9 km/h
2473 12-04-2017 09:25:00 8.6 C 6.44 g/m*3 6.25 C 14.5 km/h
2474 12-04-2017 09:30:00 8.8 C 6.53 g/m*3 6.72 C 12.9 km/h
2475 12-04-2017 09:35:00 8.9 C 6.57 g/m*3 7.09 C 11.3 km/h
Sensor: Nr:Datum:Temp:Abs-Feuchte:Windchill:Wind:
Aussen-T/F 2476 12-04-2017 09:40:00 9.1 C 6.65 g/m*3 7.61 C 9.7 km/h
2477 12-04-2017 09:45:00 9.3 C 6.65 g/m*3 8.16 C 8.1 km/h
2478 12-04-2017 09:50:00 9.4 C 6.6 g/m*3 7.7 C 11.3 km/h
2479 12-04-2017 09:55:00 9.6 C 6.6 g/m*3 7.94 C 11.3 km/h
2480 12-04-2017 10:00:00 9.8 C 6.59 g/m*3 8.18 C 11.3 km/h
2481 12-04-2017 10:05:00 9.9 C 6.63 g/m*3 8.3 C 11.3 km/h
2482 12-04-2017 10:10:00 10.1 C 6.52 g/m*3 8.31 C 12.9 km/h
2483 12-04-2017 10:15:00 10.2 C 6.66 g/m*3 8.66 C 11.3 km/h
2484 12-04-2017 10:20:00 10.3 C 6.51 g/m*3 9.04 C 9.7 km/h
2485 12-04-2017 10:25:00 10.3 C 6.51 g/m*3 8.55 C 12.9 km/h
2486 12-04-2017 10:30:00 10.3 C 6.42 g/m*3 8.55 C 12.9 km/h
2487 12-04-2017 10:35:00 10.5 C 6.5 g/m*3 9.28 C 9.7 km/h
2488 12-04-2017 10:40:00 10.7 C 6.48 g/m*3 9.26 C 11.3 km/h
2489 12-04-2017 10:45:00 10.9 C 6.47 g/m*3 9.08 C 14.5 km/h
2490 12-04-2017 10:50:00 11.1 C 6.55 g/m*3 11.1 C 9.7 km/h
2491 12-04-2017 10:55:00 11.3 C 6.53 g/m*3 11.3 C 9.7 km/h
2492 12-04-2017 11:00:00 11.5 C 6.61 g/m*3 11.5 C 14.5 km/h
2493 12-04-2017 11:05:00 11.7 C 6.59 g/m*3 11.7 C 9.7 km/h
2494 12-04-2017 11:10:00 11.9 C 6.67 g/m*3 11.9 C 8.1 km/h
2495 12-04-2017 11:15:00 12.1 C 6.76 g/m*3 12.1 C 9.7 km/h
2496 12-04-2017 11:20:00 12.2 C 6.69 g/m*3 12.2 C 11.3 km/h
2497 12-04-2017 11:25:00 12.4 C 6.77 g/m*3 12.4 C 3.2 km/h
2498 12-04-2017 11:30:00 12.6 C 6.75 g/m*3 12.6 C 8.1 km/h
2499 12-04-2017 11:35:00 12.7 C 6.79 g/m*3 12.7 C 11.3 km/h
2500 12-04-2017 11:40:00 12.9 C 6.88 g/m*3 12.9 C 11.3 km/h
Sensor: Nr:Datum:Temp:Abs-Feuchte:Windchill:Wind:
Aussen-T/F 2501 12-04-2017 11:45:00 13.1 C 6.85 g/m*3 13.1 C 11.3 km/h
2502 12-04-2017 11:50:00 13.3 C 6.82 g/m*3 13.3 C 11.3 km/h
2503 12-04-2017 11:55:00 13.5 C 6.9 g/m*3 13.5 C 11.3 km/h
2504 12-04-2017 12:00:00 13.7 C 6.99 g/m*3 13.7 C 12.9 km/h
2505 12-04-2017 12:05:00 13.9 C 6.95 g/m*3 13.9 C 11.3 km/h
2506 12-04-2017 12:10:00 14.1 C 6.92 g/m*3 14.1 C 12.9 km/h
2507 12-04-2017 12:15:00 14.3 C 7 g/m*3 14.3 C 12.9 km/h
2508 12-04-2017 12:20:00 14.6 C 7.01 g/m*3 14.6 C 14.5 km/h
2509 12-04-2017 12:25:00 14.8 C 6.97 g/m*3 14.8 C 12.9 km/h
2510 12-04-2017 12:30:00 14.9 C 6.75 g/m*3 14.9 C 14.5 km/h
2511 12-04-2017 12:35:00 15 C 6.8 g/m*3 15 C 12.9 km/h
2512 12-04-2017 12:40:00 15.1 C 6.84 g/m*3 15.1 C 19.3 km/h
2513 12-04-2017 12:45:00 15.2 C 6.88 g/m*3 15.2 C 14.5 km/h
2514 12-04-2017 12:50:00 15.3 C 7.05 g/m*3 15.3 C 9.7 km/h
2515 12-04-2017 12:55:00 15.4 C 7.09 g/m*3 15.4 C 14.5 km/h
2516 12-04-2017 13:00:00 15.6 C 7.05 g/m*3 15.6 C 14.5 km/h
2517 12-04-2017 13:05:00 15.8 C 7.13 g/m*3 15.8 C 12.9 km/h
2518 12-04-2017 13:10:00 16.1 C 7.13 g/m*3 16.1 C 16.1 km/h
2519 12-04-2017 13:15:00 16.4 C 7.26 g/m*3 16.4 C 11.3 km/h
2520 12-04-2017 13:20:00 16.6 C 7.35 g/m*3 16.6 C 11.3 km/h
2521 12-04-2017 13:25:00 16.8 C 7.29 g/m*3 16.8 C 17.7 km/h
2522 12-04-2017 13:30:00 16.9 C 7.19 g/m*3 16.9 C 12.9 km/h
2523 12-04-2017 13:35:00 16.9 C 7.34 g/m*3 16.9 C 17.7 km/h
2524 12-04-2017 13:40:00 17 C 7.38 g/m*3 17 C 16.1 km/h
2525 12-04-2017 13:45:00 17 C 7.38 g/m*3 17 C 12.9 km/h
Sensor: Nr:Datum:Temp:Abs-Feuchte:Windchill:Wind:
Aussen-T/F 2526 12-04-2017 13:50:00 17.1 C 7.42 g/m*3 17.1 C 14.5 km/h
2527 12-04-2017 13:55:00 17.2 C 7.47 g/m*3 17.2 C 17.7 km/h
2528 12-04-2017 14:00:00 17.4 C 7.41 g/m*3 17.4 C 17.7 km/h
2529 12-04-2017 14:05:00 17.6 C 7.35 g/m*3 17.6 C 17.7 km/h
2530 12-04-2017 14:10:00 17.7 C 7.39 g/m*3 17.7 C 16.1 km/h
2531 12-04-2017 14:15:00 17.7 C 7.24 g/m*3 17.7 C 19.3 km/h
2532 12-04-2017 14:20:00 17.8 C 7.44 g/m*3 17.8 C 16.1 km/h
2533 12-04-2017 14:25:00 17.8 C 7.59 g/m*3 17.8 C 14.5 km/h
2534 12-04-2017 14:30:00 17.9 C 7.63 g/m*3 17.9 C 14.5 km/h
2535 12-04-2017 14:35:00 17.8 C 7.44 g/m*3 17.8 C 12.9 km/h
2536 12-04-2017 14:40:00 17.9 C 7.48 g/m*3 17.9 C 14.5 km/h
2537 12-04-2017 14:45:00 17.9 C 7.48 g/m*3 17.9 C 16.1 km/h
2538 12-04-2017 14:50:00 17.8 C 7.13 g/m*3 17.8 C 17.7 km/h
2539 12-04-2017 14:55:00 17.8 C 7.13 g/m*3 17.8 C 14.5 km/h
2540 12-04-2017 15:00:00 17.8 C 7.44 g/m*3 17.8 C 9.7 km/h
2541 12-04-2017 15:05:00 17.9 C 7.33 g/m*3 17.9 C 14.5 km/h
2542 12-04-2017 15:10:00 17.8 C 7.13 g/m*3 17.8 C 17.7 km/h
2543 12-04-2017 15:15:00 17.8 C 7.44 g/m*3 17.8 C 11.3 km/h
2544 12-04-2017 15:20:00 17.8 C 7.13 g/m*3 17.8 C 17.7 km/h
2545 12-04-2017 15:25:00 17.7 C 7.09 g/m*3 17.7 C 20.9 km/h
2546 12-04-2017 15:30:00 17.7 C 7.24 g/m*3 17.7 C 16.1 km/h
2547 12-04-2017 15:35:00 17.7 C 7.24 g/m*3 17.7 C 19.3 km/h
2548 12-04-2017 15:40:00 17.7 C 7.39 g/m*3 17.7 C 17.7 km/h
2549 12-04-2017 15:45:00 17.7 C 7.24 g/m*3 17.7 C 19.3 km/h
2550 12-04-2017 15:50:00 17.7 C 7.24 g/m*3 17.7 C 11.3 km/h
Sensor: Nr:Datum:Temp:Abs-Feuchte:Windchill:Wind:
Aussen-T/F 2551 12-04-2017 15:55:00 17.7 C 7.24 g/m*3 17.7 C 11.3 km/h
2552 12-04-2017 16:00:00 17.6 C 7.05 g/m*3 17.6 C 16.1 km/h
2553 12-04-2017 16:05:00 17.5 C 7.16 g/m*3 17.5 C 20.9 km/h
2554 12-04-2017 16:10:00 17.6 C 7.2 g/m*3 17.6 C 16.1 km/h
2555 12-04-2017 16:15:00 17.5 C 7.01 g/m*3 17.5 C 20.9 km/h
2556 12-04-2017 16:20:00 17.5 C 7.16 g/m*3 17.5 C 16.1 km/h
2557 12-04-2017 16:25:00 17.4 C 7.11 g/m*3 17.4 C 14.5 km/h
2558 12-04-2017 16:30:00 17.3 C 7.07 g/m*3 17.3 C 16.1 km/h
2559 12-04-2017 16:35:00 17.2 C 7.18 g/m*3 17.2 C 17.7 km/h
2560 12-04-2017 16:40:00 17.1 C 7.28 g/m*3 17.1 C 19.3 km/h
2561 12-04-2017 16:45:00 17.1 C 7.13 g/m*3 17.1 C 17.7 km/h
2562 12-04-2017 16:50:00 17 C 7.09 g/m*3 17 C 14.5 km/h
2563 12-04-2017 16:55:00 17.1 C 7.13 g/m*3 17.1 C 14.5 km/h
2564 12-04-2017 17:00:00 17.2 C 7.03 g/m*3 17.2 C 17.7 km/h
2565 12-04-2017 17:05:00 17.2 C 7.18 g/m*3 17.2 C 16.1 km/h
2566 12-04-2017 17:10:00 17.1 C 6.99 g/m*3 17.1 C 14.5 km/h
2567 12-04-2017 17:15:00 17.1 C 7.28 g/m*3 17.1 C 9.7 km/h
2568 12-04-2017 17:20:00 17.2 C 7.18 g/m*3 17.2 C 11.3 km/h
2569 12-04-2017 17:25:00 17.2 C 7.18 g/m*3 17.2 C 11.3 km/h
2570 12-04-2017 17:30:00 17.2 C 7.18 g/m*3 17.2 C 11.3 km/h
2571 12-04-2017 17:35:00 17.2 C 7.03 g/m*3 17.2 C 14.5 km/h
2572 12-04-2017 17:40:00 17.2 C 6.88 g/m*3 17.2 C 14.5 km/h
2573 12-04-2017 17:45:00 17.2 C 7.18 g/m*3 17.2 C 14.5 km/h
2574 12-04-2017 17:50:00 17.2 C 7.03 g/m*3 17.2 C 9.7 km/h
2575 12-04-2017 17:55:00 17.3 C 7.22 g/m*3 17.3 C 12.9 km/h
Sensor: Nr:Datum:Temp:Abs-Feuchte:Windchill:Wind:
Aussen-T/F 2576 12-04-2017 18:00:00 17.3 C 7.37 g/m*3 17.3 C 9.7 km/h
2577 12-04-2017 18:05:00 17.4 C 7.26 g/m*3 17.4 C 9.7 km/h
2578 12-04-2017 18:10:00 17.4 C 7.41 g/m*3 17.4 C 11.3 km/h
2579 12-04-2017 18:15:00 17.5 C 7.45 g/m*3 17.5 C 4.8 km/h
2580 12-04-2017 18:20:00 17.5 C 7.45 g/m*3 17.5 C 6.4 km/h
2581 12-04-2017 18:25:00 17.4 C 7.41 g/m*3 17.4 C 8.1 km/h
2582 12-04-2017 18:30:00 17.4 C 7.56 g/m*3 17.4 C 11.3 km/h
2583 12-04-2017 18:35:00 17.5 C 7.6 g/m*3 17.5 C 6.4 km/h
2584 12-04-2017 18:40:00 17.6 C 7.65 g/m*3 17.6 C 8.1 km/h
2585 12-04-2017 18:45:00 17.7 C 7.54 g/m*3 17.7 C 9.7 km/h
2586 12-04-2017 18:50:00 17.7 C 7.24 g/m*3 17.7 C 9.7 km/h
2587 12-04-2017 18:55:00 17.6 C 7.2 g/m*3 17.6 C 14.5 km/h
2588 12-04-2017 19:00:00 17.4 C 7.26 g/m*3 17.4 C 16.1 km/h
2589 12-04-2017 19:05:00 17.3 C 7.07 g/m*3 17.3 C 9.7 km/h
2590 12-04-2017 19:10:00 17.3 C 7.22 g/m*3 17.3 C 16.1 km/h
2591 12-04-2017 19:15:00 17.6 C 7.35 g/m*3 17.6 C 17.7 km/h
2592 12-04-2017 19:20:00 17.4 C 7.41 g/m*3 17.4 C 11.3 km/h
2593 12-04-2017 19:25:00 17.2 C 7.32 g/m*3 17.2 C 14.5 km/h
2594 12-04-2017 19:30:00 17 C 7.38 g/m*3 17 C 9.7 km/h
2595 12-04-2017 19:35:00 16.9 C 7.34 g/m*3 16.9 C 11.3 km/h
2596 12-04-2017 19:40:00 16.8 C 7.43 g/m*3 16.8 C 11.3 km/h
2597 12-04-2017 19:45:00 16.7 C 7.25 g/m*3 16.7 C 14.5 km/h
2598 12-04-2017 19:50:00 16.7 C 7.39 g/m*3 16.7 C 9.7 km/h
2599 12-04-2017 19:55:00 16.5 C 7.02 g/m*3 16.5 C 9.7 km/h
2600 12-04-2017 20:00:00 16.3 C 6.8 g/m*3 16.3 C 6.4 km/h
Sensor: Nr:Datum:Temp:Abs-Feuchte:Windchill:Wind:
Aussen-T/F 2601 12-04-2017 20:05:00 16.1 C 6.85 g/m*3 16.1 C 6.4 km/h
2602 12-04-2017 20:10:00 15.9 C 7.18 g/m*3 15.9 C 4.8 km/h
2603 12-04-2017 20:15:00 15.6 C 7.18 g/m*3 15.6 C 0 km/h
2604 12-04-2017 20:20:00 15.3 C 7.18 g/m*3 15.3 C 1.6 km/h
2605 12-04-2017 20:25:00 15.1 C 6.58 g/m*3 15.1 C 11.3 km/h
2606 12-04-2017 20:30:00 15.1 C 6.71 g/m*3 15.1 C 4.8 km/h
2607 12-04-2017 20:35:00 15.2 C 6.62 g/m*3 15.2 C 11.3 km/h
2608 12-04-2017 20:40:00 15.3 C 6.53 g/m*3 15.3 C 9.7 km/h
2609 12-04-2017 20:45:00 15.4 C 6.44 g/m*3 15.4 C 9.7 km/h
2610 12-04-2017 20:50:00 15.5 C 6.48 g/m*3 15.5 C 9.7 km/h
2611 12-04-2017 20:55:00 15.5 C 6.61 g/m*3 15.5 C 6.4 km/h
2612 12-04-2017 21:00:00 15.5 C 6.61 g/m*3 15.5 C 11.3 km/h
2613 12-04-2017 21:05:00 15.4 C 6.57 g/m*3 15.4 C 14.5 km/h
2614 12-04-2017 21:10:00 15.5 C 6.74 g/m*3 15.5 C 11.3 km/h
2615 12-04-2017 21:15:00 15.5 C 7.01 g/m*3 15.5 C 12.9 km/h
2616 12-04-2017 21:20:00 15.3 C 7.57 g/m*3 15.3 C 8.1 km/h
2617 12-04-2017 21:25:00 14.8 C 7.73 g/m*3 14.8 C 16.1 km/h
2618 12-04-2017 21:30:00 14.4 C 7.79 g/m*3 14.4 C 14.5 km/h
2619 12-04-2017 21:35:00 14.1 C 7.89 g/m*3 14.1 C 11.3 km/h
2620 12-04-2017 21:40:00 13.8 C 7.86 g/m*3 13.8 C 22.5 km/h
2621 12-04-2017 21:45:00 13.6 C 7.89 g/m*3 13.6 C 14.5 km/h
2622 12-04-2017 21:50:00 13.3 C 7.86 g/m*3 13.3 C 12.9 km/h
2623 12-04-2017 21:55:00 13.2 C 7.92 g/m*3 13.2 C 16.1 km/h
2624 12-04-2017 22:00:00 13 C 7.94 g/m*3 13 C 16.1 km/h
2625 12-04-2017 22:05:00 12.9 C 7.89 g/m*3 12.9 C 14.5 km/h
Sensor: Nr:Datum:Temp:Abs-Feuchte:Windchill:Wind:
Aussen-T/F 2626 12-04-2017 22:10:00 12.8 C 7.95 g/m*3 12.8 C 14.5 km/h
2627 12-04-2017 22:15:00 12.7 C 7.9 g/m*3 12.7 C 11.3 km/h
2628 12-04-2017 22:20:00 12.5 C 7.81 g/m*3 12.5 C 11.3 km/h
2629 12-04-2017 22:25:00 12.4 C 7.87 g/m*3 12.4 C 14.5 km/h
2630 12-04-2017 22:30:00 12.2 C 7.77 g/m*3 12.2 C 11.3 km/h
2631 12-04-2017 22:35:00 12.1 C 7.83 g/m*3 12.1 C 9.7 km/h
2632 12-04-2017 22:40:00 12.1 C 7.83 g/m*3 12.1 C 11.3 km/h
2633 12-04-2017 22:45:00 11.9 C 7.73 g/m*3 11.9 C 8.1 km/h
2634 12-04-2017 22:50:00 11.9 C 7.73 g/m*3 11.9 C 8.1 km/h
2635 12-04-2017 22:55:00 11.8 C 7.79 g/m*3 11.8 C 9.7 km/h
2636 12-04-2017 23:00:00 11.8 C 7.79 g/m*3 11.8 C 12.9 km/h
2637 12-04-2017 23:05:00 11.7 C 7.74 g/m*3 11.7 C 12.9 km/h
2638 12-04-2017 23:10:00 11.7 C 7.74 g/m*3 11.7 C 6.4 km/h
2639 12-04-2017 23:15:00 11.7 C 7.74 g/m*3 11.7 C 3.2 km/h
2640 12-04-2017 23:20:00 11.6 C 7.69 g/m*3 11.6 C 6.4 km/h
2641 12-04-2017 23:25:00 11.6 C 7.8 g/m*3 11.6 C 9.7 km/h
2642 12-04-2017 23:30:00 11.5 C 7.75 g/m*3 11.5 C 6.4 km/h
2643 12-04-2017 23:35:00 11.5 C 7.85 g/m*3 11.5 C 8.1 km/h
2644 12-04-2017 23:40:00 11.4 C 7.8 g/m*3 11.4 C 8.1 km/h
2645 12-04-2017 23:45:00 11.3 C 7.75 g/m*3 11.3 C 6.4 km/h
2646 12-04-2017 23:50:00 11.3 C 7.85 g/m*3 11.3 C 8.1 km/h
2647 12-04-2017 23:55:00 11.3 C 7.85 g/m*3 11.3 C 9.7 km/h
2648 13-04-2017 00:00:00 11.2 C 7.8 g/m*3 11.2 C 4.8 km/h
2649 13-04-2017 00:05:00 11.2 C 7.8 g/m*3 11.2 C 8.1 km/h
2650 13-04-2017 00:10:00 11.2 C 7.8 g/m*3 11.2 C 6.4 km/h
Sensor: Nr:Datum:Temp:Abs-Feuchte:Windchill:Wind:
Aussen-T/F 2651 13-04-2017 00:15:00 11.2 C 7.8 g/m*3 11.2 C 11.3 km/h
2652 13-04-2017 00:20:00 11.2 C 7.8 g/m*3 11.2 C 11.3 km/h
2653 13-04-2017 00:25:00 11.1 C 7.76 g/m*3 11.1 C 3.2 km/h
2654 13-04-2017 00:30:00 11.1 C 7.76 g/m*3 11.1 C 1.6 km/h
2655 13-04-2017 00:35:00 11.1 C 7.76 g/m*3 11.1 C 1.6 km/h
2656 13-04-2017 00:40:00 11 C 7.71 g/m*3 11 C 1.6 km/h
2657 13-04-2017 00:45:00 10.9 C 7.66 g/m*3 10.9 C 0 km/h
2658 13-04-2017 00:50:00 10.8 C 7.51 g/m*3 10.8 C 1.6 km/h
2659 13-04-2017 00:55:00 10.8 C 7.41 g/m*3 10.29 C 6.4 km/h
2660 13-04-2017 01:00:00 10.8 C 7.31 g/m*3 10.8 C 1.6 km/h
2661 13-04-2017 01:05:00 10.8 C 7.22 g/m*3 10.29 C 6.4 km/h
2662 13-04-2017 01:10:00 10.8 C 7.22 g/m*3 10.8 C 4.8 km/h
2663 13-04-2017 01:15:00 10.8 C 7.22 g/m*3 10.8 C 3.2 km/h
2664 13-04-2017 01:20:00 10.8 C 7.22 g/m*3 10.8 C 1.6 km/h
2665 13-04-2017 01:25:00 10.8 C 7.22 g/m*3 10.8 C 1.6 km/h
2666 13-04-2017 01:30:00 10.8 C 7.22 g/m*3 10.8 C 1.6 km/h
2667 13-04-2017 01:35:00 10.8 C 7.31 g/m*3 10.8 C 1.6 km/h
2668 13-04-2017 01:40:00 10.7 C 7.27 g/m*3 10.7 C 1.6 km/h
2669 13-04-2017 01:45:00 10.7 C 7.27 g/m*3 10.7 C 3.2 km/h
2670 13-04-2017 01:50:00 10.7 C 7.27 g/m*3 10.7 C 1.6 km/h
2671 13-04-2017 01:55:00 10.7 C 7.27 g/m*3 10.7 C 1.6 km/h
2672 13-04-2017 02:00:00 10.7 C 7.27 g/m*3 10.7 C 1.6 km/h
2673 13-04-2017 02:05:00 10.6 C 7.22 g/m*3 10.6 C 3.2 km/h
2674 13-04-2017 02:10:00 10.6 C 7.22 g/m*3 10.6 C 1.6 km/h
2675 13-04-2017 02:15:00 10.6 C 7.22 g/m*3 10.6 C 4.8 km/h
Sensor: Nr:Datum:Temp:Abs-Feuchte:Windchill:Wind:
Aussen-T/F 2676 13-04-2017 02:20:00 10.6 C 7.22 g/m*3 10.6 C 1.6 km/h
2677 13-04-2017 02:25:00 10.5 C 7.18 g/m*3 10.5 C 1.6 km/h
2678 13-04-2017 02:30:00 10.5 C 7.27 g/m*3 10.5 C 1.6 km/h
2679 13-04-2017 02:35:00 10.5 C 7.27 g/m*3 10.5 C 3.2 km/h
2680 13-04-2017 02:40:00 10.5 C 7.27 g/m*3 10.5 C 1.6 km/h
2681 13-04-2017 02:45:00 10.4 C 7.23 g/m*3 10.4 C 1.6 km/h
2682 13-04-2017 02:50:00 10.4 C 7.23 g/m*3 10.4 C 3.2 km/h
2683 13-04-2017 02:55:00 10.4 C 7.23 g/m*3 10.4 C 1.6 km/h
2684 13-04-2017 03:00:00 10.4 C 7.23 g/m*3 9.83 C 6.4 km/h
2685 13-04-2017 03:05:00 10.4 C 7.23 g/m*3 9.83 C 6.4 km/h
2686 13-04-2017 03:10:00 10.4 C 7.23 g/m*3 9.83 C 6.4 km/h
2687 13-04-2017 03:15:00 10.5 C 7.27 g/m*3 9.95 C 6.4 km/h
2688 13-04-2017 03:20:00 10.5 C 7.27 g/m*3 10.5 C 4.8 km/h
2689 13-04-2017 03:25:00 10.5 C 7.27 g/m*3 9.02 C 11.3 km/h
2690 13-04-2017 03:30:00 10.4 C 7.32 g/m*3 9.83 C 6.4 km/h
2691 13-04-2017 03:35:00 10.4 C 7.32 g/m*3 9.83 C 6.4 km/h
2692 13-04-2017 03:40:00 10.3 C 7.37 g/m*3 10.3 C 1.6 km/h
2693 13-04-2017 03:45:00 10.2 C 7.33 g/m*3 10.2 C 1.6 km/h
2694 13-04-2017 03:50:00 10 C 7.33 g/m*3 10 C 3.2 km/h
2695 13-04-2017 03:55:00 9.8 C 7.33 g/m*3 9.8 C 1.6 km/h
2696 13-04-2017 04:00:00 9.7 C 7.28 g/m*3 9.7 C 3.2 km/h
2697 13-04-2017 04:05:00 9.6 C 7.33 g/m*3 9.6 C 4.8 km/h
2698 13-04-2017 04:10:00 9.6 C 7.33 g/m*3 8.91 C 6.4 km/h
2699 13-04-2017 04:15:00 9.5 C 7.28 g/m*3 9.5 C 4.8 km/h
2700 13-04-2017 04:20:00 9.5 C 7.28 g/m*3 9.5 C 3.2 km/h
Sensor: Nr:Datum:Temp:Abs-Feuchte:Windchill:Wind:
Aussen-T/F 2701 13-04-2017 04:25:00 9.4 C 7.24 g/m*3 9.4 C 3.2 km/h
2702 13-04-2017 04:30:00 9.4 C 7.33 g/m*3 9.4 C 1.6 km/h
2703 13-04-2017 04:35:00 9.4 C 7.33 g/m*3 9.4 C 4.8 km/h
2704 13-04-2017 04:40:00 9.5 C 7.37 g/m*3 9.5 C 4.8 km/h
2705 13-04-2017 04:45:00 9.6 C 7.42 g/m*3 8.91 C 6.4 km/h
2706 13-04-2017 04:50:00 9.6 C 7.33 g/m*3 8.21 C 9.7 km/h
2707 13-04-2017 04:55:00 9.7 C 7.38 g/m*3 9.7 C 3.2 km/h
2708 13-04-2017 05:00:00 9.7 C 7.38 g/m*3 8.63 C 8.1 km/h
2709 13-04-2017 05:05:00 9.8 C 7.42 g/m*3 9.14 C 6.4 km/h
2710 13-04-2017 05:10:00 9.8 C 7.42 g/m*3 9.8 C 3.2 km/h
2711 13-04-2017 05:15:00 9.8 C 7.42 g/m*3 9.14 C 6.4 km/h
2712 13-04-2017 05:20:00 9.8 C 7.42 g/m*3 8.45 C 9.7 km/h
2713 13-04-2017 05:25:00 9.8 C 7.42 g/m*3 9.14 C 6.4 km/h
2714 13-04-2017 05:30:00 9.9 C 7.47 g/m*3 9.25 C 6.4 km/h
2715 13-04-2017 05:35:00 9.9 C 7.56 g/m*3 9.25 C 6.4 km/h
2716 13-04-2017 05:40:00 9.9 C 7.66 g/m*3 9.9 C 3.2 km/h
2717 13-04-2017 05:45:00 9.9 C 7.84 g/m*3 9.9 C 3.2 km/h
2718 13-04-2017 05:50:00 9.7 C 7.84 g/m*3 9.7 C 3.2 km/h
2719 13-04-2017 05:55:00 9.6 C 7.79 g/m*3 9.6 C 3.2 km/h
2720 13-04-2017 06:00:00 9.4 C 7.78 g/m*3 9.4 C 4.8 km/h
2721 13-04-2017 06:05:00 9.4 C 7.87 g/m*3 9.4 C 3.2 km/h
2722 13-04-2017 06:10:00 9.3 C 7.82 g/m*3 9.3 C 1.6 km/h
2723 13-04-2017 06:15:00 9.3 C 7.82 g/m*3 9.3 C 1.6 km/h
2724 13-04-2017 06:20:00 9.3 C 7.82 g/m*3 9.3 C 0 km/h
2725 13-04-2017 06:25:00 9.3 C 7.82 g/m*3 9.3 C 1.6 km/h
Sensor: Nr:Datum:Temp:Abs-Feuchte:Windchill:Wind:
Aussen-T/F 2726 13-04-2017 06:30:00 9.2 C 7.77 g/m*3 9.2 C 3.2 km/h
2727 13-04-2017 06:35:00 9.2 C 7.77 g/m*3 9.2 C 3.2 km/h
2728 13-04-2017 06:40:00 9.3 C 7.82 g/m*3 9.3 C 3.2 km/h
2729 13-04-2017 06:45:00 9.2 C 7.77 g/m*3 8.05 C 8.1 km/h
2730 13-04-2017 06:50:00 9.2 C 7.68 g/m*3 9.2 C 3.2 km/h
2731 13-04-2017 06:55:00 9.2 C 7.77 g/m*3 9.2 C 3.2 km/h
2732 13-04-2017 07:00:00 9.1 C 7.72 g/m*3 9.1 C 0 km/h
2733 13-04-2017 07:05:00 9.1 C 7.72 g/m*3 9.1 C 0 km/h
2734 13-04-2017 07:10:00 8.9 C 7.53 g/m*3 8.9 C 0 km/h
2735 13-04-2017 07:15:00 8.8 C 7.57 g/m*3 8.8 C 1.6 km/h
2736 13-04-2017 07:20:00 8.8 C 7.57 g/m*3 8.8 C 0 km/h
2737 13-04-2017 07:25:00 8.8 C 7.66 g/m*3 7.98 C 6.4 km/h
2738 13-04-2017 07:30:00 8.8 C 7.75 g/m*3 8.8 C 1.6 km/h
2739 13-04-2017 07:35:00 8.9 C 7.71 g/m*3 8.9 C 4.8 km/h
2740 13-04-2017 07:40:00 8.9 C 7.71 g/m*3 8.1 C 6.4 km/h
2741 13-04-2017 07:45:00 9.1 C 7.81 g/m*3 9.1 C 1.6 km/h
2742 13-04-2017 07:50:00 9.1 C 7.72 g/m*3 7.93 C 8.1 km/h
2743 13-04-2017 07:55:00 9.2 C 7.77 g/m*3 8.45 C 6.4 km/h
2744 13-04-2017 08:00:00 9.3 C 7.82 g/m*3 9.3 C 1.6 km/h
2745 13-04-2017 08:05:00 9.3 C 7.73 g/m*3 8.16 C 8.1 km/h
2746 13-04-2017 08:10:00 9.4 C 7.78 g/m*3 8.28 C 8.1 km/h
2747 13-04-2017 08:15:00 9.5 C 7.83 g/m*3 9.5 C 3.2 km/h
2748 13-04-2017 08:20:00 9.6 C 7.88 g/m*3 9.6 C 4.8 km/h
2749 13-04-2017 08:25:00 9.6 C 7.88 g/m*3 8.91 C 6.4 km/h
2750 13-04-2017 08:30:00 9.7 C 7.93 g/m*3 9.7 C 4.8 km/h
Sensor: Nr:Datum:Temp:Abs-Feuchte:Windchill:Wind:
Aussen-T/F 2751 13-04-2017 08:35:00 9.7 C 7.93 g/m*3 9.02 C 6.4 km/h
2752 13-04-2017 08:40:00 9.8 C 7.89 g/m*3 9.14 C 6.4 km/h
2753 13-04-2017 08:45:00 9.9 C 7.94 g/m*3 9.9 C 4.8 km/h
2754 13-04-2017 08:50:00 9.9 C 7.94 g/m*3 9.9 C 3.2 km/h
2755 13-04-2017 08:55:00 10 C 7.99 g/m*3 9.37 C 6.4 km/h
2756 13-04-2017 09:00:00 10.1 C 8.04 g/m*3 10.1 C 4.8 km/h
2757 13-04-2017 09:05:00 10.2 C 8.09 g/m*3 10.2 C 1.6 km/h
2758 13-04-2017 09:10:00 10.3 C 8.14 g/m*3 10.3 C 4.8 km/h
2759 13-04-2017 09:15:00 10.4 C 8.19 g/m*3 10.4 C 3.2 km/h
2760 13-04-2017 09:20:00 10.5 C 8.15 g/m*3 9.02 C 11.3 km/h
2761 13-04-2017 09:25:00 10.6 C 8.1 g/m*3 10.06 C 6.4 km/h
2762 13-04-2017 09:30:00 10.6 C 8.1 g/m*3 10.6 C 4.8 km/h
2763 13-04-2017 09:35:00 10.7 C 8.05 g/m*3 10.18 C 6.4 km/h
2764 13-04-2017 09:40:00 10.8 C 8.2 g/m*3 10.8 C 4.8 km/h
2765 13-04-2017 09:45:00 10.9 C 8.06 g/m*3 10.04 C 8.1 km/h
2766 13-04-2017 09:50:00 11 C 7.91 g/m*3 10.16 C 8.1 km/h
2767 13-04-2017 09:55:00 11.2 C 8.11 g/m*3 11.2 C 3.2 km/h
2768 13-04-2017 10:00:00 11.3 C 8.06 g/m*3 11.3 C 6.4 km/h
2769 13-04-2017 10:05:00 11.3 C 7.75 g/m*3 11.3 C 8.1 km/h
2770 13-04-2017 10:10:00 11.3 C 7.75 g/m*3 11.3 C 9.7 km/h
2771 13-04-2017 10:15:00 11.2 C 7.7 g/m*3 11.2 C 4.8 km/h
2772 13-04-2017 10:20:00 11.2 C 7.7 g/m*3 11.2 C 4.8 km/h
2773 13-04-2017 10:25:00 11.2 C 7.5 g/m*3 11.2 C 8.1 km/h
2774 13-04-2017 10:30:00 11.3 C 7.34 g/m*3 11.3 C 8.1 km/h
2775 13-04-2017 10:35:00 11.5 C 7.13 g/m*3 11.5 C 12.9 km/h
Sensor: Nr:Datum:Temp:Abs-Feuchte:Windchill:Wind:
Aussen-T/F 2776 13-04-2017 10:40:00 11.9 C 6.88 g/m*3 11.9 C 16.1 km/h
2777 13-04-2017 10:45:00 12.1 C 6.76 g/m*3 12.1 C 20.9 km/h
2778 13-04-2017 10:50:00 12.2 C 6.69 g/m*3 12.2 C 11.3 km/h
2779 13-04-2017 10:55:00 12.4 C 6.77 g/m*3 12.4 C 20.9 km/h
2780 13-04-2017 11:00:00 12.4 C 6.66 g/m*3 12.4 C 14.5 km/h
2781 13-04-2017 11:05:00 12.5 C 6.6 g/m*3 12.5 C 16.1 km/h
2782 13-04-2017 11:10:00 12.6 C 6.53 g/m*3 12.6 C 12.9 km/h
2783 13-04-2017 11:15:00 12.7 C 6.68 g/m*3 12.7 C 16.1 km/h
2784 13-04-2017 11:20:00 12.6 C 6.53 g/m*3 12.6 C 14.5 km/h
2785 13-04-2017 11:25:00 12.6 C 6.64 g/m*3 12.6 C 9.7 km/h
2786 13-04-2017 11:30:00 12.7 C 6.57 g/m*3 12.7 C 11.3 km/h
2787 13-04-2017 11:35:00 12.8 C 6.61 g/m*3 12.8 C 14.5 km/h
2788 13-04-2017 11:40:00 12.8 C 6.72 g/m*3 12.8 C 9.7 km/h
2789 13-04-2017 11:45:00 12.8 C 6.72 g/m*3 12.8 C 11.3 km/h
2790 13-04-2017 11:50:00 12.9 C 6.54 g/m*3 12.9 C 12.9 km/h
2791 13-04-2017 11:55:00 13.1 C 6.62 g/m*3 13.1 C 9.7 km/h
2792 13-04-2017 12:00:00 13.1 C 6.5 g/m*3 13.1 C 9.7 km/h
2793 13-04-2017 12:05:00 13.2 C 6.54 g/m*3 13.2 C 11.3 km/h
2794 13-04-2017 12:10:00 13.3 C 6.7 g/m*3 13.3 C 11.3 km/h
2795 13-04-2017 12:15:00 13.2 C 6.66 g/m*3 13.2 C 19.3 km/h
2796 13-04-2017 12:20:00 13.2 C 6.66 g/m*3 13.2 C 14.5 km/h
2797 13-04-2017 12:25:00 13.2 C 6.66 g/m*3 13.2 C 14.5 km/h
2798 13-04-2017 12:30:00 13.3 C 6.59 g/m*3 13.3 C 12.9 km/h
2799 13-04-2017 12:35:00 13.2 C 6.43 g/m*3 13.2 C 16.1 km/h
2800 13-04-2017 12:40:00 13.1 C 6.39 g/m*3 13.1 C 11.3 km/h
Sensor: Nr:Datum:Temp:Abs-Feuchte:Windchill:Wind:
Aussen-T/F 2801 13-04-2017 12:45:00 12.9 C 6.42 g/m*3 12.9 C 9.7 km/h
2802 13-04-2017 12:50:00 12.7 C 6.35 g/m*3 12.7 C 11.3 km/h
2803 13-04-2017 12:55:00 12.7 C 6.68 g/m*3 12.7 C 11.3 km/h
2804 13-04-2017 13:00:00 12.7 C 6.57 g/m*3 12.7 C 14.5 km/h
2805 13-04-2017 13:05:00 12.7 C 6.57 g/m*3 12.7 C 16.1 km/h
2806 13-04-2017 13:10:00 12.8 C 6.61 g/m*3 12.8 C 8.1 km/h
2807 13-04-2017 13:15:00 12.8 C 6.5 g/m*3 12.8 C 16.1 km/h
2808 13-04-2017 13:20:00 12.9 C 6.65 g/m*3 12.9 C 11.3 km/h
2809 13-04-2017 13:25:00 13 C 6.46 g/m*3 13 C 8.1 km/h
2810 13-04-2017 13:30:00 13.1 C 6.62 g/m*3 13.1 C 14.5 km/h
2811 13-04-2017 13:35:00 13.3 C 6.59 g/m*3 13.3 C 16.1 km/h
2812 13-04-2017 13:40:00 13.4 C 6.63 g/m*3 13.4 C 11.3 km/h
2813 13-04-2017 13:45:00 13.3 C 6.35 g/m*3 13.3 C 12.9 km/h
2814 13-04-2017 13:50:00 13.4 C 6.51 g/m*3 13.4 C 9.7 km/h
2815 13-04-2017 13:55:00 13.6 C 6.59 g/m*3 13.6 C 11.3 km/h
2816 13-04-2017 14:00:00 13.7 C 6.39 g/m*3 13.7 C 9.7 km/h
2817 13-04-2017 14:05:00 13.7 C 6.39 g/m*3 13.7 C 12.9 km/h
2818 13-04-2017 14:10:00 13.7 C 6.39 g/m*3 13.7 C 8.1 km/h
2819 13-04-2017 14:15:00 13.8 C 6.31 g/m*3 13.8 C 9.7 km/h
2820 13-04-2017 14:20:00 14 C 6.39 g/m*3 14 C 9.7 km/h
2821 13-04-2017 14:25:00 14.2 C 6.47 g/m*3 14.2 C 6.4 km/h
2822 13-04-2017 14:30:00 14.3 C 6.27 g/m*3 14.3 C 19.3 km/h
2823 13-04-2017 14:35:00 14.2 C 6.35 g/m*3 14.2 C 16.1 km/h
2824 13-04-2017 14:40:00 14.2 C 6.23 g/m*3 14.2 C 11.3 km/h
2825 13-04-2017 14:45:00 14.2 C 6.23 g/m*3 14.2 C 9.7 km/h
Sensor: Nr:Datum:Temp:Abs-Feuchte:Windchill:Wind:
Aussen-T/F 2826 13-04-2017 14:50:00 14.3 C 6.27 g/m*3 14.3 C 6.4 km/h
2827 13-04-2017 14:55:00 14.3 C 6.14 g/m*3 14.3 C 6.4 km/h
2828 13-04-2017 15:00:00 14.4 C 6.18 g/m*3 14.4 C 8.1 km/h
2829 13-04-2017 15:05:00 14.5 C 6.09 g/m*3 14.5 C 9.7 km/h
2830 13-04-2017 15:10:00 14.4 C 6.43 g/m*3 14.4 C 12.9 km/h
2831 13-04-2017 15:15:00 14.3 C 6.51 g/m*3 14.3 C 8.1 km/h
2832 13-04-2017 15:20:00 13.9 C 6.47 g/m*3 13.9 C 14.5 km/h
2833 13-04-2017 15:25:00 13.7 C 6.51 g/m*3 13.7 C 11.3 km/h
2834 13-04-2017 15:30:00 13.7 C 6.75 g/m*3 13.7 C 8.1 km/h
2835 13-04-2017 15:35:00 13.9 C 6.59 g/m*3 13.9 C 16.1 km/h
2836 13-04-2017 15:40:00 14.1 C 6.67 g/m*3 14.1 C 11.3 km/h
2837 13-04-2017 15:45:00 14.3 C 6.76 g/m*3 14.3 C 9.7 km/h
2838 13-04-2017 15:50:00 14.5 C 6.84 g/m*3 14.5 C 9.7 km/h
2839 13-04-2017 15:55:00 14.6 C 6.76 g/m*3 14.6 C 11.3 km/h
2840 13-04-2017 16:00:00 14.4 C 6.8 g/m*3 14.4 C 11.3 km/h
2841 13-04-2017 16:05:00 14.3 C 6.63 g/m*3 14.3 C 11.3 km/h
2842 13-04-2017 16:10:00 14.3 C 6.76 g/m*3 14.3 C 8.1 km/h
2843 13-04-2017 16:15:00 14.4 C 6.68 g/m*3 14.4 C 8.1 km/h
2844 13-04-2017 16:20:00 14.5 C 6.59 g/m*3 14.5 C 9.7 km/h
2845 13-04-2017 16:25:00 14.5 C 6.59 g/m*3 14.5 C 11.3 km/h
2846 13-04-2017 16:30:00 14.4 C 6.68 g/m*3 14.4 C 4.8 km/h
2847 13-04-2017 16:35:00 14.7 C 6.8 g/m*3 14.7 C 12.9 km/h
2848 13-04-2017 16:40:00 15 C 6.8 g/m*3 15 C 8.1 km/h
2849 13-04-2017 16:45:00 15.2 C 6.88 g/m*3 15.2 C 14.5 km/h
2850 13-04-2017 16:50:00 15.2 C 6.88 g/m*3 15.2 C 9.7 km/h
Sensor: Nr:Datum:Temp:Abs-Feuchte:Windchill:Wind:
Aussen-T/F 2851 13-04-2017 16:55:00 14.8 C 6.71 g/m*3 14.8 C 12.9 km/h
2852 13-04-2017 17:00:00 14.6 C 6.76 g/m*3 14.6 C 12.9 km/h
2853 13-04-2017 17:05:00 14.4 C 6.68 g/m*3 14.4 C 9.7 km/h
2854 13-04-2017 17:10:00 14.2 C 6.47 g/m*3 14.2 C 11.3 km/h
2855 13-04-2017 17:15:00 14.1 C 6.55 g/m*3 14.1 C 6.4 km/h
2856 13-04-2017 17:20:00 14 C 6.63 g/m*3 14 C 6.4 km/h
2857 13-04-2017 17:25:00 14 C 6.51 g/m*3 14 C 8.1 km/h
2858 13-04-2017 17:30:00 14.2 C 6.84 g/m*3 14.2 C 6.4 km/h
2859 13-04-2017 17:35:00 14.6 C 6.76 g/m*3 14.6 C 3.2 km/h
2860 13-04-2017 17:40:00 14.7 C 6.8 g/m*3 14.7 C 8.1 km/h
2861 13-04-2017 17:45:00 14.7 C 6.92 g/m*3 14.7 C 9.7 km/h
2862 13-04-2017 17:50:00 14.6 C 6.63 g/m*3 14.6 C 11.3 km/h
2863 13-04-2017 17:55:00 14.5 C 6.59 g/m*3 14.5 C 8.1 km/h
2864 13-04-2017 18:00:00 14.3 C 6.63 g/m*3 14.3 C 11.3 km/h
2865 13-04-2017 18:05:00 14.1 C 6.55 g/m*3 14.1 C 11.3 km/h
2866 13-04-2017 18:10:00 14 C 6.75 g/m*3 14 C 11.3 km/h
2867 13-04-2017 18:15:00 14.3 C 6.76 g/m*3 14.3 C 11.3 km/h
2868 13-04-2017 18:20:00 14.6 C 6.76 g/m*3 14.6 C 11.3 km/h
2869 13-04-2017 18:25:00 14.7 C 6.55 g/m*3 14.7 C 14.5 km/h
2870 13-04-2017 18:30:00 14.7 C 6.67 g/m*3 14.7 C 8.1 km/h
2871 13-04-2017 18:35:00 14.3 C 6.51 g/m*3 14.3 C 11.3 km/h
2872 13-04-2017 18:40:00 13.9 C 6.47 g/m*3 13.9 C 12.9 km/h
2873 13-04-2017 18:45:00 13.8 C 6.55 g/m*3 13.8 C 11.3 km/h
2874 13-04-2017 18:50:00 13.7 C 6.51 g/m*3 13.7 C 11.3 km/h
2875 13-04-2017 18:55:00 13.6 C 6.47 g/m*3 13.6 C 11.3 km/h
Sensor: Nr:Datum:Temp:Abs-Feuchte:Windchill:Wind:
Aussen-T/F 2876 13-04-2017 19:00:00 13.4 C 6.39 g/m*3 13.4 C 9.7 km/h
2877 13-04-2017 19:05:00 13.4 C 6.39 g/m*3 13.4 C 8.1 km/h
2878 13-04-2017 19:10:00 13.3 C 6.47 g/m*3 13.3 C 8.1 km/h
2879 13-04-2017 19:15:00 13.2 C 6.54 g/m*3 13.2 C 8.1 km/h
2880 13-04-2017 19:20:00 13.2 C 6.43 g/m*3 13.2 C 8.1 km/h
2881 13-04-2017 19:25:00 13.2 C 6.43 g/m*3 13.2 C 6.4 km/h
2882 13-04-2017 19:30:00 13.1 C 6.39 g/m*3 13.1 C 6.4 km/h
2883 13-04-2017 19:35:00 13.1 C 6.5 g/m*3 13.1 C 4.8 km/h
2884 13-04-2017 19:40:00 12.9 C 6.31 g/m*3 12.9 C 4.8 km/h
2885 13-04-2017 19:45:00 12.9 C 6.42 g/m*3 12.9 C 3.2 km/h
2886 13-04-2017 19:50:00 12.8 C 6.5 g/m*3 12.8 C 6.4 km/h
2887 13-04-2017 19:55:00 12.8 C 6.61 g/m*3 12.8 C 4.8 km/h
2888 13-04-2017 20:00:00 12.7 C 6.57 g/m*3 12.7 C 4.8 km/h
2889 13-04-2017 20:05:00 12.6 C 6.31 g/m*3 12.6 C 3.2 km/h
2890 13-04-2017 20:10:00 12.6 C 6.42 g/m*3 12.6 C 1.6 km/h
2891 13-04-2017 20:15:00 12.5 C 6.27 g/m*3 12.5 C 3.2 km/h
2892 13-04-2017 20:20:00 12.4 C 6.34 g/m*3 12.4 C 4.8 km/h
2893 13-04-2017 20:25:00 12.4 C 6.23 g/m*3 12.4 C 4.8 km/h
2894 13-04-2017 20:30:00 12.3 C 6.41 g/m*3 12.3 C 3.2 km/h
2895 13-04-2017 20:35:00 12.3 C 6.3 g/m*3 12.3 C 3.2 km/h
2896 13-04-2017 20:40:00 12.3 C 6.41 g/m*3 12.3 C 3.2 km/h
2897 13-04-2017 20:45:00 12.2 C 6.37 g/m*3 12.2 C 3.2 km/h
2898 13-04-2017 20:50:00 12.2 C 6.26 g/m*3 12.2 C 6.4 km/h
2899 13-04-2017 20:55:00 12.2 C 6.26 g/m*3 12.2 C 4.8 km/h
2900 13-04-2017 21:00:00 12.1 C 6.22 g/m*3 12.1 C 6.4 km/h
Sensor: Nr:Datum:Temp:Abs-Feuchte:Windchill:Wind:
Aussen-T/F 2901 13-04-2017 21:05:00 12.1 C 6.43 g/m*3 12.1 C 8.1 km/h
2902 13-04-2017 21:10:00 12 C 6.18 g/m*3 12 C 6.4 km/h
2903 13-04-2017 21:15:00 11.8 C 6.31 g/m*3 11.8 C 4.8 km/h
2904 13-04-2017 21:20:00 11.6 C 6.34 g/m*3 11.6 C 1.6 km/h
2905 13-04-2017 21:25:00 11.2 C 6.18 g/m*3 11.2 C 6.4 km/h
2906 13-04-2017 21:30:00 11 C 6.41 g/m*3 11 C 1.6 km/h
2907 13-04-2017 21:35:00 10.7 C 6.38 g/m*3 10.7 C 1.6 km/h
2908 13-04-2017 21:40:00 10.4 C 6.36 g/m*3 10.4 C 1.6 km/h
2909 13-04-2017 21:45:00 10.2 C 6.38 g/m*3 10.2 C 3.2 km/h
2910 13-04-2017 21:50:00 10 C 6.48 g/m*3 10 C 0 km/h
2911 13-04-2017 21:55:00 9.9 C 6.54 g/m*3 9.9 C 1.6 km/h
2912 13-04-2017 22:00:00 9.9 C 6.54 g/m*3 9.9 C 0 km/h
2913 13-04-2017 22:05:00 9.8 C 6.49 g/m*3 9.8 C 1.6 km/h
2914 13-04-2017 22:10:00 9.8 C 6.49 g/m*3 9.8 C 1.6 km/h
2915 13-04-2017 22:15:00 9.8 C 6.4 g/m*3 9.8 C 0 km/h
2916 13-04-2017 22:20:00 9.8 C 6.4 g/m*3 9.8 C 1.6 km/h
2917 13-04-2017 22:25:00 9.7 C 6.45 g/m*3 9.7 C 0 km/h
2918 13-04-2017 22:30:00 9.6 C 6.32 g/m*3 9.6 C 0 km/h
2919 13-04-2017 22:35:00 9.4 C 6.33 g/m*3 9.4 C 1.6 km/h
2920 13-04-2017 22:40:00 9.3 C 6.38 g/m*3 9.3 C 1.6 km/h
2921 13-04-2017 22:45:00 9.2 C 6.43 g/m*3 9.2 C 1.6 km/h
2922 13-04-2017 22:50:00 9.2 C 6.43 g/m*3 9.2 C 0 km/h
2923 13-04-2017 22:55:00 9.2 C 6.43 g/m*3 9.2 C 0 km/h
2924 13-04-2017 23:00:00 9.2 C 6.43 g/m*3 9.2 C 0 km/h
2925 13-04-2017 23:05:00 9.2 C 6.52 g/m*3 9.2 C 0 km/h
Sensor: Nr:Datum:Temp:Abs-Feuchte:Windchill:Wind:
Aussen-T/F 2926 13-04-2017 23:10:00 9.2 C 6.61 g/m*3 9.2 C 0 km/h
2927 13-04-2017 23:15:00 9.2 C 6.61 g/m*3 9.2 C 0 km/h
2928 13-04-2017 23:20:00 9.2 C 6.61 g/m*3 9.2 C 0 km/h
2929 13-04-2017 23:25:00 9.2 C 6.61 g/m*3 9.2 C 0 km/h
2930 13-04-2017 23:30:00 9.2 C 6.7 g/m*3 9.2 C 0 km/h
2931 13-04-2017 23:35:00 9.3 C 6.65 g/m*3 9.3 C 0 km/h
2932 13-04-2017 23:40:00 9.2 C 6.7 g/m*3 9.2 C 0 km/h
2933 13-04-2017 23:45:00 9.2 C 6.52 g/m*3 9.2 C 0 km/h
2934 13-04-2017 23:50:00 9.1 C 6.48 g/m*3 9.1 C 1.6 km/h
2935 13-04-2017 23:55:00 9 C 6.35 g/m*3 9 C 3.2 km/h
2936 14-04-2017 00:00:00 8.8 C 6.27 g/m*3 8.8 C 0 km/h
2937 14-04-2017 00:05:00 8.7 C 6.23 g/m*3 8.7 C 0 km/h
2938 14-04-2017 00:10:00 8.7 C 6.31 g/m*3 8.7 C 1.6 km/h
2939 14-04-2017 00:15:00 8.6 C 6.19 g/m*3 7.75 C 6.4 km/h
2940 14-04-2017 00:20:00 8.6 C 6.19 g/m*3 8.6 C 0 km/h
2941 14-04-2017 00:25:00 8.5 C 6.15 g/m*3 8.5 C 0 km/h
2942 14-04-2017 00:30:00 8.5 C 6.15 g/m*3 8.5 C 1.6 km/h
2943 14-04-2017 00:35:00 8.7 C 6.23 g/m*3 8.7 C 0 km/h
2944 14-04-2017 00:40:00 8.8 C 6.27 g/m*3 8.8 C 3.2 km/h
2945 14-04-2017 00:45:00 9.1 C 6.12 g/m*3 7.61 C 9.7 km/h
2946 14-04-2017 00:50:00 9.4 C 6.15 g/m*3 8.28 C 8.1 km/h
2947 14-04-2017 00:55:00 9.6 C 6.14 g/m*3 7.94 C 11.3 km/h
2948 14-04-2017 01:00:00 9.7 C 6.18 g/m*3 9.02 C 6.4 km/h
2949 14-04-2017 01:05:00 9.7 C 6.18 g/m*3 9.7 C 3.2 km/h
2950 14-04-2017 01:10:00 9.5 C 6.1 g/m*3 8.79 C 6.4 km/h
Sensor: Nr:Datum:Temp:Abs-Feuchte:Windchill:Wind:
Aussen-T/F 2951 14-04-2017 01:15:00 9.4 C 6.06 g/m*3 8.28 C 8.1 km/h
2952 14-04-2017 01:20:00 9.4 C 6.06 g/m*3 9.4 C 4.8 km/h
2953 14-04-2017 01:25:00 9.4 C 6.15 g/m*3 9.4 C 3.2 km/h
2954 14-04-2017 01:30:00 9.3 C 6.11 g/m*3 7.85 C 9.7 km/h
2955 14-04-2017 01:35:00 9.2 C 6.07 g/m*3 8.05 C 8.1 km/h
2956 14-04-2017 01:40:00 9.2 C 6.16 g/m*3 9.2 C 3.2 km/h
2957 14-04-2017 01:45:00 8.9 C 6.13 g/m*3 8.9 C 3.2 km/h
2958 14-04-2017 01:50:00 8.7 C 6.05 g/m*3 8.7 C 4.8 km/h
2959 14-04-2017 01:55:00 8.6 C 6.1 g/m*3 8.6 C 1.6 km/h
2960 14-04-2017 02:00:00 8.3 C 6.15 g/m*3 8.3 C 3.2 km/h
2961 14-04-2017 02:05:00 8.2 C 6.2 g/m*3 8.2 C 3.2 km/h
2962 14-04-2017 02:10:00 7.9 C 6.08 g/m*3 7.9 C 1.6 km/h
2963 14-04-2017 02:15:00 7.7 C 6.08 g/m*3 7.7 C 3.2 km/h
2964 14-04-2017 02:20:00 7.8 C 6.12 g/m*3 6.4 C 8.1 km/h
2965 14-04-2017 02:25:00 7.7 C 6 g/m*3 7.7 C 4.8 km/h
2966 14-04-2017 02:30:00 7.7 C 6.08 g/m*3 7.7 C 3.2 km/h
2967 14-04-2017 02:35:00 7.5 C 6 g/m*3 7.5 C 3.2 km/h
2968 14-04-2017 02:40:00 7.3 C 6 g/m*3 7.3 C 1.6 km/h
2969 14-04-2017 02:45:00 7.2 C 6.04 g/m*3 7.2 C 4.8 km/h
2970 14-04-2017 02:50:00 7.1 C 6.01 g/m*3 7.1 C 4.8 km/h
2971 14-04-2017 02:55:00 7.1 C 6.08 g/m*3 7.1 C 0 km/h
2972 14-04-2017 03:00:00 6.9 C 6 g/m*3 6.9 C 3.2 km/h
2973 14-04-2017 03:05:00 6.7 C 6 g/m*3 6.7 C 3.2 km/h
2974 14-04-2017 03:10:00 6.6 C 6.04 g/m*3 6.6 C 3.2 km/h
2975 14-04-2017 03:15:00 6.6 C 6.04 g/m*3 6.6 C 3.2 km/h
Sensor: Nr:Datum:Temp:Abs-Feuchte:Windchill:Wind:
Aussen-T/F 2976 14-04-2017 03:20:00 6.5 C 6.07 g/m*3 6.5 C 3.2 km/h
2977 14-04-2017 03:25:00 6.5 C 6.07 g/m*3 6.5 C 0 km/h
2978 14-04-2017 03:30:00 6.4 C 6.04 g/m*3 6.4 C 0 km/h
2979 14-04-2017 03:35:00 6.3 C 6 g/m*3 6.3 C 0 km/h
2980 14-04-2017 03:40:00 6.2 C 5.96 g/m*3 6.2 C 0 km/h
2981 14-04-2017 03:45:00 6 C 5.95 g/m*3 6 C 0 km/h
2982 14-04-2017 03:50:00 5.8 C 5.87 g/m*3 5.8 C 3.2 km/h
2983 14-04-2017 03:55:00 5.8 C 5.87 g/m*3 5.8 C 1.6 km/h
2984 14-04-2017 04:00:00 5.7 C 5.84 g/m*3 5.7 C 0 km/h
2985 14-04-2017 04:05:00 5.6 C 5.87 g/m*3 5.6 C 0 km/h
2986 14-04-2017 04:10:00 5.6 C 5.94 g/m*3 5.6 C 1.6 km/h
2987 14-04-2017 04:15:00 5.6 C 5.94 g/m*3 5.6 C 1.6 km/h
2988 14-04-2017 04:20:00 5.6 C 5.94 g/m*3 5.6 C 0 km/h
2989 14-04-2017 04:25:00 5.6 C 5.94 g/m*3 5.6 C 0 km/h
2990 14-04-2017 04:30:00 5.6 C 6.01 g/m*3 5.6 C 3.2 km/h
2991 14-04-2017 04:35:00 5.6 C 6.01 g/m*3 5.6 C 0 km/h
2992 14-04-2017 04:40:00 5.6 C 6.01 g/m*3 5.6 C 0 km/h
2993 14-04-2017 04:45:00 5.6 C 5.94 g/m*3 5.6 C 0 km/h
2994 14-04-2017 04:50:00 5.4 C 5.86 g/m*3 5.4 C 0 km/h
2995 14-04-2017 04:55:00 5.3 C 5.89 g/m*3 5.3 C 0 km/h
2996 14-04-2017 05:00:00 5.2 C 5.85 g/m*3 5.2 C 0 km/h
2997 14-04-2017 05:05:00 5.2 C 5.85 g/m*3 5.2 C 0 km/h
2998 14-04-2017 05:10:00 5.1 C 5.81 g/m*3 5.1 C 0 km/h
2999 14-04-2017 05:15:00 5 C 5.84 g/m*3 5 C 0 km/h
3000 14-04-2017 05:20:00 4.9 C 5.81 g/m*3 4.9 C 3.2 km/h
Sensor: Nr:Datum:Temp:Abs-Feuchte:Windchill:Wind:
Aussen-T/F 3001 14-04-2017 05:25:00 4.8 C 5.77 g/m*3 4.8 C 0 km/h
3002 14-04-2017 05:30:00 4.8 C 5.83 g/m*3 4.8 C 0 km/h
3003 14-04-2017 05:35:00 4.8 C 5.77 g/m*3 4.8 C 0 km/h
3004 14-04-2017 05:40:00 4.7 C 5.8 g/m*3 4.7 C 1.6 km/h
3005 14-04-2017 05:45:00 4.6 C 5.76 g/m*3 4.6 C 1.6 km/h
3006 14-04-2017 05:50:00 4.6 C 5.82 g/m*3 4.6 C 0 km/h
3007 14-04-2017 05:55:00 4.5 C 5.78 g/m*3 4.5 C 0 km/h
3008 14-04-2017 06:00:00 4.4 C 5.75 g/m*3 4.4 C 0 km/h
3009 14-04-2017 06:05:00 4.3 C 5.64 g/m*3 4.3 C 0 km/h
3010 14-04-2017 06:10:00 4.1 C 5.57 g/m*3 4.1 C 0 km/h
3011 14-04-2017 06:15:00 3.9 C 5.56 g/m*3 3.9 C 1.6 km/h
3012 14-04-2017 06:20:00 3.8 C 5.52 g/m*3 3.8 C 1.6 km/h
3013 14-04-2017 06:25:00 3.8 C 5.58 g/m*3 3.8 C 1.6 km/h
3014 14-04-2017 06:30:00 3.7 C 5.55 g/m*3 3.7 C 0 km/h
3015 14-04-2017 06:35:00 3.6 C 5.51 g/m*3 3.6 C 0 km/h
3016 14-04-2017 06:40:00 3.4 C 5.44 g/m*3 3.4 C 0 km/h
3017 14-04-2017 06:45:00 3.3 C 5.4 g/m*3 3.3 C 0 km/h
3018 14-04-2017 06:50:00 3.3 C 5.46 g/m*3 3.3 C 0 km/h
3019 14-04-2017 06:55:00 3.2 C 5.42 g/m*3 3.2 C 0 km/h
3020 14-04-2017 07:00:00 3.2 C 5.42 g/m*3 3.2 C 0 km/h
3021 14-04-2017 07:05:00 3.1 C 5.39 g/m*3 3.1 C 0 km/h
3022 14-04-2017 07:10:00 3.1 C 5.45 g/m*3 3.1 C 0 km/h
3023 14-04-2017 07:15:00 3.1 C 5.45 g/m*3 3.1 C 0 km/h
3024 14-04-2017 07:20:00 3.1 C 5.45 g/m*3 3.1 C 0 km/h
3025 14-04-2017 07:25:00 3.1 C 5.45 g/m*3 3.1 C 0 km/h
Sensor: Nr:Datum:Temp:Abs-Feuchte:Windchill:Wind:
Aussen-T/F 3026 14-04-2017 07:30:00 3.1 C 5.45 g/m*3 3.1 C 0 km/h
3027 14-04-2017 07:35:00 3.1 C 5.51 g/m*3 3.1 C 0 km/h
3028 14-04-2017 07:40:00 3.1 C 5.51 g/m*3 3.1 C 0 km/h
3029 14-04-2017 07:45:00 3.2 C 5.54 g/m*3 3.2 C 0 km/h
3030 14-04-2017 07:50:00 3.2 C 5.54 g/m*3 3.2 C 0 km/h
3031 14-04-2017 07:55:00 3.3 C 5.58 g/m*3 3.3 C 0 km/h
3032 14-04-2017 08:00:00 3.3 C 5.58 g/m*3 3.3 C 0 km/h
3033 14-04-2017 08:05:00 3.3 C 5.58 g/m*3 3.3 C 0 km/h
3034 14-04-2017 08:10:00 3.4 C 5.62 g/m*3 3.4 C 0 km/h
3035 14-04-2017 08:15:00 3.4 C 5.62 g/m*3 3.4 C 0 km/h
3036 14-04-2017 08:20:00 3.5 C 5.66 g/m*3 3.5 C 0 km/h
3037 14-04-2017 08:25:00 3.6 C 5.69 g/m*3 3.6 C 0 km/h
3038 14-04-2017 08:30:00 3.7 C 5.8 g/m*3 3.7 C 0 km/h
3039 14-04-2017 08:35:00 3.8 C 5.83 g/m*3 3.8 C 0 km/h
3040 14-04-2017 08:40:00 3.8 C 5.83 g/m*3 3.8 C 1.6 km/h
3041 14-04-2017 08:45:00 4 C 5.91 g/m*3 4 C 0 km/h
3042 14-04-2017 08:50:00 4.1 C 5.95 g/m*3 4.1 C 0 km/h
3043 14-04-2017 08:55:00 4.2 C 5.99 g/m*3 4.2 C 0 km/h
3044 14-04-2017 09:00:00 4.3 C 6.03 g/m*3 4.3 C 0 km/h
3045 14-04-2017 09:05:00 4.4 C 6.07 g/m*3 4.4 C 0 km/h
3046 14-04-2017 09:10:00 4.6 C 6.09 g/m*3 4.6 C 0 km/h
3047 14-04-2017 09:15:00 4.7 C 6.13 g/m*3 4.7 C 0 km/h
3048 14-04-2017 09:20:00 4.8 C 6.17 g/m*3 4.8 C 0 km/h
3049 14-04-2017 09:25:00 5 C 6.25 g/m*3 5 C 0 km/h
3050 14-04-2017 09:30:00 5.2 C 6.33 g/m*3 5.2 C 0 km/h
Sensor: Nr:Datum:Temp:Abs-Feuchte:Windchill:Wind:
Aussen-T/F 3051 14-04-2017 09:35:00 5.3 C 6.31 g/m*3 5.3 C 0 km/h
3052 14-04-2017 09:40:00 5.6 C 6.43 g/m*3 5.6 C 0 km/h
3053 14-04-2017 09:45:00 5.7 C 6.48 g/m*3 5.7 C 0 km/h
3054 14-04-2017 09:50:00 5.8 C 6.45 g/m*3 5.8 C 0 km/h
3055 14-04-2017 09:55:00 5.9 C 6.49 g/m*3 5.9 C 0 km/h
3056 14-04-2017 10:00:00 6.1 C 6.5 g/m*3 6.1 C 1.6 km/h
3057 14-04-2017 10:05:00 6.3 C 6.51 g/m*3 6.3 C 1.6 km/h
3058 14-04-2017 10:10:00 6.6 C 6.49 g/m*3 6.6 C 0 km/h
3059 14-04-2017 10:15:00 6.8 C 6.58 g/m*3 6.8 C 0 km/h
3060 14-04-2017 10:20:00 6.9 C 6.54 g/m*3 6.9 C 0 km/h
3061 14-04-2017 10:25:00 7.2 C 6.44 g/m*3 7.2 C 1.6 km/h
3062 14-04-2017 10:30:00 7.5 C 6.4 g/m*3 7.5 C 1.6 km/h
3063 14-04-2017 10:35:00 7.8 C 6.37 g/m*3 7.8 C 3.2 km/h
3064 14-04-2017 10:40:00 8.1 C 6.57 g/m*3 8.1 C 4.8 km/h
3065 14-04-2017 10:45:00 8.3 C 6.41 g/m*3 8.3 C 4.8 km/h
3066 14-04-2017 10:50:00 8.6 C 6.36 g/m*3 8.6 C 3.2 km/h
3067 14-04-2017 10:55:00 8.8 C 6.44 g/m*3 8.8 C 1.6 km/h
3068 14-04-2017 11:00:00 9 C 6.52 g/m*3 9 C 4.8 km/h
3069 14-04-2017 11:05:00 9.2 C 6.43 g/m*3 9.2 C 1.6 km/h
3070 14-04-2017 11:10:00 9.4 C 6.6 g/m*3 9.4 C 4.8 km/h
3071 14-04-2017 11:15:00 9.5 C 6.55 g/m*3 9.5 C 1.6 km/h
3072 14-04-2017 11:20:00 9.8 C 6.59 g/m*3 9.14 C 6.4 km/h
3073 14-04-2017 11:25:00 10 C 6.58 g/m*3 10 C 4.8 km/h
3074 14-04-2017 11:30:00 10.1 C 6.52 g/m*3 10.1 C 3.2 km/h
3075 14-04-2017 11:35:00 10.3 C 6.61 g/m*3 10.3 C 3.2 km/h
Sensor: Nr:Datum:Temp:Abs-Feuchte:Windchill:Wind:
Aussen-T/F 3076 14-04-2017 11:40:00 10.4 C 6.55 g/m*3 10.4 C 4.8 km/h
3077 14-04-2017 11:45:00 10.7 C 6.58 g/m*3 10.7 C 4.8 km/h
3078 14-04-2017 11:50:00 10.8 C 6.52 g/m*3 10.29 C 6.4 km/h
3079 14-04-2017 11:55:00 10.9 C 6.56 g/m*3 10.9 C 3.2 km/h
3080 14-04-2017 12:00:00 11 C 6.41 g/m*3 11 C 3.2 km/h
3081 14-04-2017 12:05:00 11.1 C 6.55 g/m*3 11.1 C 3.2 km/h
3082 14-04-2017 12:10:00 11.2 C 6.39 g/m*3 11.2 C 4.8 km/h
3083 14-04-2017 12:15:00 11.5 C 6.3 g/m*3 11.5 C 6.4 km/h
3084 14-04-2017 12:20:00 11.8 C 6.31 g/m*3 11.8 C 9.7 km/h
3085 14-04-2017 12:25:00 11.9 C 6.04 g/m*3 11.9 C 11.3 km/h
3086 14-04-2017 12:30:00 11.9 C 6.04 g/m*3 11.9 C 14.5 km/h
3087 14-04-2017 12:35:00 11.9 C 6.14 g/m*3 11.9 C 14.5 km/h
3088 14-04-2017 12:40:00 12 C 6.07 g/m*3 12 C 9.7 km/h
3089 14-04-2017 12:45:00 12 C 5.97 g/m*3 12 C 6.4 km/h
3090 14-04-2017 12:50:00 11.9 C 5.82 g/m*3 11.9 C 8.1 km/h
3091 14-04-2017 12:55:00 11.9 C 5.82 g/m*3 11.9 C 6.4 km/h
3092 14-04-2017 13:00:00 11.9 C 6.04 g/m*3 11.9 C 3.2 km/h
3093 14-04-2017 13:05:00 12 C 5.86 g/m*3 12 C 4.8 km/h
3094 14-04-2017 13:10:00 12.1 C 6.01 g/m*3 12.1 C 6.4 km/h
3095 14-04-2017 13:15:00 12.1 C 5.79 g/m*3 12.1 C 14.5 km/h
3096 14-04-2017 13:20:00 12.2 C 5.83 g/m*3 12.2 C 6.4 km/h
3097 14-04-2017 13:25:00 12.3 C 5.86 g/m*3 12.3 C 6.4 km/h
3098 14-04-2017 13:30:00 12.5 C 5.94 g/m*3 12.5 C 9.7 km/h
3099 14-04-2017 13:35:00 12.7 C 6.01 g/m*3 12.7 C 11.3 km/h
3100 14-04-2017 13:40:00 12.8 C 6.16 g/m*3 12.8 C 6.4 km/h
Sensor: Nr:Datum:Temp:Abs-Feuchte:Windchill:Wind:
Aussen-T/F 3101 14-04-2017 13:45:00 12.9 C 5.97 g/m*3 12.9 C 16.1 km/h
3102 14-04-2017 13:50:00 13 C 5.9 g/m*3 13 C 6.4 km/h
3103 14-04-2017 13:55:00 13.1 C 5.82 g/m*3 13.1 C 6.4 km/h
3104 14-04-2017 14:00:00 13.1 C 5.82 g/m*3 13.1 C 8.1 km/h
3105 14-04-2017 14:05:00 13.2 C 5.97 g/m*3 13.2 C 3.2 km/h
3106 14-04-2017 14:10:00 13.3 C 6.01 g/m*3 13.3 C 3.2 km/h
3107 14-04-2017 14:15:00 13.5 C 5.97 g/m*3 13.5 C 9.7 km/h
3108 14-04-2017 14:20:00 13.6 C 5.88 g/m*3 13.6 C 9.7 km/h
3109 14-04-2017 14:25:00 13.7 C 6.04 g/m*3 13.7 C 6.4 km/h
3110 14-04-2017 14:30:00 13.8 C 5.96 g/m*3 13.8 C 4.8 km/h
3111 14-04-2017 14:35:00 13.9 C 6.11 g/m*3 13.9 C 6.4 km/h
3112 14-04-2017 14:40:00 14.1 C 6.07 g/m*3 14.1 C 6.4 km/h
3113 14-04-2017 14:45:00 14.3 C 6.02 g/m*3 14.3 C 11.3 km/h
3114 14-04-2017 14:50:00 14.4 C 5.81 g/m*3 14.4 C 6.4 km/h
3115 14-04-2017 14:55:00 14.6 C 6.13 g/m*3 14.6 C 8.1 km/h
3116 14-04-2017 15:00:00 14.7 C 5.92 g/m*3 14.7 C 8.1 km/h
3117 14-04-2017 15:05:00 14.8 C 5.95 g/m*3 14.8 C 8.1 km/h
3118 14-04-2017 15:10:00 15 C 6.28 g/m*3 15 C 8.1 km/h
3119 14-04-2017 15:15:00 15.1 C 6.19 g/m*3 15.1 C 8.1 km/h
3120 14-04-2017 15:20:00 15.3 C 6.14 g/m*3 15.3 C 9.7 km/h
3121 14-04-2017 15:25:00 15.3 C 6.01 g/m*3 15.3 C 4.8 km/h
3122 14-04-2017 15:30:00 15.4 C 5.91 g/m*3 15.4 C 11.3 km/h
3123 14-04-2017 15:35:00 15.5 C 6.21 g/m*3 15.5 C 8.1 km/h
3124 14-04-2017 15:40:00 15.6 C 6.12 g/m*3 15.6 C 14.5 km/h
3125 14-04-2017 15:45:00 15.5 C 6.21 g/m*3 15.5 C 11.3 km/h
Sensor: Nr:Datum:Temp:Abs-Feuchte:Windchill:Wind:
Aussen-T/F 3126 14-04-2017 15:50:00 15.5 C 6.08 g/m*3 15.5 C 12.9 km/h
3127 14-04-2017 15:55:00 15.4 C 6.04 g/m*3 15.4 C 14.5 km/h
3128 14-04-2017 16:00:00 15.5 C 6.21 g/m*3 15.5 C 12.9 km/h
3129 14-04-2017 16:05:00 15.6 C 6.12 g/m*3 15.6 C 11.3 km/h
3130 14-04-2017 16:10:00 15.7 C 6.15 g/m*3 15.7 C 12.9 km/h
3131 14-04-2017 16:15:00 15.7 C 6.02 g/m*3 15.7 C 9.7 km/h
3132 14-04-2017 16:20:00 15.7 C 6.15 g/m*3 15.7 C 14.5 km/h
3133 14-04-2017 16:25:00 15.6 C 6.25 g/m*3 15.6 C 11.3 km/h
3134 14-04-2017 16:30:00 15.6 C 6.25 g/m*3 15.6 C 14.5 km/h
3135 14-04-2017 16:35:00 15.4 C 6.18 g/m*3 15.4 C 11.3 km/h
3136 14-04-2017 16:40:00 15.4 C 6.31 g/m*3 15.4 C 8.1 km/h
3137 14-04-2017 16:45:00 15.5 C 6.21 g/m*3 15.5 C 11.3 km/h
3138 14-04-2017 16:50:00 15.4 C 6.18 g/m*3 15.4 C 8.1 km/h
3139 14-04-2017 16:55:00 15.4 C 6.04 g/m*3 15.4 C 11.3 km/h
3140 14-04-2017 17:00:00 15.7 C 6.02 g/m*3 15.7 C 6.4 km/h
3141 14-04-2017 17:05:00 15.8 C 6.33 g/m*3 15.8 C 8.1 km/h
3142 14-04-2017 17:10:00 16.1 C 6.31 g/m*3 16.1 C 11.3 km/h
3143 14-04-2017 17:15:00 15.8 C 6.19 g/m*3 15.8 C 14.5 km/h
3144 14-04-2017 17:20:00 15.6 C 6.25 g/m*3 15.6 C 9.7 km/h
3145 14-04-2017 17:25:00 15.4 C 6.18 g/m*3 15.4 C 11.3 km/h
3146 14-04-2017 17:30:00 15.4 C 6.18 g/m*3 15.4 C 6.4 km/h
3147 14-04-2017 17:35:00 15.3 C 6.14 g/m*3 15.3 C 6.4 km/h
3148 14-04-2017 17:40:00 15.6 C 6.38 g/m*3 15.6 C 6.4 km/h
3149 14-04-2017 17:45:00 15.9 C 6.23 g/m*3 15.9 C 11.3 km/h
3150 14-04-2017 17:50:00 16 C 6.27 g/m*3 16 C 12.9 km/h
Sensor: Nr:Datum:Temp:Abs-Feuchte:Windchill:Wind:
Aussen-T/F 3151 14-04-2017 17:55:00 16.2 C 6.21 g/m*3 16.2 C 9.7 km/h
3152 14-04-2017 18:00:00 16.4 C 6.14 g/m*3 16.4 C 9.7 km/h
3153 14-04-2017 18:05:00 16.6 C 6.22 g/m*3 16.6 C 11.3 km/h
3154 14-04-2017 18:10:00 16.6 C 6.22 g/m*3 16.6 C 12.9 km/h
3155 14-04-2017 18:15:00 16.4 C 6.14 g/m*3 16.4 C 12.9 km/h
3156 14-04-2017 18:20:00 16.2 C 6.21 g/m*3 16.2 C 6.4 km/h
3157 14-04-2017 18:25:00 15.7 C 6.15 g/m*3 15.7 C 11.3 km/h
3158 14-04-2017 18:30:00 15.4 C 6.18 g/m*3 15.4 C 6.4 km/h
3159 14-04-2017 18:35:00 15.3 C 6.27 g/m*3 15.3 C 9.7 km/h
3160 14-04-2017 18:40:00 15.2 C 6.1 g/m*3 15.2 C 8.1 km/h
3161 14-04-2017 18:45:00 15.1 C 6.19 g/m*3 15.1 C 6.4 km/h
3162 14-04-2017 18:50:00 14.9 C 6.25 g/m*3 14.9 C 4.8 km/h
3163 14-04-2017 18:55:00 14.8 C 6.21 g/m*3 14.8 C 4.8 km/h
3164 14-04-2017 19:00:00 14.7 C 6.3 g/m*3 14.7 C 8.1 km/h
3165 14-04-2017 19:05:00 14.7 C 6.3 g/m*3 14.7 C 11.3 km/h
3166 14-04-2017 19:10:00 14.6 C 6.26 g/m*3 14.6 C 9.7 km/h
3167 14-04-2017 19:15:00 14.5 C 6.22 g/m*3 14.5 C 11.3 km/h
3168 14-04-2017 19:20:00 14.3 C 6.14 g/m*3 14.3 C 9.7 km/h
3169 14-04-2017 19:25:00 14.2 C 6.23 g/m*3 14.2 C 6.4 km/h
3170 14-04-2017 19:30:00 14.1 C 6.31 g/m*3 14.1 C 6.4 km/h
3171 14-04-2017 19:35:00 13.9 C 6.23 g/m*3 13.9 C 11.3 km/h
3172 14-04-2017 19:40:00 13.8 C 6.31 g/m*3 13.8 C 12.9 km/h
3173 14-04-2017 19:45:00 13.7 C 6.39 g/m*3 13.7 C 8.1 km/h
3174 14-04-2017 19:50:00 13.6 C 6.36 g/m*3 13.6 C 8.1 km/h
3175 14-04-2017 19:55:00 13.5 C 6.43 g/m*3 13.5 C 4.8 km/h
Sensor: Nr:Datum:Temp:Abs-Feuchte:Windchill:Wind:
Aussen-T/F 3176 14-04-2017 20:00:00 13.4 C 6.39 g/m*3 13.4 C 6.4 km/h
3177 14-04-2017 20:05:00 13.2 C 6.43 g/m*3 13.2 C 9.7 km/h
3178 14-04-2017 20:10:00 13.1 C 6.39 g/m*3 13.1 C 8.1 km/h
3179 14-04-2017 20:15:00 12.9 C 6.31 g/m*3 12.9 C 3.2 km/h
3180 14-04-2017 20:20:00 12.8 C 6.5 g/m*3 12.8 C 3.2 km/h
3181 14-04-2017 20:25:00 12.7 C 6.57 g/m*3 12.7 C 6.4 km/h
3182 14-04-2017 20:30:00 12.4 C 6.56 g/m*3 12.4 C 4.8 km/h
3183 14-04-2017 20:35:00 12.2 C 6.47 g/m*3 12.2 C 1.6 km/h
3184 14-04-2017 20:40:00 12.1 C 6.43 g/m*3 12.1 C 4.8 km/h
3185 14-04-2017 20:45:00 12 C 6.5 g/m*3 12 C 1.6 km/h
3186 14-04-2017 20:50:00 11.9 C 6.57 g/m*3 11.9 C 1.6 km/h
3187 14-04-2017 20:55:00 11.8 C 6.53 g/m*3 11.8 C 1.6 km/h
3188 14-04-2017 21:00:00 11.7 C 6.48 g/m*3 11.7 C 0 km/h
3189 14-04-2017 21:05:00 11.7 C 6.59 g/m*3 11.7 C 0 km/h
3190 14-04-2017 21:10:00 11.5 C 6.61 g/m*3 11.5 C 0 km/h
3191 14-04-2017 21:15:00 11.3 C 6.63 g/m*3 11.3 C 0 km/h
3192 14-04-2017 21:20:00 11.2 C 6.69 g/m*3 11.2 C 0 km/h
3193 14-04-2017 21:25:00 11.1 C 6.55 g/m*3 11.1 C 3.2 km/h
3194 14-04-2017 21:30:00 11.1 C 6.75 g/m*3 11.1 C 1.6 km/h
3195 14-04-2017 21:35:00 11.1 C 6.75 g/m*3 11.1 C 0 km/h
3196 14-04-2017 21:40:00 11 C 6.71 g/m*3 11 C 0 km/h
3197 14-04-2017 21:45:00 10.9 C 6.56 g/m*3 10.9 C 1.6 km/h
3198 14-04-2017 21:50:00 10.9 C 6.76 g/m*3 10.9 C 0 km/h
3199 14-04-2017 21:55:00 10.9 C 6.76 g/m*3 10.9 C 0 km/h
3200 14-04-2017 22:00:00 10.9 C 6.66 g/m*3 10.9 C 0 km/h
Sensor: Nr:Datum:Temp:Abs-Feuchte:Windchill:Wind:
Aussen-T/F 3201 14-04-2017 22:05:00 10.9 C 6.76 g/m*3 10.9 C 0 km/h
3202 14-04-2017 22:10:00 10.8 C 6.82 g/m*3 10.8 C 1.6 km/h
3203 14-04-2017 22:15:00 10.8 C 6.82 g/m*3 10.8 C 0 km/h
3204 14-04-2017 22:20:00 10.7 C 6.78 g/m*3 10.7 C 0 km/h
3205 14-04-2017 22:25:00 10.7 C 6.78 g/m*3 10.7 C 0 km/h
3206 14-04-2017 22:30:00 10.6 C 6.73 g/m*3 10.6 C 1.6 km/h
3207 14-04-2017 22:35:00 10.6 C 6.73 g/m*3 10.6 C 1.6 km/h
3208 14-04-2017 22:40:00 10.6 C 6.73 g/m*3 10.6 C 1.6 km/h
3209 14-04-2017 22:45:00 10.6 C 6.73 g/m*3 10.6 C 1.6 km/h
3210 14-04-2017 22:50:00 10.6 C 6.73 g/m*3 10.6 C 1.6 km/h
3211 14-04-2017 22:55:00 10.6 C 6.73 g/m*3 10.6 C 1.6 km/h
3212 14-04-2017 23:00:00 10.6 C 6.73 g/m*3 10.6 C 0 km/h
3213 14-04-2017 23:05:00 10.6 C 6.73 g/m*3 10.6 C 0 km/h
3214 14-04-2017 23:10:00 10.5 C 6.69 g/m*3 10.5 C 0 km/h
3215 14-04-2017 23:15:00 10.5 C 6.69 g/m*3 10.5 C 1.6 km/h
3216 14-04-2017 23:20:00 10.4 C 6.75 g/m*3 10.4 C 1.6 km/h
3217 14-04-2017 23:25:00 10.4 C 6.75 g/m*3 10.4 C 1.6 km/h
3218 14-04-2017 23:30:00 10.4 C 6.84 g/m*3 10.4 C 0 km/h
3219 14-04-2017 23:35:00 10.3 C 6.9 g/m*3 10.3 C 0 km/h
3220 14-04-2017 23:40:00 10.3 C 6.9 g/m*3 10.3 C 0 km/h
3221 14-04-2017 23:45:00 10.1 C 6.81 g/m*3